<?xml version="1.0" encoding="UTF-8" standalone="no" ?>
<gpx xmlns="http://www.topografix.com/GPX/1/1" xmlns:xsi="http://www.w3.org/2001/XMLSchema-instance" xsi:schemaLocation="http://www.topografix.com/GPX/1/1 http://www.topografix.com/GPX/1/1/gpx.xsd" version="1.1" creator="VisuGPX - https://www.visugpx.com">
  <metadata>
    <name>Tour des Voirons   Montée au Signal</name>
    <desc><![CDATA[Tour des Voirons   Montée au Signal]]></desc>
  </metadata>
  <trk>
    <name><![CDATA[2015-07-05 [Vélo] Tour des Voirons + Monastère]]></name>
    <trkseg>
      <trkpt lat="46.1825" lon="6.20695">
        <ele>410</ele>
        <time>2015-07-05T15:12:29Z</time>
      </trkpt>
      <trkpt lat="46.18255" lon="6.20693">
        <ele>416</ele>
        <time>2015-07-05T15:12:57Z</time>
      </trkpt>
      <trkpt lat="46.18256" lon="6.20693">
        <ele>417</ele>
        <time>2015-07-05T15:13:01Z</time>
      </trkpt>
      <trkpt lat="46.18257" lon="6.20693">
        <ele>417</ele>
        <time>2015-07-05T15:13:03Z</time>
      </trkpt>
      <trkpt lat="46.18257" lon="6.20694">
        <ele>417</ele>
        <time>2015-07-05T15:13:05Z</time>
      </trkpt>
      <trkpt lat="46.18257" lon="6.20694">
        <ele>417</ele>
        <time>2015-07-05T15:13:07Z</time>
      </trkpt>
      <trkpt lat="46.18256" lon="6.20694">
        <ele>417</ele>
        <time>2015-07-05T15:13:09Z</time>
      </trkpt>
      <trkpt lat="46.18256" lon="6.20694">
        <ele>417</ele>
        <time>2015-07-05T15:13:10Z</time>
      </trkpt>
      <trkpt lat="46.18256" lon="6.20694">
        <ele>417</ele>
        <time>2015-07-05T15:13:12Z</time>
      </trkpt>
      <trkpt lat="46.18255" lon="6.20694">
        <ele>417</ele>
        <time>2015-07-05T15:13:15Z</time>
      </trkpt>
      <trkpt lat="46.18255" lon="6.20694">
        <ele>417</ele>
        <time>2015-07-05T15:13:18Z</time>
      </trkpt>
      <trkpt lat="46.18254" lon="6.20693">
        <ele>416</ele>
        <time>2015-07-05T15:13:21Z</time>
      </trkpt>
      <trkpt lat="46.18254" lon="6.20693">
        <ele>416</ele>
        <time>2015-07-05T15:13:25Z</time>
      </trkpt>
      <trkpt lat="46.18255" lon="6.20693">
        <ele>417</ele>
        <time>2015-07-05T15:13:28Z</time>
      </trkpt>
      <trkpt lat="46.18256" lon="6.20693">
        <ele>417</ele>
        <time>2015-07-05T15:13:32Z</time>
      </trkpt>
      <trkpt lat="46.18257" lon="6.20691">
        <ele>416</ele>
        <time>2015-07-05T15:13:37Z</time>
      </trkpt>
      <trkpt lat="46.18256" lon="6.20691">
        <ele>416</ele>
        <time>2015-07-05T15:13:43Z</time>
      </trkpt>
      <trkpt lat="46.18255" lon="6.20692">
        <ele>416</ele>
        <time>2015-07-05T15:14:13Z</time>
      </trkpt>
      <trkpt lat="46.18252" lon="6.20694">
        <ele>416</ele>
        <time>2015-07-05T15:14:51Z</time>
      </trkpt>
      <trkpt lat="46.18257" lon="6.20689">
        <ele>416</ele>
        <time>2015-07-05T15:15:29Z</time>
      </trkpt>
      <trkpt lat="46.18256" lon="6.20694">
        <ele>417</ele>
        <time>2015-07-05T15:16:12Z</time>
      </trkpt>
      <trkpt lat="46.18256" lon="6.20698">
        <ele>417</ele>
        <time>2015-07-05T15:16:53Z</time>
      </trkpt>
      <trkpt lat="46.18255" lon="6.20699">
        <ele>417</ele>
        <time>2015-07-05T15:17:31Z</time>
      </trkpt>
      <trkpt lat="46.18256" lon="6.207">
        <ele>417</ele>
        <time>2015-07-05T15:18:08Z</time>
      </trkpt>
      <trkpt lat="46.18253" lon="6.20699">
        <ele>417</ele>
        <time>2015-07-05T15:18:45Z</time>
      </trkpt>
      <trkpt lat="46.18256" lon="6.207">
        <ele>417</ele>
        <time>2015-07-05T15:19:20Z</time>
      </trkpt>
      <trkpt lat="46.18256" lon="6.20705">
        <ele>417</ele>
        <time>2015-07-05T15:19:58Z</time>
      </trkpt>
      <trkpt lat="46.18255" lon="6.20704">
        <ele>417</ele>
        <time>2015-07-05T15:20:40Z</time>
      </trkpt>
      <trkpt lat="46.18256" lon="6.20703">
        <ele>417</ele>
        <time>2015-07-05T15:21:17Z</time>
      </trkpt>
      <trkpt lat="46.18258" lon="6.20696">
        <ele>417</ele>
        <time>2015-07-05T15:22:04Z</time>
      </trkpt>
      <trkpt lat="46.18261" lon="6.20696">
        <ele>417</ele>
        <time>2015-07-05T15:22:49Z</time>
      </trkpt>
      <trkpt lat="46.1826" lon="6.20694">
        <ele>417</ele>
        <time>2015-07-05T15:23:31Z</time>
      </trkpt>
      <trkpt lat="46.18259" lon="6.20691">
        <ele>417</ele>
        <time>2015-07-05T15:24:15Z</time>
      </trkpt>
      <trkpt lat="46.18264" lon="6.20693">
        <ele>417</ele>
        <time>2015-07-05T15:24:55Z</time>
      </trkpt>
      <trkpt lat="46.18259" lon="6.20694">
        <ele>417</ele>
        <time>2015-07-05T15:25:29Z</time>
      </trkpt>
      <trkpt lat="46.18254" lon="6.20692">
        <ele>416</ele>
        <time>2015-07-05T15:26:11Z</time>
      </trkpt>
      <trkpt lat="46.18253" lon="6.20696">
        <ele>417</ele>
        <time>2015-07-05T15:26:43Z</time>
      </trkpt>
      <trkpt lat="46.18257" lon="6.20693">
        <ele>417</ele>
        <time>2015-07-05T15:27:19Z</time>
      </trkpt>
      <trkpt lat="46.18254" lon="6.20692">
        <ele>416</ele>
        <time>2015-07-05T15:27:49Z</time>
      </trkpt>
      <trkpt lat="46.1826" lon="6.20695">
        <ele>417</ele>
        <time>2015-07-05T15:28:24Z</time>
      </trkpt>
      <trkpt lat="46.18256" lon="6.20693">
        <ele>417</ele>
        <time>2015-07-05T15:29:07Z</time>
      </trkpt>
      <trkpt lat="46.18255" lon="6.20693">
        <ele>416</ele>
        <time>2015-07-05T15:29:47Z</time>
      </trkpt>
      <trkpt lat="46.18258" lon="6.2069">
        <ele>417</ele>
        <time>2015-07-05T15:30:27Z</time>
      </trkpt>
      <trkpt lat="46.18256" lon="6.20694">
        <ele>417</ele>
        <time>2015-07-05T15:31:06Z</time>
      </trkpt>
      <trkpt lat="46.18257" lon="6.2069">
        <ele>416</ele>
        <time>2015-07-05T15:31:50Z</time>
      </trkpt>
      <trkpt lat="46.18261" lon="6.20695">
        <ele>417</ele>
        <time>2015-07-05T15:32:30Z</time>
      </trkpt>
      <trkpt lat="46.18259" lon="6.20697">
        <ele>417</ele>
        <time>2015-07-05T15:33:19Z</time>
      </trkpt>
      <trkpt lat="46.18256" lon="6.20695">
        <ele>417</ele>
        <time>2015-07-05T15:33:49Z</time>
      </trkpt>
      <trkpt lat="46.18256" lon="6.20698">
        <ele>417</ele>
        <time>2015-07-05T15:34:31Z</time>
      </trkpt>
      <trkpt lat="46.18254" lon="6.20698">
        <ele>417</ele>
        <time>2015-07-05T15:35:05Z</time>
      </trkpt>
      <trkpt lat="46.18258" lon="6.20697">
        <ele>417</ele>
        <time>2015-07-05T15:35:38Z</time>
      </trkpt>
      <trkpt lat="46.18267" lon="6.2069">
        <ele>417</ele>
        <time>2015-07-05T15:35:57Z</time>
      </trkpt>
      <trkpt lat="46.18267" lon="6.20693">
        <ele>417</ele>
        <time>2015-07-05T15:36:00Z</time>
      </trkpt>
      <trkpt lat="46.18269" lon="6.20705">
        <ele>417</ele>
        <time>2015-07-05T15:36:04Z</time>
      </trkpt>
      <trkpt lat="46.18285" lon="6.20799">
        <ele>418</ele>
        <time>2015-07-05T15:36:16Z</time>
      </trkpt>
      <trkpt lat="46.18289" lon="6.20921">
        <ele>418</ele>
        <time>2015-07-05T15:36:28Z</time>
      </trkpt>
      <trkpt lat="46.1829" lon="6.21026">
        <ele>418</ele>
        <time>2015-07-05T15:36:38Z</time>
      </trkpt>
      <trkpt lat="46.18309" lon="6.21084">
        <ele>421</ele>
        <time>2015-07-05T15:36:44Z</time>
      </trkpt>
      <trkpt lat="46.18323" lon="6.21107">
        <ele>422</ele>
        <time>2015-07-05T15:36:47Z</time>
      </trkpt>
      <trkpt lat="46.18348" lon="6.21125">
        <ele>423</ele>
        <time>2015-07-05T15:36:51Z</time>
      </trkpt>
      <trkpt lat="46.18369" lon="6.21131">
        <ele>423</ele>
        <time>2015-07-05T15:36:54Z</time>
      </trkpt>
      <trkpt lat="46.18398" lon="6.21132">
        <ele>422</ele>
        <time>2015-07-05T15:36:58Z</time>
      </trkpt>
      <trkpt lat="46.18471" lon="6.21163">
        <ele>419</ele>
        <time>2015-07-05T15:37:08Z</time>
      </trkpt>
      <trkpt lat="46.18587" lon="6.21234">
        <ele>418</ele>
        <time>2015-07-05T15:37:24Z</time>
      </trkpt>
      <trkpt lat="46.18712" lon="6.21305">
        <ele>419</ele>
        <time>2015-07-05T15:37:41Z</time>
      </trkpt>
      <trkpt lat="46.18719" lon="6.21308">
        <ele>419</ele>
        <time>2015-07-05T15:37:42Z</time>
      </trkpt>
      <trkpt lat="46.18752" lon="6.21334">
        <ele>419</ele>
        <time>2015-07-05T15:37:47Z</time>
      </trkpt>
      <trkpt lat="46.18823" lon="6.21464">
        <ele>416</ele>
        <time>2015-07-05T15:38:02Z</time>
      </trkpt>
      <trkpt lat="46.1885" lon="6.21554">
        <ele>419</ele>
        <time>2015-07-05T15:38:10Z</time>
      </trkpt>
      <trkpt lat="46.18859" lon="6.21573">
        <ele>419</ele>
        <time>2015-07-05T15:38:12Z</time>
      </trkpt>
      <trkpt lat="46.18864" lon="6.21582">
        <ele>419</ele>
        <time>2015-07-05T15:38:13Z</time>
      </trkpt>
      <trkpt lat="46.18938" lon="6.21657">
        <ele>419</ele>
        <time>2015-07-05T15:38:25Z</time>
      </trkpt>
      <trkpt lat="46.19022" lon="6.21765">
        <ele>421</ele>
        <time>2015-07-05T15:38:40Z</time>
      </trkpt>
      <trkpt lat="46.19075" lon="6.2186">
        <ele>422</ele>
        <time>2015-07-05T15:38:51Z</time>
      </trkpt>
      <trkpt lat="46.19099" lon="6.21884">
        <ele>424</ele>
        <time>2015-07-05T15:38:55Z</time>
      </trkpt>
      <trkpt lat="46.19163" lon="6.21924">
        <ele>424</ele>
        <time>2015-07-05T15:39:08Z</time>
      </trkpt>
      <trkpt lat="46.19168" lon="6.21942">
        <ele>424</ele>
        <time>2015-07-05T15:39:11Z</time>
      </trkpt>
      <trkpt lat="46.19183" lon="6.22089">
        <ele>423</ele>
        <time>2015-07-05T15:39:26Z</time>
      </trkpt>
      <trkpt lat="46.19219" lon="6.22231">
        <ele>424</ele>
        <time>2015-07-05T15:39:40Z</time>
      </trkpt>
      <trkpt lat="46.19238" lon="6.22297">
        <ele>425</ele>
        <time>2015-07-05T15:39:47Z</time>
      </trkpt>
      <trkpt lat="46.19256" lon="6.22353">
        <ele>428</ele>
        <time>2015-07-05T15:39:53Z</time>
      </trkpt>
      <trkpt lat="46.19263" lon="6.22371">
        <ele>428</ele>
        <time>2015-07-05T15:39:55Z</time>
      </trkpt>
      <trkpt lat="46.19292" lon="6.22487">
        <ele>428</ele>
        <time>2015-07-05T15:40:09Z</time>
      </trkpt>
      <trkpt lat="46.19304" lon="6.22608">
        <ele>429</ele>
        <time>2015-07-05T15:40:21Z</time>
      </trkpt>
      <trkpt lat="46.19303" lon="6.22649">
        <ele>430</ele>
        <time>2015-07-05T15:40:25Z</time>
      </trkpt>
      <trkpt lat="46.193" lon="6.22696">
        <ele>431</ele>
        <time>2015-07-05T15:40:31Z</time>
      </trkpt>
      <trkpt lat="46.19297" lon="6.22732">
        <ele>431</ele>
        <time>2015-07-05T15:40:36Z</time>
      </trkpt>
      <trkpt lat="46.19293" lon="6.22778">
        <ele>431</ele>
        <time>2015-07-05T15:40:41Z</time>
      </trkpt>
      <trkpt lat="46.19284" lon="6.22872">
        <ele>431</ele>
        <time>2015-07-05T15:40:52Z</time>
      </trkpt>
      <trkpt lat="46.19304" lon="6.22876">
        <ele>431</ele>
        <time>2015-07-05T15:40:59Z</time>
      </trkpt>
      <trkpt lat="46.19309" lon="6.22872">
        <ele>431</ele>
        <time>2015-07-05T15:41:00Z</time>
      </trkpt>
      <trkpt lat="46.19339" lon="6.2286">
        <ele>431</ele>
        <time>2015-07-05T15:41:05Z</time>
      </trkpt>
      <trkpt lat="46.19379" lon="6.22868">
        <ele>431</ele>
        <time>2015-07-05T15:41:14Z</time>
      </trkpt>
      <trkpt lat="46.19384" lon="6.22871">
        <ele>431</ele>
        <time>2015-07-05T15:41:15Z</time>
      </trkpt>
      <trkpt lat="46.19488" lon="6.22943">
        <ele>431</ele>
        <time>2015-07-05T15:41:30Z</time>
      </trkpt>
      <trkpt lat="46.19505" lon="6.22967">
        <ele>431</ele>
        <time>2015-07-05T15:41:33Z</time>
      </trkpt>
      <trkpt lat="46.19575" lon="6.23116">
        <ele>433</ele>
        <time>2015-07-05T15:41:49Z</time>
      </trkpt>
      <trkpt lat="46.19605" lon="6.23171">
        <ele>434</ele>
        <time>2015-07-05T15:41:56Z</time>
      </trkpt>
      <trkpt lat="46.19682" lon="6.23304">
        <ele>433</ele>
        <time>2015-07-05T15:42:11Z</time>
      </trkpt>
      <trkpt lat="46.19798" lon="6.23506">
        <ele>436</ele>
        <time>2015-07-05T15:42:33Z</time>
      </trkpt>
      <trkpt lat="46.19804" lon="6.23515">
        <ele>435</ele>
        <time>2015-07-05T15:42:34Z</time>
      </trkpt>
      <trkpt lat="46.19879" lon="6.23652">
        <ele>434</ele>
        <time>2015-07-05T15:42:50Z</time>
      </trkpt>
      <trkpt lat="46.19886" lon="6.23668">
        <ele>434</ele>
        <time>2015-07-05T15:42:52Z</time>
      </trkpt>
      <trkpt lat="46.19899" lon="6.23705">
        <ele>434</ele>
        <time>2015-07-05T15:42:57Z</time>
      </trkpt>
      <trkpt lat="46.19893" lon="6.23746">
        <ele>435</ele>
        <time>2015-07-05T15:43:02Z</time>
      </trkpt>
      <trkpt lat="46.19804" lon="6.23856">
        <ele>439</ele>
        <time>2015-07-05T15:43:19Z</time>
      </trkpt>
      <trkpt lat="46.19789" lon="6.23874">
        <ele>439</ele>
        <time>2015-07-05T15:43:22Z</time>
      </trkpt>
      <trkpt lat="46.19789" lon="6.23908">
        <ele>440</ele>
        <time>2015-07-05T15:43:27Z</time>
      </trkpt>
      <trkpt lat="46.19865" lon="6.23982">
        <ele>438</ele>
        <time>2015-07-05T15:43:40Z</time>
      </trkpt>
      <trkpt lat="46.19931" lon="6.24054">
        <ele>436</ele>
        <time>2015-07-05T15:43:51Z</time>
      </trkpt>
      <trkpt lat="46.20001" lon="6.24188">
        <ele>438</ele>
        <time>2015-07-05T15:44:06Z</time>
      </trkpt>
      <trkpt lat="46.20061" lon="6.24314">
        <ele>437</ele>
        <time>2015-07-05T15:44:20Z</time>
      </trkpt>
      <trkpt lat="46.20084" lon="6.24359">
        <ele>437</ele>
        <time>2015-07-05T15:44:27Z</time>
      </trkpt>
      <trkpt lat="46.20098" lon="6.24379">
        <ele>437</ele>
        <time>2015-07-05T15:44:30Z</time>
      </trkpt>
      <trkpt lat="46.20107" lon="6.24419">
        <ele>438</ele>
        <time>2015-07-05T15:44:34Z</time>
      </trkpt>
      <trkpt lat="46.20119" lon="6.24543">
        <ele>440</ele>
        <time>2015-07-05T15:44:45Z</time>
      </trkpt>
      <trkpt lat="46.20132" lon="6.24591">
        <ele>442</ele>
        <time>2015-07-05T15:44:50Z</time>
      </trkpt>
      <trkpt lat="46.20134" lon="6.24639">
        <ele>443</ele>
        <time>2015-07-05T15:44:55Z</time>
      </trkpt>
      <trkpt lat="46.20143" lon="6.24651">
        <ele>443</ele>
        <time>2015-07-05T15:44:57Z</time>
      </trkpt>
      <trkpt lat="46.20149" lon="6.24695">
        <ele>444</ele>
        <time>2015-07-05T15:45:04Z</time>
      </trkpt>
      <trkpt lat="46.20145" lon="6.24706">
        <ele>444</ele>
        <time>2015-07-05T15:45:06Z</time>
      </trkpt>
      <trkpt lat="46.20155" lon="6.24689">
        <ele>444</ele>
        <time>2015-07-05T15:45:12Z</time>
      </trkpt>
      <trkpt lat="46.2016" lon="6.24675">
        <ele>444</ele>
        <time>2015-07-05T15:45:14Z</time>
      </trkpt>
      <trkpt lat="46.20189" lon="6.24686">
        <ele>443</ele>
        <time>2015-07-05T15:45:21Z</time>
      </trkpt>
      <trkpt lat="46.20216" lon="6.24743">
        <ele>443</ele>
        <time>2015-07-05T15:45:29Z</time>
      </trkpt>
      <trkpt lat="46.20234" lon="6.24809">
        <ele>443</ele>
        <time>2015-07-05T15:45:37Z</time>
      </trkpt>
      <trkpt lat="46.20245" lon="6.24824">
        <ele>443</ele>
        <time>2015-07-05T15:45:40Z</time>
      </trkpt>
      <trkpt lat="46.20254" lon="6.24844">
        <ele>443</ele>
        <time>2015-07-05T15:45:43Z</time>
      </trkpt>
      <trkpt lat="46.20261" lon="6.24857">
        <ele>442</ele>
        <time>2015-07-05T15:45:45Z</time>
      </trkpt>
      <trkpt lat="46.20271" lon="6.24885">
        <ele>442</ele>
        <time>2015-07-05T15:45:49Z</time>
      </trkpt>
      <trkpt lat="46.20276" lon="6.24915">
        <ele>442</ele>
        <time>2015-07-05T15:45:54Z</time>
      </trkpt>
      <trkpt lat="46.2028" lon="6.24933">
        <ele>443</ele>
        <time>2015-07-05T15:45:57Z</time>
      </trkpt>
      <trkpt lat="46.20299" lon="6.24976">
        <ele>443</ele>
        <time>2015-07-05T15:46:08Z</time>
      </trkpt>
      <trkpt lat="46.20322" lon="6.24997">
        <ele>443</ele>
        <time>2015-07-05T15:46:17Z</time>
      </trkpt>
      <trkpt lat="46.20358" lon="6.24988">
        <ele>443</ele>
        <time>2015-07-05T15:46:25Z</time>
      </trkpt>
      <trkpt lat="46.20383" lon="6.24979">
        <ele>443</ele>
        <time>2015-07-05T15:46:33Z</time>
      </trkpt>
      <trkpt lat="46.20386" lon="6.24979">
        <ele>443</ele>
        <time>2015-07-05T15:46:39Z</time>
      </trkpt>
      <trkpt lat="46.20392" lon="6.24973">
        <ele>443</ele>
        <time>2015-07-05T15:46:42Z</time>
      </trkpt>
      <trkpt lat="46.20405" lon="6.24963">
        <ele>443</ele>
        <time>2015-07-05T15:46:45Z</time>
      </trkpt>
      <trkpt lat="46.20422" lon="6.24954">
        <ele>443</ele>
        <time>2015-07-05T15:46:48Z</time>
      </trkpt>
      <trkpt lat="46.205" lon="6.24961">
        <ele>444</ele>
        <time>2015-07-05T15:47:00Z</time>
      </trkpt>
      <trkpt lat="46.20525" lon="6.24969">
        <ele>445</ele>
        <time>2015-07-05T15:47:05Z</time>
      </trkpt>
      <trkpt lat="46.20543" lon="6.24965">
        <ele>446</ele>
        <time>2015-07-05T15:47:09Z</time>
      </trkpt>
      <trkpt lat="46.20566" lon="6.24942">
        <ele>446</ele>
        <time>2015-07-05T15:47:14Z</time>
      </trkpt>
      <trkpt lat="46.206" lon="6.24946">
        <ele>447</ele>
        <time>2015-07-05T15:47:20Z</time>
      </trkpt>
      <trkpt lat="46.20626" lon="6.2499">
        <ele>447</ele>
        <time>2015-07-05T15:47:27Z</time>
      </trkpt>
      <trkpt lat="46.20685" lon="6.25114">
        <ele>449</ele>
        <time>2015-07-05T15:47:43Z</time>
      </trkpt>
      <trkpt lat="46.20764" lon="6.25233">
        <ele>451</ele>
        <time>2015-07-05T15:47:59Z</time>
      </trkpt>
      <trkpt lat="46.20818" lon="6.25292">
        <ele>453</ele>
        <time>2015-07-05T15:48:09Z</time>
      </trkpt>
      <trkpt lat="46.20856" lon="6.25334">
        <ele>458</ele>
        <time>2015-07-05T15:48:17Z</time>
      </trkpt>
      <trkpt lat="46.20904" lon="6.25396">
        <ele>460</ele>
        <time>2015-07-05T15:48:28Z</time>
      </trkpt>
      <trkpt lat="46.20913" lon="6.25407">
        <ele>462</ele>
        <time>2015-07-05T15:48:30Z</time>
      </trkpt>
      <trkpt lat="46.20911" lon="6.25457">
        <ele>460</ele>
        <time>2015-07-05T15:48:37Z</time>
      </trkpt>
      <trkpt lat="46.20918" lon="6.25487">
        <ele>464</ele>
        <time>2015-07-05T15:48:41Z</time>
      </trkpt>
      <trkpt lat="46.20987" lon="6.25579">
        <ele>466</ele>
        <time>2015-07-05T15:48:56Z</time>
      </trkpt>
      <trkpt lat="46.21023" lon="6.25709">
        <ele>468</ele>
        <time>2015-07-05T15:49:13Z</time>
      </trkpt>
      <trkpt lat="46.21025" lon="6.25718">
        <ele>468</ele>
        <time>2015-07-05T15:49:14Z</time>
      </trkpt>
      <trkpt lat="46.21035" lon="6.25761">
        <ele>466</ele>
        <time>2015-07-05T15:49:19Z</time>
      </trkpt>
      <trkpt lat="46.21081" lon="6.25907">
        <ele>470</ele>
        <time>2015-07-05T15:49:36Z</time>
      </trkpt>
      <trkpt lat="46.21108" lon="6.25983">
        <ele>474</ele>
        <time>2015-07-05T15:49:46Z</time>
      </trkpt>
      <trkpt lat="46.21137" lon="6.26053">
        <ele>476</ele>
        <time>2015-07-05T15:49:56Z</time>
      </trkpt>
      <trkpt lat="46.21185" lon="6.2618">
        <ele>481</ele>
        <time>2015-07-05T15:50:14Z</time>
      </trkpt>
      <trkpt lat="46.21216" lon="6.26286">
        <ele>480</ele>
        <time>2015-07-05T15:50:25Z</time>
      </trkpt>
      <trkpt lat="46.21238" lon="6.26379">
        <ele>477</ele>
        <time>2015-07-05T15:50:32Z</time>
      </trkpt>
      <trkpt lat="46.21249" lon="6.26437">
        <ele>474</ele>
        <time>2015-07-05T15:50:36Z</time>
      </trkpt>
      <trkpt lat="46.21258" lon="6.2648">
        <ele>473</ele>
        <time>2015-07-05T15:50:39Z</time>
      </trkpt>
      <trkpt lat="46.21282" lon="6.26594">
        <ele>468</ele>
        <time>2015-07-05T15:50:47Z</time>
      </trkpt>
      <trkpt lat="46.2133" lon="6.26821">
        <ele>470</ele>
        <time>2015-07-05T15:51:05Z</time>
      </trkpt>
      <trkpt lat="46.21339" lon="6.26863">
        <ele>474</ele>
        <time>2015-07-05T15:51:09Z</time>
      </trkpt>
      <trkpt lat="46.2136" lon="6.26939">
        <ele>475</ele>
        <time>2015-07-05T15:51:17Z</time>
      </trkpt>
      <trkpt lat="46.21395" lon="6.27014">
        <ele>479</ele>
        <time>2015-07-05T15:51:27Z</time>
      </trkpt>
      <trkpt lat="46.21411" lon="6.27049">
        <ele>480</ele>
        <time>2015-07-05T15:51:32Z</time>
      </trkpt>
      <trkpt lat="46.21433" lon="6.27146">
        <ele>484</ele>
        <time>2015-07-05T15:51:44Z</time>
      </trkpt>
      <trkpt lat="46.21451" lon="6.27239">
        <ele>487</ele>
        <time>2015-07-05T15:51:56Z</time>
      </trkpt>
      <trkpt lat="46.2147" lon="6.27338">
        <ele>490</ele>
        <time>2015-07-05T15:52:09Z</time>
      </trkpt>
      <trkpt lat="46.21492" lon="6.27495">
        <ele>490</ele>
        <time>2015-07-05T15:52:28Z</time>
      </trkpt>
      <trkpt lat="46.21534" lon="6.27666">
        <ele>495</ele>
        <time>2015-07-05T15:52:47Z</time>
      </trkpt>
      <trkpt lat="46.21582" lon="6.2776">
        <ele>495</ele>
        <time>2015-07-05T15:52:58Z</time>
      </trkpt>
      <trkpt lat="46.21684" lon="6.27914">
        <ele>497</ele>
        <time>2015-07-05T15:53:18Z</time>
      </trkpt>
      <trkpt lat="46.21782" lon="6.28084">
        <ele>498</ele>
        <time>2015-07-05T15:53:39Z</time>
      </trkpt>
      <trkpt lat="46.21888" lon="6.28274">
        <ele>498</ele>
        <time>2015-07-05T15:54:01Z</time>
      </trkpt>
      <trkpt lat="46.21998" lon="6.28465">
        <ele>502</ele>
        <time>2015-07-05T15:54:25Z</time>
      </trkpt>
      <trkpt lat="46.221" lon="6.28657">
        <ele>504</ele>
        <time>2015-07-05T15:54:48Z</time>
      </trkpt>
      <trkpt lat="46.22214" lon="6.28849">
        <ele>506</ele>
        <time>2015-07-05T15:55:11Z</time>
      </trkpt>
      <trkpt lat="46.22309" lon="6.28962">
        <ele>506</ele>
        <time>2015-07-05T15:55:27Z</time>
      </trkpt>
      <trkpt lat="46.22369" lon="6.29123">
        <ele>508</ele>
        <time>2015-07-05T15:55:44Z</time>
      </trkpt>
      <trkpt lat="46.22427" lon="6.29269">
        <ele>510</ele>
        <time>2015-07-05T15:55:59Z</time>
      </trkpt>
      <trkpt lat="46.22494" lon="6.29438">
        <ele>510</ele>
        <time>2015-07-05T15:56:17Z</time>
      </trkpt>
      <trkpt lat="46.22498" lon="6.29446">
        <ele>509</ele>
        <time>2015-07-05T15:56:18Z</time>
      </trkpt>
      <trkpt lat="46.22499" lon="6.29495">
        <ele>509</ele>
        <time>2015-07-05T15:56:23Z</time>
      </trkpt>
      <trkpt lat="46.22469" lon="6.29548">
        <ele>508</ele>
        <time>2015-07-05T15:56:29Z</time>
      </trkpt>
      <trkpt lat="46.22454" lon="6.29576">
        <ele>508</ele>
        <time>2015-07-05T15:56:32Z</time>
      </trkpt>
      <trkpt lat="46.22452" lon="6.29632">
        <ele>505</ele>
        <time>2015-07-05T15:56:39Z</time>
      </trkpt>
      <trkpt lat="46.22456" lon="6.29636">
        <ele>505</ele>
        <time>2015-07-05T15:56:40Z</time>
      </trkpt>
      <trkpt lat="46.22472" lon="6.29663">
        <ele>506</ele>
        <time>2015-07-05T15:56:45Z</time>
      </trkpt>
      <trkpt lat="46.2254" lon="6.2979">
        <ele>507</ele>
        <time>2015-07-05T15:57:02Z</time>
      </trkpt>
      <trkpt lat="46.22606" lon="6.29957">
        <ele>513</ele>
        <time>2015-07-05T15:57:20Z</time>
      </trkpt>
      <trkpt lat="46.22654" lon="6.30081">
        <ele>514</ele>
        <time>2015-07-05T15:57:34Z</time>
      </trkpt>
      <trkpt lat="46.22661" lon="6.30098">
        <ele>511</ele>
        <time>2015-07-05T15:57:36Z</time>
      </trkpt>
      <trkpt lat="46.22702" lon="6.30143">
        <ele>512</ele>
        <time>2015-07-05T15:57:44Z</time>
      </trkpt>
      <trkpt lat="46.22811" lon="6.30157">
        <ele>511</ele>
        <time>2015-07-05T15:57:59Z</time>
      </trkpt>
      <trkpt lat="46.22898" lon="6.30156">
        <ele>510</ele>
        <time>2015-07-05T15:58:11Z</time>
      </trkpt>
      <trkpt lat="46.22934" lon="6.30168">
        <ele>510</ele>
        <time>2015-07-05T15:58:16Z</time>
      </trkpt>
      <trkpt lat="46.23051" lon="6.30259">
        <ele>507</ele>
        <time>2015-07-05T15:58:33Z</time>
      </trkpt>
      <trkpt lat="46.23156" lon="6.30334">
        <ele>510</ele>
        <time>2015-07-05T15:58:48Z</time>
      </trkpt>
      <trkpt lat="46.23243" lon="6.30401">
        <ele>514</ele>
        <time>2015-07-05T15:59:01Z</time>
      </trkpt>
      <trkpt lat="46.233" lon="6.30482">
        <ele>517</ele>
        <time>2015-07-05T15:59:12Z</time>
      </trkpt>
      <trkpt lat="46.23306" lon="6.30546">
        <ele>515</ele>
        <time>2015-07-05T15:59:19Z</time>
      </trkpt>
      <trkpt lat="46.23326" lon="6.30571">
        <ele>516</ele>
        <time>2015-07-05T15:59:23Z</time>
      </trkpt>
      <trkpt lat="46.23429" lon="6.30643">
        <ele>518</ele>
        <time>2015-07-05T15:59:39Z</time>
      </trkpt>
      <trkpt lat="46.23501" lon="6.30705">
        <ele>518</ele>
        <time>2015-07-05T15:59:49Z</time>
      </trkpt>
      <trkpt lat="46.23598" lon="6.30755">
        <ele>518</ele>
        <time>2015-07-05T16:00:00Z</time>
      </trkpt>
      <trkpt lat="46.23666" lon="6.30779">
        <ele>518</ele>
        <time>2015-07-05T16:00:08Z</time>
      </trkpt>
      <trkpt lat="46.23764" lon="6.30824">
        <ele>519</ele>
        <time>2015-07-05T16:00:20Z</time>
      </trkpt>
      <trkpt lat="46.23772" lon="6.30825">
        <ele>518</ele>
        <time>2015-07-05T16:00:21Z</time>
      </trkpt>
      <trkpt lat="46.2388" lon="6.30904">
        <ele>518</ele>
        <time>2015-07-05T16:00:35Z</time>
      </trkpt>
      <trkpt lat="46.239" lon="6.30918">
        <ele>517</ele>
        <time>2015-07-05T16:00:38Z</time>
      </trkpt>
      <trkpt lat="46.23921" lon="6.30923">
        <ele>518</ele>
        <time>2015-07-05T16:00:47Z</time>
      </trkpt>
      <trkpt lat="46.23922" lon="6.30911">
        <ele>518</ele>
        <time>2015-07-05T16:00:49Z</time>
      </trkpt>
      <trkpt lat="46.23949" lon="6.30785">
        <ele>517</ele>
        <time>2015-07-05T16:01:03Z</time>
      </trkpt>
      <trkpt lat="46.23958" lon="6.30746">
        <ele>516</ele>
        <time>2015-07-05T16:01:07Z</time>
      </trkpt>
      <trkpt lat="46.2399" lon="6.30717">
        <ele>515</ele>
        <time>2015-07-05T16:01:13Z</time>
      </trkpt>
      <trkpt lat="46.23997" lon="6.30722">
        <ele>516</ele>
        <time>2015-07-05T16:01:14Z</time>
      </trkpt>
      <trkpt lat="46.2412" lon="6.30825">
        <ele>516</ele>
        <time>2015-07-05T16:01:32Z</time>
      </trkpt>
      <trkpt lat="46.24238" lon="6.30917">
        <ele>516</ele>
        <time>2015-07-05T16:01:49Z</time>
      </trkpt>
      <trkpt lat="46.24275" lon="6.30953">
        <ele>515</ele>
        <time>2015-07-05T16:01:55Z</time>
      </trkpt>
      <trkpt lat="46.24371" lon="6.31018">
        <ele>512</ele>
        <time>2015-07-05T16:02:08Z</time>
      </trkpt>
      <trkpt lat="46.24378" lon="6.31025">
        <ele>512</ele>
        <time>2015-07-05T16:02:09Z</time>
      </trkpt>
      <trkpt lat="46.24442" lon="6.31132">
        <ele>515</ele>
        <time>2015-07-05T16:02:22Z</time>
      </trkpt>
      <trkpt lat="46.24506" lon="6.31237">
        <ele>516</ele>
        <time>2015-07-05T16:02:35Z</time>
      </trkpt>
      <trkpt lat="46.24587" lon="6.313">
        <ele>517</ele>
        <time>2015-07-05T16:02:48Z</time>
      </trkpt>
      <trkpt lat="46.246" lon="6.31312">
        <ele>517</ele>
        <time>2015-07-05T16:02:50Z</time>
      </trkpt>
      <trkpt lat="46.24705" lon="6.31483">
        <ele>518</ele>
        <time>2015-07-05T16:03:10Z</time>
      </trkpt>
      <trkpt lat="46.24748" lon="6.31553">
        <ele>517</ele>
        <time>2015-07-05T16:03:18Z</time>
      </trkpt>
      <trkpt lat="46.24786" lon="6.31655">
        <ele>521</ele>
        <time>2015-07-05T16:03:30Z</time>
      </trkpt>
      <trkpt lat="46.24799" lon="6.31693">
        <ele>522</ele>
        <time>2015-07-05T16:03:35Z</time>
      </trkpt>
      <trkpt lat="46.24828" lon="6.31775">
        <ele>523</ele>
        <time>2015-07-05T16:03:46Z</time>
      </trkpt>
      <trkpt lat="46.24875" lon="6.3192">
        <ele>526</ele>
        <time>2015-07-05T16:04:05Z</time>
      </trkpt>
      <trkpt lat="46.24919" lon="6.32106">
        <ele>530</ele>
        <time>2015-07-05T16:04:25Z</time>
      </trkpt>
      <trkpt lat="46.24922" lon="6.32247">
        <ele>529</ele>
        <time>2015-07-05T16:04:38Z</time>
      </trkpt>
      <trkpt lat="46.24952" lon="6.32351">
        <ele>531</ele>
        <time>2015-07-05T16:04:50Z</time>
      </trkpt>
      <trkpt lat="46.24988" lon="6.32464">
        <ele>530</ele>
        <time>2015-07-05T16:05:03Z</time>
      </trkpt>
      <trkpt lat="46.24985" lon="6.32543">
        <ele>527</ele>
        <time>2015-07-05T16:05:09Z</time>
      </trkpt>
      <trkpt lat="46.24974" lon="6.32585">
        <ele>527</ele>
        <time>2015-07-05T16:05:12Z</time>
      </trkpt>
      <trkpt lat="46.2497" lon="6.32614">
        <ele>526</ele>
        <time>2015-07-05T16:05:14Z</time>
      </trkpt>
      <trkpt lat="46.24994" lon="6.32706">
        <ele>526</ele>
        <time>2015-07-05T16:05:22Z</time>
      </trkpt>
      <trkpt lat="46.25006" lon="6.3272">
        <ele>529</ele>
        <time>2015-07-05T16:05:24Z</time>
      </trkpt>
      <trkpt lat="46.25114" lon="6.32783">
        <ele>529</ele>
        <time>2015-07-05T16:05:38Z</time>
      </trkpt>
      <trkpt lat="46.25146" lon="6.32791">
        <ele>529</ele>
        <time>2015-07-05T16:05:43Z</time>
      </trkpt>
      <trkpt lat="46.25157" lon="6.32783">
        <ele>529</ele>
        <time>2015-07-05T16:05:46Z</time>
      </trkpt>
      <trkpt lat="46.25168" lon="6.32774">
        <ele>530</ele>
        <time>2015-07-05T16:05:48Z</time>
      </trkpt>
      <trkpt lat="46.25209" lon="6.32757">
        <ele>530</ele>
        <time>2015-07-05T16:05:54Z</time>
      </trkpt>
      <trkpt lat="46.25306" lon="6.32677">
        <ele>532</ele>
        <time>2015-07-05T16:06:09Z</time>
      </trkpt>
      <trkpt lat="46.25371" lon="6.3263">
        <ele>533</ele>
        <time>2015-07-05T16:06:19Z</time>
      </trkpt>
      <trkpt lat="46.25398" lon="6.32594">
        <ele>533</ele>
        <time>2015-07-05T16:06:24Z</time>
      </trkpt>
      <trkpt lat="46.25428" lon="6.32512">
        <ele>535</ele>
        <time>2015-07-05T16:06:33Z</time>
      </trkpt>
      <trkpt lat="46.25475" lon="6.32485">
        <ele>537</ele>
        <time>2015-07-05T16:06:41Z</time>
      </trkpt>
      <trkpt lat="46.25496" lon="6.32479">
        <ele>537</ele>
        <time>2015-07-05T16:06:44Z</time>
      </trkpt>
      <trkpt lat="46.25537" lon="6.3246">
        <ele>537</ele>
        <time>2015-07-05T16:06:50Z</time>
      </trkpt>
      <trkpt lat="46.25643" lon="6.32456">
        <ele>539</ele>
        <time>2015-07-05T16:07:05Z</time>
      </trkpt>
      <trkpt lat="46.25682" lon="6.3248">
        <ele>540</ele>
        <time>2015-07-05T16:07:11Z</time>
      </trkpt>
      <trkpt lat="46.2571" lon="6.32512">
        <ele>541</ele>
        <time>2015-07-05T16:07:16Z</time>
      </trkpt>
      <trkpt lat="46.25745" lon="6.32559">
        <ele>542</ele>
        <time>2015-07-05T16:07:23Z</time>
      </trkpt>
      <trkpt lat="46.2577" lon="6.32611">
        <ele>546</ele>
        <time>2015-07-05T16:07:30Z</time>
      </trkpt>
      <trkpt lat="46.25802" lon="6.32643">
        <ele>547</ele>
        <time>2015-07-05T16:07:36Z</time>
      </trkpt>
      <trkpt lat="46.25882" lon="6.32707">
        <ele>550</ele>
        <time>2015-07-05T16:07:50Z</time>
      </trkpt>
      <trkpt lat="46.25931" lon="6.32743">
        <ele>551</ele>
        <time>2015-07-05T16:07:58Z</time>
      </trkpt>
      <trkpt lat="46.25951" lon="6.32779">
        <ele>552</ele>
        <time>2015-07-05T16:08:03Z</time>
      </trkpt>
      <trkpt lat="46.25958" lon="6.32814">
        <ele>553</ele>
        <time>2015-07-05T16:08:07Z</time>
      </trkpt>
      <trkpt lat="46.26005" lon="6.32894">
        <ele>556</ele>
        <time>2015-07-05T16:08:19Z</time>
      </trkpt>
      <trkpt lat="46.26072" lon="6.32956">
        <ele>556</ele>
        <time>2015-07-05T16:08:32Z</time>
      </trkpt>
      <trkpt lat="46.26161" lon="6.33005">
        <ele>558</ele>
        <time>2015-07-05T16:08:47Z</time>
      </trkpt>
      <trkpt lat="46.26241" lon="6.33044">
        <ele>560</ele>
        <time>2015-07-05T16:09:00Z</time>
      </trkpt>
      <trkpt lat="46.26312" lon="6.3311">
        <ele>563</ele>
        <time>2015-07-05T16:09:13Z</time>
      </trkpt>
      <trkpt lat="46.26432" lon="6.33277">
        <ele>568</ele>
        <time>2015-07-05T16:09:36Z</time>
      </trkpt>
      <trkpt lat="46.26465" lon="6.33373">
        <ele>567</ele>
        <time>2015-07-05T16:09:46Z</time>
      </trkpt>
      <trkpt lat="46.26465" lon="6.33414">
        <ele>567</ele>
        <time>2015-07-05T16:09:50Z</time>
      </trkpt>
      <trkpt lat="46.26441" lon="6.33539">
        <ele>569</ele>
        <time>2015-07-05T16:10:04Z</time>
      </trkpt>
      <trkpt lat="46.26441" lon="6.33539">
        <ele>569</ele>
        <time>2015-07-05T16:10:18Z</time>
      </trkpt>
      <trkpt lat="46.26441" lon="6.33539">
        <ele>569</ele>
        <time>2015-07-05T16:10:47Z</time>
      </trkpt>
      <trkpt lat="46.26436" lon="6.33575">
        <ele>568</ele>
        <time>2015-07-05T16:10:54Z</time>
      </trkpt>
      <trkpt lat="46.26404" lon="6.33759">
        <ele>570</ele>
        <time>2015-07-05T16:11:13Z</time>
      </trkpt>
      <trkpt lat="46.26381" lon="6.33907">
        <ele>570</ele>
        <time>2015-07-05T16:11:27Z</time>
      </trkpt>
      <trkpt lat="46.26402" lon="6.33998">
        <ele>572</ele>
        <time>2015-07-05T16:11:36Z</time>
      </trkpt>
      <trkpt lat="46.265" lon="6.34156">
        <ele>574</ele>
        <time>2015-07-05T16:11:55Z</time>
      </trkpt>
      <trkpt lat="46.26515" lon="6.34183">
        <ele>574</ele>
        <time>2015-07-05T16:11:58Z</time>
      </trkpt>
      <trkpt lat="46.26541" lon="6.34279">
        <ele>573</ele>
        <time>2015-07-05T16:12:07Z</time>
      </trkpt>
      <trkpt lat="46.26601" lon="6.34367">
        <ele>572</ele>
        <time>2015-07-05T16:12:18Z</time>
      </trkpt>
      <trkpt lat="46.26651" lon="6.34462">
        <ele>569</ele>
        <time>2015-07-05T16:12:28Z</time>
      </trkpt>
      <trkpt lat="46.26659" lon="6.34486">
        <ele>568</ele>
        <time>2015-07-05T16:12:30Z</time>
      </trkpt>
      <trkpt lat="46.26663" lon="6.34497">
        <ele>567</ele>
        <time>2015-07-05T16:12:31Z</time>
      </trkpt>
      <trkpt lat="46.2668" lon="6.34521">
        <ele>565</ele>
        <time>2015-07-05T16:12:34Z</time>
      </trkpt>
      <trkpt lat="46.26688" lon="6.34522">
        <ele>564</ele>
        <time>2015-07-05T16:12:35Z</time>
      </trkpt>
      <trkpt lat="46.26721" lon="6.34525">
        <ele>564</ele>
        <time>2015-07-05T16:12:39Z</time>
      </trkpt>
      <trkpt lat="46.26732" lon="6.34526">
        <ele>563</ele>
        <time>2015-07-05T16:12:41Z</time>
      </trkpt>
      <trkpt lat="46.26735" lon="6.34528">
        <ele>563</ele>
        <time>2015-07-05T16:12:50Z</time>
      </trkpt>
      <trkpt lat="46.26733" lon="6.34519">
        <ele>563</ele>
        <time>2015-07-05T16:12:54Z</time>
      </trkpt>
      <trkpt lat="46.26736" lon="6.345">
        <ele>563</ele>
        <time>2015-07-05T16:12:58Z</time>
      </trkpt>
      <trkpt lat="46.26776" lon="6.34446">
        <ele>562</ele>
        <time>2015-07-05T16:13:06Z</time>
      </trkpt>
      <trkpt lat="46.26816" lon="6.34435">
        <ele>562</ele>
        <time>2015-07-05T16:13:12Z</time>
      </trkpt>
      <trkpt lat="46.26859" lon="6.3443">
        <ele>559</ele>
        <time>2015-07-05T16:13:18Z</time>
      </trkpt>
      <trkpt lat="46.26889" lon="6.34395">
        <ele>558</ele>
        <time>2015-07-05T16:13:23Z</time>
      </trkpt>
      <trkpt lat="46.2692" lon="6.344">
        <ele>555</ele>
        <time>2015-07-05T16:13:28Z</time>
      </trkpt>
      <trkpt lat="46.2694" lon="6.34437">
        <ele>552</ele>
        <time>2015-07-05T16:13:32Z</time>
      </trkpt>
      <trkpt lat="46.26991" lon="6.3445">
        <ele>550</ele>
        <time>2015-07-05T16:13:39Z</time>
      </trkpt>
      <trkpt lat="46.27005" lon="6.34437">
        <ele>548</ele>
        <time>2015-07-05T16:13:41Z</time>
      </trkpt>
      <trkpt lat="46.27073" lon="6.34362">
        <ele>552</ele>
        <time>2015-07-05T16:13:51Z</time>
      </trkpt>
      <trkpt lat="46.27178" lon="6.34313">
        <ele>552</ele>
        <time>2015-07-05T16:14:04Z</time>
      </trkpt>
      <trkpt lat="46.27193" lon="6.34305">
        <ele>553</ele>
        <time>2015-07-05T16:14:06Z</time>
      </trkpt>
      <trkpt lat="46.27264" lon="6.34237">
        <ele>559</ele>
        <time>2015-07-05T16:14:19Z</time>
      </trkpt>
      <trkpt lat="46.27294" lon="6.34206">
        <ele>560</ele>
        <time>2015-07-05T16:14:25Z</time>
      </trkpt>
      <trkpt lat="46.27315" lon="6.3422">
        <ele>560</ele>
        <time>2015-07-05T16:14:30Z</time>
      </trkpt>
      <trkpt lat="46.27349" lon="6.34345">
        <ele>553</ele>
        <time>2015-07-05T16:14:42Z</time>
      </trkpt>
      <trkpt lat="46.27356" lon="6.34554">
        <ele>546</ele>
        <time>2015-07-05T16:14:58Z</time>
      </trkpt>
      <trkpt lat="46.27336" lon="6.34682">
        <ele>546</ele>
        <time>2015-07-05T16:15:08Z</time>
      </trkpt>
      <trkpt lat="46.27299" lon="6.34868">
        <ele>542</ele>
        <time>2015-07-05T16:15:23Z</time>
      </trkpt>
      <trkpt lat="46.27307" lon="6.34991">
        <ele>541</ele>
        <time>2015-07-05T16:15:32Z</time>
      </trkpt>
      <trkpt lat="46.273" lon="6.35044">
        <ele>541</ele>
        <time>2015-07-05T16:15:36Z</time>
      </trkpt>
      <trkpt lat="46.27291" lon="6.35069">
        <ele>541</ele>
        <time>2015-07-05T16:15:38Z</time>
      </trkpt>
      <trkpt lat="46.2719" lon="6.35225">
        <ele>539</ele>
        <time>2015-07-05T16:15:54Z</time>
      </trkpt>
      <trkpt lat="46.2713" lon="6.35336">
        <ele>542</ele>
        <time>2015-07-05T16:16:05Z</time>
      </trkpt>
      <trkpt lat="46.27126" lon="6.3538">
        <ele>543</ele>
        <time>2015-07-05T16:16:09Z</time>
      </trkpt>
      <trkpt lat="46.27142" lon="6.35478">
        <ele>544</ele>
        <time>2015-07-05T16:16:19Z</time>
      </trkpt>
      <trkpt lat="46.27153" lon="6.35623">
        <ele>548</ele>
        <time>2015-07-05T16:16:34Z</time>
      </trkpt>
      <trkpt lat="46.2716" lon="6.35851">
        <ele>548</ele>
        <time>2015-07-05T16:16:55Z</time>
      </trkpt>
      <trkpt lat="46.27167" lon="6.3608">
        <ele>549</ele>
        <time>2015-07-05T16:17:16Z</time>
      </trkpt>
      <trkpt lat="46.27165" lon="6.36124">
        <ele>549</ele>
        <time>2015-07-05T16:17:20Z</time>
      </trkpt>
      <trkpt lat="46.2716" lon="6.36155">
        <ele>547</ele>
        <time>2015-07-05T16:17:23Z</time>
      </trkpt>
      <trkpt lat="46.27139" lon="6.36193">
        <ele>547</ele>
        <time>2015-07-05T16:17:28Z</time>
      </trkpt>
      <trkpt lat="46.27101" lon="6.36223">
        <ele>547</ele>
        <time>2015-07-05T16:17:34Z</time>
      </trkpt>
      <trkpt lat="46.2708" lon="6.36252">
        <ele>547</ele>
        <time>2015-07-05T16:17:38Z</time>
      </trkpt>
      <trkpt lat="46.27" lon="6.36446">
        <ele>548</ele>
        <time>2015-07-05T16:17:58Z</time>
      </trkpt>
      <trkpt lat="46.26936" lon="6.36595">
        <ele>549</ele>
        <time>2015-07-05T16:18:14Z</time>
      </trkpt>
      <trkpt lat="46.26893" lon="6.36679">
        <ele>549</ele>
        <time>2015-07-05T16:18:24Z</time>
      </trkpt>
      <trkpt lat="46.268" lon="6.36773">
        <ele>550</ele>
        <time>2015-07-05T16:18:40Z</time>
      </trkpt>
      <trkpt lat="46.26686" lon="6.36885">
        <ele>552</ele>
        <time>2015-07-05T16:19:00Z</time>
      </trkpt>
      <trkpt lat="46.26621" lon="6.36951">
        <ele>553</ele>
        <time>2015-07-05T16:19:13Z</time>
      </trkpt>
      <trkpt lat="46.26567" lon="6.37004">
        <ele>559</ele>
        <time>2015-07-05T16:19:25Z</time>
      </trkpt>
      <trkpt lat="46.26502" lon="6.3705">
        <ele>563</ele>
        <time>2015-07-05T16:19:41Z</time>
      </trkpt>
      <trkpt lat="46.265" lon="6.37051">
        <ele>566</ele>
        <time>2015-07-05T16:19:42Z</time>
      </trkpt>
      <trkpt lat="46.26499" lon="6.37051">
        <ele>566</ele>
        <time>2015-07-05T16:19:51Z</time>
      </trkpt>
      <trkpt lat="46.265" lon="6.37051">
        <ele>566</ele>
        <time>2015-07-05T16:20:14Z</time>
      </trkpt>
      <trkpt lat="46.265" lon="6.37053">
        <ele>563</ele>
        <time>2015-07-05T16:20:39Z</time>
      </trkpt>
      <trkpt lat="46.26483" lon="6.37064">
        <ele>567</ele>
        <time>2015-07-05T16:20:50Z</time>
      </trkpt>
      <trkpt lat="46.26447" lon="6.3709">
        <ele>568</ele>
        <time>2015-07-05T16:20:57Z</time>
      </trkpt>
      <trkpt lat="46.26427" lon="6.37098">
        <ele>568</ele>
        <time>2015-07-05T16:21:01Z</time>
      </trkpt>
      <trkpt lat="46.26309" lon="6.37108">
        <ele>572</ele>
        <time>2015-07-05T16:21:22Z</time>
      </trkpt>
      <trkpt lat="46.26242" lon="6.37115">
        <ele>578</ele>
        <time>2015-07-05T16:21:34Z</time>
      </trkpt>
      <trkpt lat="46.26198" lon="6.37078">
        <ele>580</ele>
        <time>2015-07-05T16:21:45Z</time>
      </trkpt>
      <trkpt lat="46.2618" lon="6.37034">
        <ele>580</ele>
        <time>2015-07-05T16:21:53Z</time>
      </trkpt>
      <trkpt lat="46.2616" lon="6.37011">
        <ele>584</ele>
        <time>2015-07-05T16:21:59Z</time>
      </trkpt>
      <trkpt lat="46.26113" lon="6.37032">
        <ele>587</ele>
        <time>2015-07-05T16:22:11Z</time>
      </trkpt>
      <trkpt lat="46.26109" lon="6.37043">
        <ele>587</ele>
        <time>2015-07-05T16:22:13Z</time>
      </trkpt>
      <trkpt lat="46.26107" lon="6.37074">
        <ele>588</ele>
        <time>2015-07-05T16:22:18Z</time>
      </trkpt>
      <trkpt lat="46.26115" lon="6.37175">
        <ele>593</ele>
        <time>2015-07-05T16:22:33Z</time>
      </trkpt>
      <trkpt lat="46.26122" lon="6.37267">
        <ele>595</ele>
        <time>2015-07-05T16:22:47Z</time>
      </trkpt>
      <trkpt lat="46.26122" lon="6.37312">
        <ele>596</ele>
        <time>2015-07-05T16:22:54Z</time>
      </trkpt>
      <trkpt lat="46.26111" lon="6.37346">
        <ele>598</ele>
        <time>2015-07-05T16:23:00Z</time>
      </trkpt>
      <trkpt lat="46.26074" lon="6.37402">
        <ele>602</ele>
        <time>2015-07-05T16:23:12Z</time>
      </trkpt>
      <trkpt lat="46.2599" lon="6.37456">
        <ele>607</ele>
        <time>2015-07-05T16:23:32Z</time>
      </trkpt>
      <trkpt lat="46.25929" lon="6.37463">
        <ele>609</ele>
        <time>2015-07-05T16:23:46Z</time>
      </trkpt>
      <trkpt lat="46.25886" lon="6.37457">
        <ele>613</ele>
        <time>2015-07-05T16:23:56Z</time>
      </trkpt>
      <trkpt lat="46.25861" lon="6.37463">
        <ele>613</ele>
        <time>2015-07-05T16:24:02Z</time>
      </trkpt>
      <trkpt lat="46.25852" lon="6.37468">
        <ele>614</ele>
        <time>2015-07-05T16:24:04Z</time>
      </trkpt>
      <trkpt lat="46.25845" lon="6.37474">
        <ele>614</ele>
        <time>2015-07-05T16:24:06Z</time>
      </trkpt>
      <trkpt lat="46.25832" lon="6.37493">
        <ele>616</ele>
        <time>2015-07-05T16:24:10Z</time>
      </trkpt>
      <trkpt lat="46.25793" lon="6.37573">
        <ele>617</ele>
        <time>2015-07-05T16:24:24Z</time>
      </trkpt>
      <trkpt lat="46.2575" lon="6.37659">
        <ele>620</ele>
        <time>2015-07-05T16:24:39Z</time>
      </trkpt>
      <trkpt lat="46.25701" lon="6.37757">
        <ele>624</ele>
        <time>2015-07-05T16:24:56Z</time>
      </trkpt>
      <trkpt lat="46.25669" lon="6.37823">
        <ele>626</ele>
        <time>2015-07-05T16:25:08Z</time>
      </trkpt>
      <trkpt lat="46.2563" lon="6.379">
        <ele>631</ele>
        <time>2015-07-05T16:25:22Z</time>
      </trkpt>
      <trkpt lat="46.25597" lon="6.37966">
        <ele>633</ele>
        <time>2015-07-05T16:25:34Z</time>
      </trkpt>
      <trkpt lat="46.25565" lon="6.38033">
        <ele>639</ele>
        <time>2015-07-05T16:25:46Z</time>
      </trkpt>
      <trkpt lat="46.25528" lon="6.38105">
        <ele>642</ele>
        <time>2015-07-05T16:25:59Z</time>
      </trkpt>
      <trkpt lat="46.25511" lon="6.38194">
        <ele>646</ele>
        <time>2015-07-05T16:26:13Z</time>
      </trkpt>
      <trkpt lat="46.25518" lon="6.38266">
        <ele>648</ele>
        <time>2015-07-05T16:26:24Z</time>
      </trkpt>
      <trkpt lat="46.25522" lon="6.38375">
        <ele>651</ele>
        <time>2015-07-05T16:26:39Z</time>
      </trkpt>
      <trkpt lat="46.25527" lon="6.38466">
        <ele>655</ele>
        <time>2015-07-05T16:26:52Z</time>
      </trkpt>
      <trkpt lat="46.25533" lon="6.38563">
        <ele>661</ele>
        <time>2015-07-05T16:27:06Z</time>
      </trkpt>
      <trkpt lat="46.25533" lon="6.38583">
        <ele>662</ele>
        <time>2015-07-05T16:27:09Z</time>
      </trkpt>
      <trkpt lat="46.25508" lon="6.38622">
        <ele>670</ele>
        <time>2015-07-05T16:27:18Z</time>
      </trkpt>
      <trkpt lat="46.25489" lon="6.38611">
        <ele>686</ele>
        <time>2015-07-05T16:27:24Z</time>
      </trkpt>
      <trkpt lat="46.25464" lon="6.38549">
        <ele>682</ele>
        <time>2015-07-05T16:27:36Z</time>
      </trkpt>
      <trkpt lat="46.25436" lon="6.38489">
        <ele>678</ele>
        <time>2015-07-05T16:27:48Z</time>
      </trkpt>
      <trkpt lat="46.25401" lon="6.38422">
        <ele>684</ele>
        <time>2015-07-05T16:27:58Z</time>
      </trkpt>
      <trkpt lat="46.25375" lon="6.38374">
        <ele>682</ele>
        <time>2015-07-05T16:28:06Z</time>
      </trkpt>
      <trkpt lat="46.25357" lon="6.38324">
        <ele>679</ele>
        <time>2015-07-05T16:28:16Z</time>
      </trkpt>
      <trkpt lat="46.25346" lon="6.38286">
        <ele>678</ele>
        <time>2015-07-05T16:28:24Z</time>
      </trkpt>
      <trkpt lat="46.25339" lon="6.38272">
        <ele>678</ele>
        <time>2015-07-05T16:28:26Z</time>
      </trkpt>
      <trkpt lat="46.25297" lon="6.3822">
        <ele>686</ele>
        <time>2015-07-05T16:28:36Z</time>
      </trkpt>
      <trkpt lat="46.25267" lon="6.38192">
        <ele>689</ele>
        <time>2015-07-05T16:28:44Z</time>
      </trkpt>
      <trkpt lat="46.25256" lon="6.38178">
        <ele>691</ele>
        <time>2015-07-05T16:28:47Z</time>
      </trkpt>
      <trkpt lat="46.25243" lon="6.38137">
        <ele>701</ele>
        <time>2015-07-05T16:28:55Z</time>
      </trkpt>
      <trkpt lat="46.25248" lon="6.38078">
        <ele>696</ele>
        <time>2015-07-05T16:29:04Z</time>
      </trkpt>
      <trkpt lat="46.2523" lon="6.38005">
        <ele>695</ele>
        <time>2015-07-05T16:29:15Z</time>
      </trkpt>
      <trkpt lat="46.25203" lon="6.37923">
        <ele>694</ele>
        <time>2015-07-05T16:29:28Z</time>
      </trkpt>
      <trkpt lat="46.25169" lon="6.37821">
        <ele>698</ele>
        <time>2015-07-05T16:29:45Z</time>
      </trkpt>
      <trkpt lat="46.25147" lon="6.37734">
        <ele>705</ele>
        <time>2015-07-05T16:29:59Z</time>
      </trkpt>
      <trkpt lat="46.25142" lon="6.37653">
        <ele>705</ele>
        <time>2015-07-05T16:30:11Z</time>
      </trkpt>
      <trkpt lat="46.25136" lon="6.37576">
        <ele>709</ele>
        <time>2015-07-05T16:30:23Z</time>
      </trkpt>
      <trkpt lat="46.25131" lon="6.37504">
        <ele>712</ele>
        <time>2015-07-05T16:30:34Z</time>
      </trkpt>
      <trkpt lat="46.2515" lon="6.37428">
        <ele>713</ele>
        <time>2015-07-05T16:30:46Z</time>
      </trkpt>
      <trkpt lat="46.25167" lon="6.37354">
        <ele>711</ele>
        <time>2015-07-05T16:30:58Z</time>
      </trkpt>
      <trkpt lat="46.25187" lon="6.37274">
        <ele>715</ele>
        <time>2015-07-05T16:31:11Z</time>
      </trkpt>
      <trkpt lat="46.25202" lon="6.37213">
        <ele>719</ele>
        <time>2015-07-05T16:31:21Z</time>
      </trkpt>
      <trkpt lat="46.25223" lon="6.37121">
        <ele>724</ele>
        <time>2015-07-05T16:31:37Z</time>
      </trkpt>
      <trkpt lat="46.25235" lon="6.3705">
        <ele>728</ele>
        <time>2015-07-05T16:31:49Z</time>
      </trkpt>
      <trkpt lat="46.25234" lon="6.36962">
        <ele>733</ele>
        <time>2015-07-05T16:32:03Z</time>
      </trkpt>
      <trkpt lat="46.25231" lon="6.36874">
        <ele>737</ele>
        <time>2015-07-05T16:32:17Z</time>
      </trkpt>
      <trkpt lat="46.25227" lon="6.36793">
        <ele>738</ele>
        <time>2015-07-05T16:32:30Z</time>
      </trkpt>
      <trkpt lat="46.25223" lon="6.36716">
        <ele>738</ele>
        <time>2015-07-05T16:32:43Z</time>
      </trkpt>
      <trkpt lat="46.25194" lon="6.36684">
        <ele>742</ele>
        <time>2015-07-05T16:32:52Z</time>
      </trkpt>
      <trkpt lat="46.25159" lon="6.36725">
        <ele>756</ele>
        <time>2015-07-05T16:33:04Z</time>
      </trkpt>
      <trkpt lat="46.25159" lon="6.36737">
        <ele>755</ele>
        <time>2015-07-05T16:33:06Z</time>
      </trkpt>
      <trkpt lat="46.25159" lon="6.3675">
        <ele>753</ele>
        <time>2015-07-05T16:33:08Z</time>
      </trkpt>
      <trkpt lat="46.2516" lon="6.36815">
        <ele>753</ele>
        <time>2015-07-05T16:33:18Z</time>
      </trkpt>
      <trkpt lat="46.25147" lon="6.36855">
        <ele>752</ele>
        <time>2015-07-05T16:33:25Z</time>
      </trkpt>
      <trkpt lat="46.25101" lon="6.36913">
        <ele>755</ele>
        <time>2015-07-05T16:33:39Z</time>
      </trkpt>
      <trkpt lat="46.25055" lon="6.36968">
        <ele>761</ele>
        <time>2015-07-05T16:33:53Z</time>
      </trkpt>
      <trkpt lat="46.25019" lon="6.37029">
        <ele>762</ele>
        <time>2015-07-05T16:34:06Z</time>
      </trkpt>
      <trkpt lat="46.24995" lon="6.37103">
        <ele>770</ele>
        <time>2015-07-05T16:34:19Z</time>
      </trkpt>
      <trkpt lat="46.24971" lon="6.37179">
        <ele>768</ele>
        <time>2015-07-05T16:34:32Z</time>
      </trkpt>
      <trkpt lat="46.24935" lon="6.3723">
        <ele>771</ele>
        <time>2015-07-05T16:34:44Z</time>
      </trkpt>
      <trkpt lat="46.24927" lon="6.37234">
        <ele>771</ele>
        <time>2015-07-05T16:34:46Z</time>
      </trkpt>
      <trkpt lat="46.24905" lon="6.37235">
        <ele>779</ele>
        <time>2015-07-05T16:34:51Z</time>
      </trkpt>
      <trkpt lat="46.24867" lon="6.37214">
        <ele>785</ele>
        <time>2015-07-05T16:35:00Z</time>
      </trkpt>
      <trkpt lat="46.24827" lon="6.37236">
        <ele>794</ele>
        <time>2015-07-05T16:35:11Z</time>
      </trkpt>
      <trkpt lat="46.24822" lon="6.3726">
        <ele>792</ele>
        <time>2015-07-05T16:35:15Z</time>
      </trkpt>
      <trkpt lat="46.24823" lon="6.37273">
        <ele>795</ele>
        <time>2015-07-05T16:35:17Z</time>
      </trkpt>
      <trkpt lat="46.24834" lon="6.37324">
        <ele>780</ele>
        <time>2015-07-05T16:35:25Z</time>
      </trkpt>
      <trkpt lat="46.24834" lon="6.37349">
        <ele>778</ele>
        <time>2015-07-05T16:35:29Z</time>
      </trkpt>
      <trkpt lat="46.2483" lon="6.37367">
        <ele>795</ele>
        <time>2015-07-05T16:35:32Z</time>
      </trkpt>
      <trkpt lat="46.24809" lon="6.37408">
        <ele>796</ele>
        <time>2015-07-05T16:35:40Z</time>
      </trkpt>
      <trkpt lat="46.24803" lon="6.37439">
        <ele>801</ele>
        <time>2015-07-05T16:35:45Z</time>
      </trkpt>
      <trkpt lat="46.24803" lon="6.3746">
        <ele>802</ele>
        <time>2015-07-05T16:35:48Z</time>
      </trkpt>
      <trkpt lat="46.24806" lon="6.37479">
        <ele>802</ele>
        <time>2015-07-05T16:35:51Z</time>
      </trkpt>
      <trkpt lat="46.24838" lon="6.37536">
        <ele>789</ele>
        <time>2015-07-05T16:36:03Z</time>
      </trkpt>
      <trkpt lat="46.24844" lon="6.37583">
        <ele>795</ele>
        <time>2015-07-05T16:36:12Z</time>
      </trkpt>
      <trkpt lat="46.24835" lon="6.37633">
        <ele>791</ele>
        <time>2015-07-05T16:36:19Z</time>
      </trkpt>
      <trkpt lat="46.24829" lon="6.37665">
        <ele>803</ele>
        <time>2015-07-05T16:36:24Z</time>
      </trkpt>
      <trkpt lat="46.24798" lon="6.37717">
        <ele>808</ele>
        <time>2015-07-05T16:36:36Z</time>
      </trkpt>
      <trkpt lat="46.24765" lon="6.37765">
        <ele>811</ele>
        <time>2015-07-05T16:36:47Z</time>
      </trkpt>
      <trkpt lat="46.24746" lon="6.3781">
        <ele>829</ele>
        <time>2015-07-05T16:36:56Z</time>
      </trkpt>
      <trkpt lat="46.24759" lon="6.37856">
        <ele>814</ele>
        <time>2015-07-05T16:37:04Z</time>
      </trkpt>
      <trkpt lat="46.24776" lon="6.37885">
        <ele>813</ele>
        <time>2015-07-05T16:37:10Z</time>
      </trkpt>
      <trkpt lat="46.24784" lon="6.37918">
        <ele>820</ele>
        <time>2015-07-05T16:37:15Z</time>
      </trkpt>
      <trkpt lat="46.24788" lon="6.37975">
        <ele>822</ele>
        <time>2015-07-05T16:37:24Z</time>
      </trkpt>
      <trkpt lat="46.24826" lon="6.38039">
        <ele>832</ele>
        <time>2015-07-05T16:37:38Z</time>
      </trkpt>
      <trkpt lat="46.24843" lon="6.38061">
        <ele>821</ele>
        <time>2015-07-05T16:37:43Z</time>
      </trkpt>
      <trkpt lat="46.24853" lon="6.38082">
        <ele>822</ele>
        <time>2015-07-05T16:37:47Z</time>
      </trkpt>
      <trkpt lat="46.2486" lon="6.38106">
        <ele>828</ele>
        <time>2015-07-05T16:37:51Z</time>
      </trkpt>
      <trkpt lat="46.24851" lon="6.38169">
        <ele>842</ele>
        <time>2015-07-05T16:38:01Z</time>
      </trkpt>
      <trkpt lat="46.24857" lon="6.38204">
        <ele>841</ele>
        <time>2015-07-05T16:38:07Z</time>
      </trkpt>
      <trkpt lat="46.2488" lon="6.38235">
        <ele>838</ele>
        <time>2015-07-05T16:38:14Z</time>
      </trkpt>
      <trkpt lat="46.24888" lon="6.38251">
        <ele>844</ele>
        <time>2015-07-05T16:38:17Z</time>
      </trkpt>
      <trkpt lat="46.24895" lon="6.38275">
        <ele>845</ele>
        <time>2015-07-05T16:38:21Z</time>
      </trkpt>
      <trkpt lat="46.2492" lon="6.38348">
        <ele>839</ele>
        <time>2015-07-05T16:38:34Z</time>
      </trkpt>
      <trkpt lat="46.24941" lon="6.38435">
        <ele>853</ele>
        <time>2015-07-05T16:38:49Z</time>
      </trkpt>
      <trkpt lat="46.24972" lon="6.38474">
        <ele>852</ele>
        <time>2015-07-05T16:39:00Z</time>
      </trkpt>
      <trkpt lat="46.24989" lon="6.38483">
        <ele>852</ele>
        <time>2015-07-05T16:39:04Z</time>
      </trkpt>
      <trkpt lat="46.25017" lon="6.38515">
        <ele>846</ele>
        <time>2015-07-05T16:39:11Z</time>
      </trkpt>
      <trkpt lat="46.25037" lon="6.38574">
        <ele>848</ele>
        <time>2015-07-05T16:39:21Z</time>
      </trkpt>
      <trkpt lat="46.25068" lon="6.38654">
        <ele>862</ele>
        <time>2015-07-05T16:39:35Z</time>
      </trkpt>
      <trkpt lat="46.25106" lon="6.38723">
        <ele>855</ele>
        <time>2015-07-05T16:39:49Z</time>
      </trkpt>
      <trkpt lat="46.25143" lon="6.38787">
        <ele>866</ele>
        <time>2015-07-05T16:40:02Z</time>
      </trkpt>
      <trkpt lat="46.25183" lon="6.38877">
        <ele>860</ele>
        <time>2015-07-05T16:40:17Z</time>
      </trkpt>
      <trkpt lat="46.25191" lon="6.38903">
        <ele>864</ele>
        <time>2015-07-05T16:40:21Z</time>
      </trkpt>
      <trkpt lat="46.25202" lon="6.38924">
        <ele>873</ele>
        <time>2015-07-05T16:40:25Z</time>
      </trkpt>
      <trkpt lat="46.25213" lon="6.38939">
        <ele>870</ele>
        <time>2015-07-05T16:40:28Z</time>
      </trkpt>
      <trkpt lat="46.25227" lon="6.38967">
        <ele>870</ele>
        <time>2015-07-05T16:40:33Z</time>
      </trkpt>
      <trkpt lat="46.25239" lon="6.39005">
        <ele>873</ele>
        <time>2015-07-05T16:40:40Z</time>
      </trkpt>
      <trkpt lat="46.25245" lon="6.3904">
        <ele>879</ele>
        <time>2015-07-05T16:40:46Z</time>
      </trkpt>
      <trkpt lat="46.2523" lon="6.39113">
        <ele>885</ele>
        <time>2015-07-05T16:40:57Z</time>
      </trkpt>
      <trkpt lat="46.25225" lon="6.39149">
        <ele>886</ele>
        <time>2015-07-05T16:41:02Z</time>
      </trkpt>
      <trkpt lat="46.25228" lon="6.39182">
        <ele>887</ele>
        <time>2015-07-05T16:41:07Z</time>
      </trkpt>
      <trkpt lat="46.25231" lon="6.39194">
        <ele>888</ele>
        <time>2015-07-05T16:41:09Z</time>
      </trkpt>
      <trkpt lat="46.25236" lon="6.39232">
        <ele>886</ele>
        <time>2015-07-05T16:41:15Z</time>
      </trkpt>
      <trkpt lat="46.25227" lon="6.39325">
        <ele>888</ele>
        <time>2015-07-05T16:41:29Z</time>
      </trkpt>
      <trkpt lat="46.25225" lon="6.39332">
        <ele>888</ele>
        <time>2015-07-05T16:41:30Z</time>
      </trkpt>
      <trkpt lat="46.25222" lon="6.39386">
        <ele>891</ele>
        <time>2015-07-05T16:41:38Z</time>
      </trkpt>
      <trkpt lat="46.25226" lon="6.39405">
        <ele>889</ele>
        <time>2015-07-05T16:41:41Z</time>
      </trkpt>
      <trkpt lat="46.25231" lon="6.39441">
        <ele>893</ele>
        <time>2015-07-05T16:41:47Z</time>
      </trkpt>
      <trkpt lat="46.25229" lon="6.3949">
        <ele>894</ele>
        <time>2015-07-05T16:41:54Z</time>
      </trkpt>
      <trkpt lat="46.25225" lon="6.39518">
        <ele>903</ele>
        <time>2015-07-05T16:41:58Z</time>
      </trkpt>
      <trkpt lat="46.25222" lon="6.39546">
        <ele>907</ele>
        <time>2015-07-05T16:42:02Z</time>
      </trkpt>
      <trkpt lat="46.25232" lon="6.39591">
        <ele>913</ele>
        <time>2015-07-05T16:42:09Z</time>
      </trkpt>
      <trkpt lat="46.25283" lon="6.39666">
        <ele>896</ele>
        <time>2015-07-05T16:42:25Z</time>
      </trkpt>
      <trkpt lat="46.25286" lon="6.39671">
        <ele>908</ele>
        <time>2015-07-05T16:42:26Z</time>
      </trkpt>
      <trkpt lat="46.25309" lon="6.39714">
        <ele>905</ele>
        <time>2015-07-05T16:42:35Z</time>
      </trkpt>
      <trkpt lat="46.25329" lon="6.39775">
        <ele>912</ele>
        <time>2015-07-05T16:42:45Z</time>
      </trkpt>
      <trkpt lat="46.25342" lon="6.39866">
        <ele>887</ele>
        <time>2015-07-05T16:42:59Z</time>
      </trkpt>
      <trkpt lat="46.2534" lon="6.39887">
        <ele>888</ele>
        <time>2015-07-05T16:43:02Z</time>
      </trkpt>
      <trkpt lat="46.25334" lon="6.39911">
        <ele>898</ele>
        <time>2015-07-05T16:43:06Z</time>
      </trkpt>
      <trkpt lat="46.25327" lon="6.39951">
        <ele>915</ele>
        <time>2015-07-05T16:43:12Z</time>
      </trkpt>
      <trkpt lat="46.25328" lon="6.39985">
        <ele>910</ele>
        <time>2015-07-05T16:43:17Z</time>
      </trkpt>
      <trkpt lat="46.25337" lon="6.40026">
        <ele>888</ele>
        <time>2015-07-05T16:43:23Z</time>
      </trkpt>
      <trkpt lat="46.25327" lon="6.40079">
        <ele>905</ele>
        <time>2015-07-05T16:43:32Z</time>
      </trkpt>
      <trkpt lat="46.25315" lon="6.40095">
        <ele>908</ele>
        <time>2015-07-05T16:43:36Z</time>
      </trkpt>
      <trkpt lat="46.25314" lon="6.40121">
        <ele>910</ele>
        <time>2015-07-05T16:43:40Z</time>
      </trkpt>
      <trkpt lat="46.2534" lon="6.40218">
        <ele>904</ele>
        <time>2015-07-05T16:43:56Z</time>
      </trkpt>
      <trkpt lat="46.25357" lon="6.40254">
        <ele>912</ele>
        <time>2015-07-05T16:44:03Z</time>
      </trkpt>
      <trkpt lat="46.25371" lon="6.40271">
        <ele>911</ele>
        <time>2015-07-05T16:44:07Z</time>
      </trkpt>
      <trkpt lat="46.25378" lon="6.40302">
        <ele>912</ele>
        <time>2015-07-05T16:44:12Z</time>
      </trkpt>
      <trkpt lat="46.25375" lon="6.40341">
        <ele>918</ele>
        <time>2015-07-05T16:44:18Z</time>
      </trkpt>
      <trkpt lat="46.2538" lon="6.40373">
        <ele>919</ele>
        <time>2015-07-05T16:44:23Z</time>
      </trkpt>
      <trkpt lat="46.25386" lon="6.40391">
        <ele>919</ele>
        <time>2015-07-05T16:44:26Z</time>
      </trkpt>
      <trkpt lat="46.25424" lon="6.40461">
        <ele>911</ele>
        <time>2015-07-05T16:44:39Z</time>
      </trkpt>
      <trkpt lat="46.25418" lon="6.40506">
        <ele>917</ele>
        <time>2015-07-05T16:44:46Z</time>
      </trkpt>
      <trkpt lat="46.25394" lon="6.40496">
        <ele>921</ele>
        <time>2015-07-05T16:44:52Z</time>
      </trkpt>
      <trkpt lat="46.25373" lon="6.40429">
        <ele>924</ele>
        <time>2015-07-05T16:45:04Z</time>
      </trkpt>
      <trkpt lat="46.25344" lon="6.40367">
        <ele>922</ele>
        <time>2015-07-05T16:45:15Z</time>
      </trkpt>
      <trkpt lat="46.25301" lon="6.40312">
        <ele>927</ele>
        <time>2015-07-05T16:45:27Z</time>
      </trkpt>
      <trkpt lat="46.25246" lon="6.40231">
        <ele>930</ele>
        <time>2015-07-05T16:45:43Z</time>
      </trkpt>
      <trkpt lat="46.25203" lon="6.40162">
        <ele>928</ele>
        <time>2015-07-05T16:45:57Z</time>
      </trkpt>
      <trkpt lat="46.25142" lon="6.40093">
        <ele>933</ele>
        <time>2015-07-05T16:46:14Z</time>
      </trkpt>
      <trkpt lat="46.25072" lon="6.40049">
        <ele>940</ele>
        <time>2015-07-05T16:46:31Z</time>
      </trkpt>
      <trkpt lat="46.25017" lon="6.40012">
        <ele>941</ele>
        <time>2015-07-05T16:46:45Z</time>
      </trkpt>
      <trkpt lat="46.24972" lon="6.39969">
        <ele>945</ele>
        <time>2015-07-05T16:46:58Z</time>
      </trkpt>
      <trkpt lat="46.24925" lon="6.39881">
        <ele>945</ele>
        <time>2015-07-05T16:47:14Z</time>
      </trkpt>
      <trkpt lat="46.24849" lon="6.39821">
        <ele>946</ele>
        <time>2015-07-05T16:47:30Z</time>
      </trkpt>
      <trkpt lat="46.24786" lon="6.39776">
        <ele>947</ele>
        <time>2015-07-05T16:47:43Z</time>
      </trkpt>
      <trkpt lat="46.24785" lon="6.3974">
        <ele>947</ele>
        <time>2015-07-05T16:47:49Z</time>
      </trkpt>
      <trkpt lat="46.24819" lon="6.39698">
        <ele>948</ele>
        <time>2015-07-05T16:48:00Z</time>
      </trkpt>
      <trkpt lat="46.24837" lon="6.39677">
        <ele>950</ele>
        <time>2015-07-05T16:48:06Z</time>
      </trkpt>
      <trkpt lat="46.2487" lon="6.39634">
        <ele>954</ele>
        <time>2015-07-05T16:48:17Z</time>
      </trkpt>
      <trkpt lat="46.24899" lon="6.3959">
        <ele>958</ele>
        <time>2015-07-05T16:48:28Z</time>
      </trkpt>
      <trkpt lat="46.24906" lon="6.39565">
        <ele>958</ele>
        <time>2015-07-05T16:48:33Z</time>
      </trkpt>
      <trkpt lat="46.24904" lon="6.39537">
        <ele>958</ele>
        <time>2015-07-05T16:48:38Z</time>
      </trkpt>
      <trkpt lat="46.24903" lon="6.39529">
        <ele>958</ele>
        <time>2015-07-05T16:48:48Z</time>
      </trkpt>
      <trkpt lat="46.24903" lon="6.3953">
        <ele>958</ele>
        <time>2015-07-05T16:49:14Z</time>
      </trkpt>
      <trkpt lat="46.24902" lon="6.39528">
        <ele>958</ele>
        <time>2015-07-05T16:49:25Z</time>
      </trkpt>
      <trkpt lat="46.24899" lon="6.39507">
        <ele>960</ele>
        <time>2015-07-05T16:49:34Z</time>
      </trkpt>
      <trkpt lat="46.24895" lon="6.39492">
        <ele>962</ele>
        <time>2015-07-05T16:49:49Z</time>
      </trkpt>
      <trkpt lat="46.24871" lon="6.3941">
        <ele>970</ele>
        <time>2015-07-05T16:50:04Z</time>
      </trkpt>
      <trkpt lat="46.24842" lon="6.39354">
        <ele>972</ele>
        <time>2015-07-05T16:50:16Z</time>
      </trkpt>
      <trkpt lat="46.24811" lon="6.39291">
        <ele>967</ele>
        <time>2015-07-05T16:50:30Z</time>
      </trkpt>
      <trkpt lat="46.24808" lon="6.3924">
        <ele>974</ele>
        <time>2015-07-05T16:50:40Z</time>
      </trkpt>
      <trkpt lat="46.24828" lon="6.39203">
        <ele>975</ele>
        <time>2015-07-05T16:50:49Z</time>
      </trkpt>
      <trkpt lat="46.24832" lon="6.39179">
        <ele>977</ele>
        <time>2015-07-05T16:50:54Z</time>
      </trkpt>
      <trkpt lat="46.24833" lon="6.39132">
        <ele>977</ele>
        <time>2015-07-05T16:51:01Z</time>
      </trkpt>
      <trkpt lat="46.24825" lon="6.39098">
        <ele>977</ele>
        <time>2015-07-05T16:51:06Z</time>
      </trkpt>
      <trkpt lat="46.24806" lon="6.39068">
        <ele>978</ele>
        <time>2015-07-05T16:51:11Z</time>
      </trkpt>
      <trkpt lat="46.24777" lon="6.3903">
        <ele>979</ele>
        <time>2015-07-05T16:51:18Z</time>
      </trkpt>
      <trkpt lat="46.24763" lon="6.38997">
        <ele>984</ele>
        <time>2015-07-05T16:51:23Z</time>
      </trkpt>
      <trkpt lat="46.24747" lon="6.38926">
        <ele>989</ele>
        <time>2015-07-05T16:51:35Z</time>
      </trkpt>
      <trkpt lat="46.24707" lon="6.38884">
        <ele>990</ele>
        <time>2015-07-05T16:51:48Z</time>
      </trkpt>
      <trkpt lat="46.24644" lon="6.38827">
        <ele>986</ele>
        <time>2015-07-05T16:52:04Z</time>
      </trkpt>
      <trkpt lat="46.24628" lon="6.38787">
        <ele>983</ele>
        <time>2015-07-05T16:52:09Z</time>
      </trkpt>
      <trkpt lat="46.24615" lon="6.38735">
        <ele>982</ele>
        <time>2015-07-05T16:52:14Z</time>
      </trkpt>
      <trkpt lat="46.24611" lon="6.38725">
        <ele>982</ele>
        <time>2015-07-05T16:52:15Z</time>
      </trkpt>
      <trkpt lat="46.2455" lon="6.38639">
        <ele>989</ele>
        <time>2015-07-05T16:52:26Z</time>
      </trkpt>
      <trkpt lat="46.24525" lon="6.38604">
        <ele>991</ele>
        <time>2015-07-05T16:52:31Z</time>
      </trkpt>
      <trkpt lat="46.24472" lon="6.385">
        <ele>998</ele>
        <time>2015-07-05T16:52:45Z</time>
      </trkpt>
      <trkpt lat="46.24462" lon="6.38477">
        <ele>1000</ele>
        <time>2015-07-05T16:52:48Z</time>
      </trkpt>
      <trkpt lat="46.2445" lon="6.3839">
        <ele>999</ele>
        <time>2015-07-05T16:53:00Z</time>
      </trkpt>
      <trkpt lat="46.24419" lon="6.38352">
        <ele>1000</ele>
        <time>2015-07-05T16:53:11Z</time>
      </trkpt>
      <trkpt lat="46.2439" lon="6.38332">
        <ele>1007</ele>
        <time>2015-07-05T16:53:20Z</time>
      </trkpt>
      <trkpt lat="46.24359" lon="6.38315">
        <ele>1011</ele>
        <time>2015-07-05T16:53:30Z</time>
      </trkpt>
      <trkpt lat="46.24339" lon="6.38322">
        <ele>1012</ele>
        <time>2015-07-05T16:53:36Z</time>
      </trkpt>
      <trkpt lat="46.24338" lon="6.38363">
        <ele>1010</ele>
        <time>2015-07-05T16:53:45Z</time>
      </trkpt>
      <trkpt lat="46.2435" lon="6.38411">
        <ele>1010</ele>
        <time>2015-07-05T16:53:56Z</time>
      </trkpt>
      <trkpt lat="46.24328" lon="6.38417">
        <ele>1014</ele>
        <time>2015-07-05T16:54:04Z</time>
      </trkpt>
      <trkpt lat="46.24316" lon="6.38377">
        <ele>1022</ele>
        <time>2015-07-05T16:54:14Z</time>
      </trkpt>
      <trkpt lat="46.24294" lon="6.38335">
        <ele>1025</ele>
        <time>2015-07-05T16:54:26Z</time>
      </trkpt>
      <trkpt lat="46.24263" lon="6.38299">
        <ele>1030</ele>
        <time>2015-07-05T16:54:38Z</time>
      </trkpt>
      <trkpt lat="46.24241" lon="6.38272">
        <ele>1041</ele>
        <time>2015-07-05T16:54:46Z</time>
      </trkpt>
      <trkpt lat="46.24216" lon="6.38245">
        <ele>1042</ele>
        <time>2015-07-05T16:54:55Z</time>
      </trkpt>
      <trkpt lat="46.24204" lon="6.38213">
        <ele>1044</ele>
        <time>2015-07-05T16:55:03Z</time>
      </trkpt>
      <trkpt lat="46.24212" lon="6.38197">
        <ele>1043</ele>
        <time>2015-07-05T16:55:07Z</time>
      </trkpt>
      <trkpt lat="46.2423" lon="6.38148">
        <ele>1045</ele>
        <time>2015-07-05T16:55:19Z</time>
      </trkpt>
      <trkpt lat="46.2422" lon="6.38136">
        <ele>1047</ele>
        <time>2015-07-05T16:55:23Z</time>
      </trkpt>
      <trkpt lat="46.24191" lon="6.3814">
        <ele>1048</ele>
        <time>2015-07-05T16:55:33Z</time>
      </trkpt>
      <trkpt lat="46.24159" lon="6.38134">
        <ele>1053</ele>
        <time>2015-07-05T16:55:44Z</time>
      </trkpt>
      <trkpt lat="46.2415" lon="6.38131">
        <ele>1053</ele>
        <time>2015-07-05T16:55:47Z</time>
      </trkpt>
      <trkpt lat="46.24111" lon="6.38106">
        <ele>1053</ele>
        <time>2015-07-05T16:56:00Z</time>
      </trkpt>
      <trkpt lat="46.24103" lon="6.38081">
        <ele>1057</ele>
        <time>2015-07-05T16:56:05Z</time>
      </trkpt>
      <trkpt lat="46.24079" lon="6.38035">
        <ele>1056</ele>
        <time>2015-07-05T16:56:15Z</time>
      </trkpt>
      <trkpt lat="46.24068" lon="6.38022">
        <ele>1057</ele>
        <time>2015-07-05T16:56:19Z</time>
      </trkpt>
      <trkpt lat="46.24058" lon="6.38011">
        <ele>1057</ele>
        <time>2015-07-05T16:56:22Z</time>
      </trkpt>
      <trkpt lat="46.24017" lon="6.37974">
        <ele>1065</ele>
        <time>2015-07-05T16:56:34Z</time>
      </trkpt>
      <trkpt lat="46.24013" lon="6.37969">
        <ele>1066</ele>
        <time>2015-07-05T16:56:36Z</time>
      </trkpt>
      <trkpt lat="46.23978" lon="6.37946">
        <ele>1067</ele>
        <time>2015-07-05T16:56:48Z</time>
      </trkpt>
      <trkpt lat="46.23945" lon="6.3792">
        <ele>1068</ele>
        <time>2015-07-05T16:56:59Z</time>
      </trkpt>
      <trkpt lat="46.23918" lon="6.37899">
        <ele>1074</ele>
        <time>2015-07-05T16:57:09Z</time>
      </trkpt>
      <trkpt lat="46.23913" lon="6.37896">
        <ele>1075</ele>
        <time>2015-07-05T16:57:11Z</time>
      </trkpt>
      <trkpt lat="46.23874" lon="6.37876">
        <ele>1077</ele>
        <time>2015-07-05T16:57:25Z</time>
      </trkpt>
      <trkpt lat="46.23849" lon="6.37851">
        <ele>1079</ele>
        <time>2015-07-05T16:57:36Z</time>
      </trkpt>
      <trkpt lat="46.23833" lon="6.37815">
        <ele>1079</ele>
        <time>2015-07-05T16:57:46Z</time>
      </trkpt>
      <trkpt lat="46.23808" lon="6.37755">
        <ele>1080</ele>
        <time>2015-07-05T16:58:00Z</time>
      </trkpt>
      <trkpt lat="46.23796" lon="6.37708">
        <ele>1083</ele>
        <time>2015-07-05T16:58:11Z</time>
      </trkpt>
      <trkpt lat="46.23782" lon="6.3766">
        <ele>1093</ele>
        <time>2015-07-05T16:58:23Z</time>
      </trkpt>
      <trkpt lat="46.2376" lon="6.37624">
        <ele>1096</ele>
        <time>2015-07-05T16:58:34Z</time>
      </trkpt>
      <trkpt lat="46.23743" lon="6.37596">
        <ele>1092</ele>
        <time>2015-07-05T16:58:43Z</time>
      </trkpt>
      <trkpt lat="46.23733" lon="6.37553">
        <ele>1097</ele>
        <time>2015-07-05T16:58:54Z</time>
      </trkpt>
      <trkpt lat="46.23718" lon="6.37462">
        <ele>1104</ele>
        <time>2015-07-05T16:59:14Z</time>
      </trkpt>
      <trkpt lat="46.23711" lon="6.37428">
        <ele>1104</ele>
        <time>2015-07-05T16:59:22Z</time>
      </trkpt>
      <trkpt lat="46.23697" lon="6.37372">
        <ele>1110</ele>
        <time>2015-07-05T16:59:36Z</time>
      </trkpt>
      <trkpt lat="46.23686" lon="6.37333">
        <ele>1114</ele>
        <time>2015-07-05T16:59:45Z</time>
      </trkpt>
      <trkpt lat="46.23678" lon="6.3728">
        <ele>1117</ele>
        <time>2015-07-05T16:59:57Z</time>
      </trkpt>
      <trkpt lat="46.23698" lon="6.3723">
        <ele>1121</ele>
        <time>2015-07-05T17:00:10Z</time>
      </trkpt>
      <trkpt lat="46.23713" lon="6.3718">
        <ele>1123</ele>
        <time>2015-07-05T17:00:22Z</time>
      </trkpt>
      <trkpt lat="46.23722" lon="6.3713">
        <ele>1127</ele>
        <time>2015-07-05T17:00:34Z</time>
      </trkpt>
      <trkpt lat="46.23731" lon="6.37089">
        <ele>1130</ele>
        <time>2015-07-05T17:00:44Z</time>
      </trkpt>
      <trkpt lat="46.23725" lon="6.37039">
        <ele>1136</ele>
        <time>2015-07-05T17:00:56Z</time>
      </trkpt>
      <trkpt lat="46.23697" lon="6.37018">
        <ele>1137</ele>
        <time>2015-07-05T17:01:07Z</time>
      </trkpt>
      <trkpt lat="46.2367" lon="6.36997">
        <ele>1141</ele>
        <time>2015-07-05T17:01:18Z</time>
      </trkpt>
      <trkpt lat="46.23642" lon="6.36968">
        <ele>1145</ele>
        <time>2015-07-05T17:01:29Z</time>
      </trkpt>
      <trkpt lat="46.23614" lon="6.36942">
        <ele>1146</ele>
        <time>2015-07-05T17:01:41Z</time>
      </trkpt>
      <trkpt lat="46.23584" lon="6.36913">
        <ele>1150</ele>
        <time>2015-07-05T17:01:53Z</time>
      </trkpt>
      <trkpt lat="46.23561" lon="6.3689">
        <ele>1154</ele>
        <time>2015-07-05T17:02:02Z</time>
      </trkpt>
      <trkpt lat="46.23525" lon="6.36869">
        <ele>1156</ele>
        <time>2015-07-05T17:02:15Z</time>
      </trkpt>
      <trkpt lat="46.23506" lon="6.36834">
        <ele>1160</ele>
        <time>2015-07-05T17:02:26Z</time>
      </trkpt>
      <trkpt lat="46.23496" lon="6.36792">
        <ele>1166</ele>
        <time>2015-07-05T17:02:37Z</time>
      </trkpt>
      <trkpt lat="46.23483" lon="6.36746">
        <ele>1172</ele>
        <time>2015-07-05T17:02:48Z</time>
      </trkpt>
      <trkpt lat="46.23452" lon="6.36703">
        <ele>1176</ele>
        <time>2015-07-05T17:03:02Z</time>
      </trkpt>
      <trkpt lat="46.23427" lon="6.36683">
        <ele>1177</ele>
        <time>2015-07-05T17:03:12Z</time>
      </trkpt>
      <trkpt lat="46.23392" lon="6.36655">
        <ele>1182</ele>
        <time>2015-07-05T17:03:25Z</time>
      </trkpt>
      <trkpt lat="46.23363" lon="6.36631">
        <ele>1183</ele>
        <time>2015-07-05T17:03:37Z</time>
      </trkpt>
      <trkpt lat="46.23335" lon="6.36609">
        <ele>1184</ele>
        <time>2015-07-05T17:03:49Z</time>
      </trkpt>
      <trkpt lat="46.23305" lon="6.36586">
        <ele>1184</ele>
        <time>2015-07-05T17:04:01Z</time>
      </trkpt>
      <trkpt lat="46.23281" lon="6.36567">
        <ele>1195</ele>
        <time>2015-07-05T17:04:11Z</time>
      </trkpt>
      <trkpt lat="46.23253" lon="6.3655">
        <ele>1197</ele>
        <time>2015-07-05T17:04:22Z</time>
      </trkpt>
      <trkpt lat="46.23222" lon="6.36545">
        <ele>1204</ele>
        <time>2015-07-05T17:04:33Z</time>
      </trkpt>
      <trkpt lat="46.23195" lon="6.36548">
        <ele>1205</ele>
        <time>2015-07-05T17:04:44Z</time>
      </trkpt>
      <trkpt lat="46.23169" lon="6.36576">
        <ele>1201</ele>
        <time>2015-07-05T17:04:55Z</time>
      </trkpt>
      <trkpt lat="46.23142" lon="6.36596">
        <ele>1205</ele>
        <time>2015-07-05T17:05:05Z</time>
      </trkpt>
      <trkpt lat="46.23113" lon="6.36621">
        <ele>1208</ele>
        <time>2015-07-05T17:05:17Z</time>
      </trkpt>
      <trkpt lat="46.23092" lon="6.36654">
        <ele>1208</ele>
        <time>2015-07-05T17:05:28Z</time>
      </trkpt>
      <trkpt lat="46.23055" lon="6.36674">
        <ele>1209</ele>
        <time>2015-07-05T17:05:42Z</time>
      </trkpt>
      <trkpt lat="46.23034" lon="6.36665">
        <ele>1217</ele>
        <time>2015-07-05T17:05:50Z</time>
      </trkpt>
      <trkpt lat="46.23031" lon="6.36637">
        <ele>1219</ele>
        <time>2015-07-05T17:05:57Z</time>
      </trkpt>
      <trkpt lat="46.23038" lon="6.36625">
        <ele>1220</ele>
        <time>2015-07-05T17:06:01Z</time>
      </trkpt>
      <trkpt lat="46.23059" lon="6.366">
        <ele>1222</ele>
        <time>2015-07-05T17:06:11Z</time>
      </trkpt>
      <trkpt lat="46.23066" lon="6.36591">
        <ele>1223</ele>
        <time>2015-07-05T17:06:15Z</time>
      </trkpt>
      <trkpt lat="46.23094" lon="6.36558">
        <ele>1224</ele>
        <time>2015-07-05T17:06:29Z</time>
      </trkpt>
      <trkpt lat="46.23113" lon="6.36526">
        <ele>1225</ele>
        <time>2015-07-05T17:06:41Z</time>
      </trkpt>
      <trkpt lat="46.2314" lon="6.36492">
        <ele>1233</ele>
        <time>2015-07-05T17:06:53Z</time>
      </trkpt>
      <trkpt lat="46.23167" lon="6.36464">
        <ele>1227</ele>
        <time>2015-07-05T17:07:04Z</time>
      </trkpt>
      <trkpt lat="46.2319" lon="6.36424">
        <ele>1232</ele>
        <time>2015-07-05T17:07:17Z</time>
      </trkpt>
      <trkpt lat="46.23225" lon="6.36397">
        <ele>1244</ele>
        <time>2015-07-05T17:07:30Z</time>
      </trkpt>
      <trkpt lat="46.23251" lon="6.36382">
        <ele>1245</ele>
        <time>2015-07-05T17:07:40Z</time>
      </trkpt>
      <trkpt lat="46.23279" lon="6.36373">
        <ele>1247</ele>
        <time>2015-07-05T17:07:50Z</time>
      </trkpt>
      <trkpt lat="46.23315" lon="6.36372">
        <ele>1247</ele>
        <time>2015-07-05T17:08:02Z</time>
      </trkpt>
      <trkpt lat="46.23359" lon="6.36363">
        <ele>1250</ele>
        <time>2015-07-05T17:08:17Z</time>
      </trkpt>
      <trkpt lat="46.23389" lon="6.36331">
        <ele>1266</ele>
        <time>2015-07-05T17:08:30Z</time>
      </trkpt>
      <trkpt lat="46.23415" lon="6.36302">
        <ele>1267</ele>
        <time>2015-07-05T17:08:41Z</time>
      </trkpt>
      <trkpt lat="46.23446" lon="6.36272">
        <ele>1265</ele>
        <time>2015-07-05T17:08:54Z</time>
      </trkpt>
      <trkpt lat="46.23479" lon="6.36246">
        <ele>1269</ele>
        <time>2015-07-05T17:09:07Z</time>
      </trkpt>
      <trkpt lat="46.23511" lon="6.36231">
        <ele>1266</ele>
        <time>2015-07-05T17:09:19Z</time>
      </trkpt>
      <trkpt lat="46.23556" lon="6.36193">
        <ele>1268</ele>
        <time>2015-07-05T17:09:37Z</time>
      </trkpt>
      <trkpt lat="46.23543" lon="6.36153">
        <ele>1276</ele>
        <time>2015-07-05T17:09:47Z</time>
      </trkpt>
      <trkpt lat="46.23514" lon="6.36146">
        <ele>1276</ele>
        <time>2015-07-05T17:09:57Z</time>
      </trkpt>
      <trkpt lat="46.23472" lon="6.36142">
        <ele>1283</ele>
        <time>2015-07-05T17:10:12Z</time>
      </trkpt>
      <trkpt lat="46.23441" lon="6.36138">
        <ele>1286</ele>
        <time>2015-07-05T17:10:23Z</time>
      </trkpt>
      <trkpt lat="46.23408" lon="6.36151">
        <ele>1293</ele>
        <time>2015-07-05T17:10:36Z</time>
      </trkpt>
      <trkpt lat="46.23375" lon="6.36157">
        <ele>1298</ele>
        <time>2015-07-05T17:10:49Z</time>
      </trkpt>
      <trkpt lat="46.23344" lon="6.36179">
        <ele>1292</ele>
        <time>2015-07-05T17:11:01Z</time>
      </trkpt>
      <trkpt lat="46.23314" lon="6.36208">
        <ele>1295</ele>
        <time>2015-07-05T17:11:14Z</time>
      </trkpt>
      <trkpt lat="46.23282" lon="6.36208">
        <ele>1297</ele>
        <time>2015-07-05T17:11:26Z</time>
      </trkpt>
      <trkpt lat="46.23247" lon="6.36201">
        <ele>1304</ele>
        <time>2015-07-05T17:11:40Z</time>
      </trkpt>
      <trkpt lat="46.23236" lon="6.36201">
        <ele>1304</ele>
        <time>2015-07-05T17:11:44Z</time>
      </trkpt>
      <trkpt lat="46.23214" lon="6.36194">
        <ele>1305</ele>
        <time>2015-07-05T17:11:52Z</time>
      </trkpt>
      <trkpt lat="46.23168" lon="6.36184">
        <ele>1310</ele>
        <time>2015-07-05T17:12:07Z</time>
      </trkpt>
      <trkpt lat="46.23135" lon="6.36168">
        <ele>1311</ele>
        <time>2015-07-05T17:12:19Z</time>
      </trkpt>
      <trkpt lat="46.23099" lon="6.36166">
        <ele>1325</ele>
        <time>2015-07-05T17:12:32Z</time>
      </trkpt>
      <trkpt lat="46.23081" lon="6.36186">
        <ele>1318</ele>
        <time>2015-07-05T17:12:40Z</time>
      </trkpt>
      <trkpt lat="46.23054" lon="6.36183">
        <ele>1318</ele>
        <time>2015-07-05T17:12:50Z</time>
      </trkpt>
      <trkpt lat="46.2304" lon="6.36195">
        <ele>1318</ele>
        <time>2015-07-05T17:12:57Z</time>
      </trkpt>
      <trkpt lat="46.2301" lon="6.36225">
        <ele>1315</ele>
        <time>2015-07-05T17:13:10Z</time>
      </trkpt>
      <trkpt lat="46.22972" lon="6.36223">
        <ele>1321</ele>
        <time>2015-07-05T17:13:23Z</time>
      </trkpt>
      <trkpt lat="46.22942" lon="6.36199">
        <ele>1326</ele>
        <time>2015-07-05T17:13:35Z</time>
      </trkpt>
      <trkpt lat="46.22914" lon="6.36171">
        <ele>1340</ele>
        <time>2015-07-05T17:13:47Z</time>
      </trkpt>
      <trkpt lat="46.22886" lon="6.36167">
        <ele>1336</ele>
        <time>2015-07-05T17:13:57Z</time>
      </trkpt>
      <trkpt lat="46.2286" lon="6.36179">
        <ele>1337</ele>
        <time>2015-07-05T17:14:07Z</time>
      </trkpt>
      <trkpt lat="46.22825" lon="6.36187">
        <ele>1341</ele>
        <time>2015-07-05T17:14:20Z</time>
      </trkpt>
      <trkpt lat="46.22808" lon="6.36187">
        <ele>1339</ele>
        <time>2015-07-05T17:14:26Z</time>
      </trkpt>
      <trkpt lat="46.2277" lon="6.36179">
        <ele>1338</ele>
        <time>2015-07-05T17:14:40Z</time>
      </trkpt>
      <trkpt lat="46.22744" lon="6.36156">
        <ele>1340</ele>
        <time>2015-07-05T17:14:51Z</time>
      </trkpt>
      <trkpt lat="46.22735" lon="6.36113">
        <ele>1341</ele>
        <time>2015-07-05T17:15:03Z</time>
      </trkpt>
      <trkpt lat="46.22728" lon="6.36056">
        <ele>1348</ele>
        <time>2015-07-05T17:15:17Z</time>
      </trkpt>
      <trkpt lat="46.22719" lon="6.36008">
        <ele>1351</ele>
        <time>2015-07-05T17:15:29Z</time>
      </trkpt>
      <trkpt lat="46.22704" lon="6.35956">
        <ele>1360</ele>
        <time>2015-07-05T17:15:42Z</time>
      </trkpt>
      <trkpt lat="46.22689" lon="6.35919">
        <ele>1359</ele>
        <time>2015-07-05T17:15:52Z</time>
      </trkpt>
      <trkpt lat="46.22675" lon="6.35877">
        <ele>1373</ele>
        <time>2015-07-05T17:16:03Z</time>
      </trkpt>
      <trkpt lat="46.22671" lon="6.35834">
        <ele>1375</ele>
        <time>2015-07-05T17:16:14Z</time>
      </trkpt>
      <trkpt lat="46.22655" lon="6.358">
        <ele>1379</ele>
        <time>2015-07-05T17:16:24Z</time>
      </trkpt>
      <trkpt lat="46.22629" lon="6.35778">
        <ele>1380</ele>
        <time>2015-07-05T17:16:34Z</time>
      </trkpt>
      <trkpt lat="46.22602" lon="6.35767">
        <ele>1380</ele>
        <time>2015-07-05T17:16:44Z</time>
      </trkpt>
      <trkpt lat="46.22575" lon="6.35759">
        <ele>1378</ele>
        <time>2015-07-05T17:16:53Z</time>
      </trkpt>
      <trkpt lat="46.22568" lon="6.35752">
        <ele>1378</ele>
        <time>2015-07-05T17:16:56Z</time>
      </trkpt>
      <trkpt lat="46.22572" lon="6.35734">
        <ele>1389</ele>
        <time>2015-07-05T17:17:01Z</time>
      </trkpt>
      <trkpt lat="46.22585" lon="6.3573">
        <ele>1392</ele>
        <time>2015-07-05T17:17:12Z</time>
      </trkpt>
      <trkpt lat="46.22586" lon="6.35733">
        <ele>1392</ele>
        <time>2015-07-05T17:17:38Z</time>
      </trkpt>
      <trkpt lat="46.22583" lon="6.35728">
        <ele>1390</ele>
        <time>2015-07-05T17:18:07Z</time>
      </trkpt>
      <trkpt lat="46.2259" lon="6.35734">
        <ele>1392</ele>
        <time>2015-07-05T17:18:32Z</time>
      </trkpt>
      <trkpt lat="46.22595" lon="6.35732">
        <ele>1393</ele>
        <time>2015-07-05T17:18:35Z</time>
      </trkpt>
      <trkpt lat="46.22607" lon="6.35728">
        <ele>1395</ele>
        <time>2015-07-05T17:18:40Z</time>
      </trkpt>
      <trkpt lat="46.22635" lon="6.35729">
        <ele>1398</ele>
        <time>2015-07-05T17:18:52Z</time>
      </trkpt>
      <trkpt lat="46.22664" lon="6.35729">
        <ele>1397</ele>
        <time>2015-07-05T17:19:03Z</time>
      </trkpt>
      <trkpt lat="46.22697" lon="6.35719">
        <ele>1404</ele>
        <time>2015-07-05T17:19:16Z</time>
      </trkpt>
      <trkpt lat="46.22735" lon="6.35729">
        <ele>1405</ele>
        <time>2015-07-05T17:19:30Z</time>
      </trkpt>
      <trkpt lat="46.22765" lon="6.35739">
        <ele>1411</ele>
        <time>2015-07-05T17:19:42Z</time>
      </trkpt>
      <trkpt lat="46.2277" lon="6.35742">
        <ele>1412</ele>
        <time>2015-07-05T17:19:44Z</time>
      </trkpt>
      <trkpt lat="46.2279" lon="6.35772">
        <ele>1413</ele>
        <time>2015-07-05T17:19:54Z</time>
      </trkpt>
      <trkpt lat="46.22796" lon="6.35822">
        <ele>1414</ele>
        <time>2015-07-05T17:20:07Z</time>
      </trkpt>
      <trkpt lat="46.22797" lon="6.35862">
        <ele>1408</ele>
        <time>2015-07-05T17:20:18Z</time>
      </trkpt>
      <trkpt lat="46.22826" lon="6.35896">
        <ele>1411</ele>
        <time>2015-07-05T17:20:31Z</time>
      </trkpt>
      <trkpt lat="46.22851" lon="6.35928">
        <ele>1413</ele>
        <time>2015-07-05T17:20:44Z</time>
      </trkpt>
      <trkpt lat="46.22855" lon="6.35932">
        <ele>1412</ele>
        <time>2015-07-05T17:20:46Z</time>
      </trkpt>
      <trkpt lat="46.22881" lon="6.35948">
        <ele>1411</ele>
        <time>2015-07-05T17:20:57Z</time>
      </trkpt>
      <trkpt lat="46.22906" lon="6.35925">
        <ele>1418</ele>
        <time>2015-07-05T17:21:09Z</time>
      </trkpt>
      <trkpt lat="46.22927" lon="6.35896">
        <ele>1420</ele>
        <time>2015-07-05T17:21:20Z</time>
      </trkpt>
      <trkpt lat="46.22931" lon="6.35891">
        <ele>1420</ele>
        <time>2015-07-05T17:21:22Z</time>
      </trkpt>
      <trkpt lat="46.22925" lon="6.35848">
        <ele>1425</ele>
        <time>2015-07-05T17:21:34Z</time>
      </trkpt>
      <trkpt lat="46.22901" lon="6.35778">
        <ele>1432</ele>
        <time>2015-07-05T17:21:51Z</time>
      </trkpt>
      <trkpt lat="46.2287" lon="6.35719">
        <ele>1435</ele>
        <time>2015-07-05T17:22:05Z</time>
      </trkpt>
      <trkpt lat="46.2285" lon="6.35696">
        <ele>1435</ele>
        <time>2015-07-05T17:22:16Z</time>
      </trkpt>
      <trkpt lat="46.22848" lon="6.35694">
        <ele>1435</ele>
        <time>2015-07-05T17:22:48Z</time>
      </trkpt>
      <trkpt lat="46.22846" lon="6.35691">
        <ele>1435</ele>
        <time>2015-07-05T17:23:19Z</time>
      </trkpt>
      <trkpt lat="46.22846" lon="6.3569">
        <ele>1435</ele>
        <time>2015-07-05T17:23:59Z</time>
      </trkpt>
      <trkpt lat="46.22844" lon="6.35688">
        <ele>1434</ele>
        <time>2015-07-05T17:24:26Z</time>
      </trkpt>
      <trkpt lat="46.22845" lon="6.35692">
        <ele>1434</ele>
        <time>2015-07-05T17:24:33Z</time>
      </trkpt>
      <trkpt lat="46.22875" lon="6.35724">
        <ele>1435</ele>
        <time>2015-07-05T17:24:43Z</time>
      </trkpt>
      <trkpt lat="46.22885" lon="6.35738">
        <ele>1436</ele>
        <time>2015-07-05T17:24:46Z</time>
      </trkpt>
      <trkpt lat="46.22891" lon="6.35749">
        <ele>1436</ele>
        <time>2015-07-05T17:24:48Z</time>
      </trkpt>
      <trkpt lat="46.229" lon="6.35783">
        <ele>1431</ele>
        <time>2015-07-05T17:24:53Z</time>
      </trkpt>
      <trkpt lat="46.2293" lon="6.35869">
        <ele>1421</ele>
        <time>2015-07-05T17:25:06Z</time>
      </trkpt>
      <trkpt lat="46.22927" lon="6.35895">
        <ele>1420</ele>
        <time>2015-07-05T17:25:10Z</time>
      </trkpt>
      <trkpt lat="46.22913" lon="6.35914">
        <ele>1423</ele>
        <time>2015-07-05T17:25:13Z</time>
      </trkpt>
      <trkpt lat="46.229" lon="6.35934">
        <ele>1415</ele>
        <time>2015-07-05T17:25:16Z</time>
      </trkpt>
      <trkpt lat="46.22884" lon="6.35948">
        <ele>1411</ele>
        <time>2015-07-05T17:25:20Z</time>
      </trkpt>
      <trkpt lat="46.22871" lon="6.35951">
        <ele>1411</ele>
        <time>2015-07-05T17:25:30Z</time>
      </trkpt>
      <trkpt lat="46.22872" lon="6.35948">
        <ele>1411</ele>
        <time>2015-07-05T17:25:46Z</time>
      </trkpt>
      <trkpt lat="46.22861" lon="6.35937">
        <ele>1412</ele>
        <time>2015-07-05T17:25:51Z</time>
      </trkpt>
      <trkpt lat="46.22844" lon="6.35919">
        <ele>1415</ele>
        <time>2015-07-05T17:25:55Z</time>
      </trkpt>
      <trkpt lat="46.2283" lon="6.35898">
        <ele>1412</ele>
        <time>2015-07-05T17:25:58Z</time>
      </trkpt>
      <trkpt lat="46.22805" lon="6.35872">
        <ele>1409</ele>
        <time>2015-07-05T17:26:02Z</time>
      </trkpt>
      <trkpt lat="46.22793" lon="6.35835">
        <ele>1409</ele>
        <time>2015-07-05T17:26:06Z</time>
      </trkpt>
      <trkpt lat="46.22793" lon="6.35825">
        <ele>1413</ele>
        <time>2015-07-05T17:26:07Z</time>
      </trkpt>
      <trkpt lat="46.2279" lon="6.35778">
        <ele>1413</ele>
        <time>2015-07-05T17:26:11Z</time>
      </trkpt>
      <trkpt lat="46.2277" lon="6.35743">
        <ele>1412</ele>
        <time>2015-07-05T17:26:15Z</time>
      </trkpt>
      <trkpt lat="46.22754" lon="6.35734">
        <ele>1410</ele>
        <time>2015-07-05T17:26:17Z</time>
      </trkpt>
      <trkpt lat="46.22736" lon="6.35728">
        <ele>1405</ele>
        <time>2015-07-05T17:26:19Z</time>
      </trkpt>
      <trkpt lat="46.22702" lon="6.35719">
        <ele>1405</ele>
        <time>2015-07-05T17:26:23Z</time>
      </trkpt>
      <trkpt lat="46.22686" lon="6.3572">
        <ele>1404</ele>
        <time>2015-07-05T17:26:25Z</time>
      </trkpt>
      <trkpt lat="46.22659" lon="6.35725">
        <ele>1398</ele>
        <time>2015-07-05T17:26:28Z</time>
      </trkpt>
      <trkpt lat="46.22617" lon="6.35721">
        <ele>1397</ele>
        <time>2015-07-05T17:26:33Z</time>
      </trkpt>
      <trkpt lat="46.22593" lon="6.35722">
        <ele>1395</ele>
        <time>2015-07-05T17:26:36Z</time>
      </trkpt>
      <trkpt lat="46.22578" lon="6.35725">
        <ele>1391</ele>
        <time>2015-07-05T17:26:38Z</time>
      </trkpt>
      <trkpt lat="46.22566" lon="6.35755">
        <ele>1377</ele>
        <time>2015-07-05T17:26:44Z</time>
      </trkpt>
      <trkpt lat="46.22581" lon="6.35765">
        <ele>1378</ele>
        <time>2015-07-05T17:26:47Z</time>
      </trkpt>
      <trkpt lat="46.22624" lon="6.35774">
        <ele>1380</ele>
        <time>2015-07-05T17:26:53Z</time>
      </trkpt>
      <trkpt lat="46.22637" lon="6.35782">
        <ele>1380</ele>
        <time>2015-07-05T17:26:55Z</time>
      </trkpt>
      <trkpt lat="46.22661" lon="6.35814">
        <ele>1377</ele>
        <time>2015-07-05T17:26:59Z</time>
      </trkpt>
      <trkpt lat="46.22668" lon="6.35832">
        <ele>1376</ele>
        <time>2015-07-05T17:27:01Z</time>
      </trkpt>
      <trkpt lat="46.22672" lon="6.35872">
        <ele>1374</ele>
        <time>2015-07-05T17:27:05Z</time>
      </trkpt>
      <trkpt lat="46.22693" lon="6.35927">
        <ele>1360</ele>
        <time>2015-07-05T17:27:11Z</time>
      </trkpt>
      <trkpt lat="46.22712" lon="6.35975">
        <ele>1359</ele>
        <time>2015-07-05T17:27:15Z</time>
      </trkpt>
      <trkpt lat="46.22727" lon="6.36049">
        <ele>1348</ele>
        <time>2015-07-05T17:27:20Z</time>
      </trkpt>
      <trkpt lat="46.22735" lon="6.3612">
        <ele>1340</ele>
        <time>2015-07-05T17:27:25Z</time>
      </trkpt>
      <trkpt lat="46.2274" lon="6.36146">
        <ele>1339</ele>
        <time>2015-07-05T17:27:27Z</time>
      </trkpt>
      <trkpt lat="46.22778" lon="6.36188">
        <ele>1337</ele>
        <time>2015-07-05T17:27:33Z</time>
      </trkpt>
      <trkpt lat="46.22799" lon="6.36192">
        <ele>1338</ele>
        <time>2015-07-05T17:27:35Z</time>
      </trkpt>
      <trkpt lat="46.22825" lon="6.36192">
        <ele>1340</ele>
        <time>2015-07-05T17:27:38Z</time>
      </trkpt>
      <trkpt lat="46.22834" lon="6.3619">
        <ele>1338</ele>
        <time>2015-07-05T17:27:40Z</time>
      </trkpt>
      <trkpt lat="46.22837" lon="6.36191">
        <ele>1338</ele>
        <time>2015-07-05T17:27:50Z</time>
      </trkpt>
      <trkpt lat="46.22835" lon="6.36189">
        <ele>1338</ele>
        <time>2015-07-05T17:28:23Z</time>
      </trkpt>
      <trkpt lat="46.22835" lon="6.3619">
        <ele>1338</ele>
        <time>2015-07-05T17:28:31Z</time>
      </trkpt>
      <trkpt lat="46.22857" lon="6.36183">
        <ele>1337</ele>
        <time>2015-07-05T17:28:39Z</time>
      </trkpt>
      <trkpt lat="46.22879" lon="6.36174">
        <ele>1336</ele>
        <time>2015-07-05T17:28:43Z</time>
      </trkpt>
      <trkpt lat="46.2291" lon="6.36175">
        <ele>1338</ele>
        <time>2015-07-05T17:28:47Z</time>
      </trkpt>
      <trkpt lat="46.2295" lon="6.36212">
        <ele>1323</ele>
        <time>2015-07-05T17:28:53Z</time>
      </trkpt>
      <trkpt lat="46.22978" lon="6.3623">
        <ele>1319</ele>
        <time>2015-07-05T17:28:57Z</time>
      </trkpt>
      <trkpt lat="46.23002" lon="6.36234">
        <ele>1313</ele>
        <time>2015-07-05T17:29:00Z</time>
      </trkpt>
      <trkpt lat="46.23041" lon="6.36213">
        <ele>1315</ele>
        <time>2015-07-05T17:29:05Z</time>
      </trkpt>
      <trkpt lat="46.23046" lon="6.36205">
        <ele>1316</ele>
        <time>2015-07-05T17:29:06Z</time>
      </trkpt>
      <trkpt lat="46.23093" lon="6.36188">
        <ele>1312</ele>
        <time>2015-07-05T17:29:13Z</time>
      </trkpt>
      <trkpt lat="46.2313" lon="6.36172">
        <ele>1311</ele>
        <time>2015-07-05T17:29:18Z</time>
      </trkpt>
      <trkpt lat="46.23135" lon="6.36173">
        <ele>1311</ele>
        <time>2015-07-05T17:29:19Z</time>
      </trkpt>
      <trkpt lat="46.23163" lon="6.36191">
        <ele>1310</ele>
        <time>2015-07-05T17:29:30Z</time>
      </trkpt>
      <trkpt lat="46.23157" lon="6.3619">
        <ele>1310</ele>
        <time>2015-07-05T17:29:43Z</time>
      </trkpt>
      <trkpt lat="46.232" lon="6.36197">
        <ele>1305</ele>
        <time>2015-07-05T17:29:53Z</time>
      </trkpt>
      <trkpt lat="46.23207" lon="6.36199">
        <ele>1304</ele>
        <time>2015-07-05T17:29:54Z</time>
      </trkpt>
      <trkpt lat="46.23238" lon="6.36206">
        <ele>1303</ele>
        <time>2015-07-05T17:29:58Z</time>
      </trkpt>
      <trkpt lat="46.23276" lon="6.36215">
        <ele>1297</ele>
        <time>2015-07-05T17:30:02Z</time>
      </trkpt>
      <trkpt lat="46.23285" lon="6.36217">
        <ele>1296</ele>
        <time>2015-07-05T17:30:03Z</time>
      </trkpt>
      <trkpt lat="46.23303" lon="6.36217">
        <ele>1295</ele>
        <time>2015-07-05T17:30:05Z</time>
      </trkpt>
      <trkpt lat="46.2335" lon="6.36181">
        <ele>1291</ele>
        <time>2015-07-05T17:30:10Z</time>
      </trkpt>
      <trkpt lat="46.23411" lon="6.36158">
        <ele>1290</ele>
        <time>2015-07-05T17:30:16Z</time>
      </trkpt>
      <trkpt lat="46.23445" lon="6.36147">
        <ele>1285</ele>
        <time>2015-07-05T17:30:19Z</time>
      </trkpt>
      <trkpt lat="46.23499" lon="6.36152">
        <ele>1277</ele>
        <time>2015-07-05T17:30:24Z</time>
      </trkpt>
      <trkpt lat="46.23533" lon="6.36156">
        <ele>1276</ele>
        <time>2015-07-05T17:30:28Z</time>
      </trkpt>
      <trkpt lat="46.23546" lon="6.3616">
        <ele>1276</ele>
        <time>2015-07-05T17:30:30Z</time>
      </trkpt>
      <trkpt lat="46.23562" lon="6.36199">
        <ele>1268</ele>
        <time>2015-07-05T17:30:35Z</time>
      </trkpt>
      <trkpt lat="46.23544" lon="6.36212">
        <ele>1267</ele>
        <time>2015-07-05T17:30:37Z</time>
      </trkpt>
      <trkpt lat="46.23506" lon="6.36227">
        <ele>1266</ele>
        <time>2015-07-05T17:30:45Z</time>
      </trkpt>
      <trkpt lat="46.23506" lon="6.36228">
        <ele>1266</ele>
        <time>2015-07-05T17:31:17Z</time>
      </trkpt>
      <trkpt lat="46.23472" lon="6.36243">
        <ele>1270</ele>
        <time>2015-07-05T17:31:27Z</time>
      </trkpt>
      <trkpt lat="46.23427" lon="6.36282">
        <ele>1265</ele>
        <time>2015-07-05T17:31:35Z</time>
      </trkpt>
      <trkpt lat="46.23386" lon="6.36329">
        <ele>1266</ele>
        <time>2015-07-05T17:31:41Z</time>
      </trkpt>
      <trkpt lat="46.23379" lon="6.36339">
        <ele>1253</ele>
        <time>2015-07-05T17:31:42Z</time>
      </trkpt>
      <trkpt lat="46.23335" lon="6.36369">
        <ele>1249</ele>
        <time>2015-07-05T17:31:47Z</time>
      </trkpt>
      <trkpt lat="46.23281" lon="6.36366">
        <ele>1248</ele>
        <time>2015-07-05T17:31:52Z</time>
      </trkpt>
      <trkpt lat="46.23248" lon="6.36376">
        <ele>1248</ele>
        <time>2015-07-05T17:31:55Z</time>
      </trkpt>
      <trkpt lat="46.23207" lon="6.36405">
        <ele>1245</ele>
        <time>2015-07-05T17:31:59Z</time>
      </trkpt>
      <trkpt lat="46.23189" lon="6.36423">
        <ele>1232</ele>
        <time>2015-07-05T17:32:01Z</time>
      </trkpt>
      <trkpt lat="46.2318" lon="6.36432">
        <ele>1232</ele>
        <time>2015-07-05T17:32:02Z</time>
      </trkpt>
      <trkpt lat="46.23153" lon="6.36483">
        <ele>1231</ele>
        <time>2015-07-05T17:32:06Z</time>
      </trkpt>
      <trkpt lat="46.23139" lon="6.36504">
        <ele>1223</ele>
        <time>2015-07-05T17:32:08Z</time>
      </trkpt>
      <trkpt lat="46.23116" lon="6.36528">
        <ele>1224</ele>
        <time>2015-07-05T17:32:11Z</time>
      </trkpt>
      <trkpt lat="46.23085" lon="6.3658">
        <ele>1225</ele>
        <time>2015-07-05T17:32:16Z</time>
      </trkpt>
      <trkpt lat="46.23055" lon="6.36612">
        <ele>1221</ele>
        <time>2015-07-05T17:32:20Z</time>
      </trkpt>
      <trkpt lat="46.23026" lon="6.36648">
        <ele>1218</ele>
        <time>2015-07-05T17:32:25Z</time>
      </trkpt>
      <trkpt lat="46.2304" lon="6.36692">
        <ele>1209</ele>
        <time>2015-07-05T17:32:31Z</time>
      </trkpt>
      <trkpt lat="46.23055" lon="6.36697">
        <ele>1209</ele>
        <time>2015-07-05T17:32:34Z</time>
      </trkpt>
      <trkpt lat="46.23117" lon="6.36629">
        <ele>1207</ele>
        <time>2015-07-05T17:32:40Z</time>
      </trkpt>
      <trkpt lat="46.23127" lon="6.36617">
        <ele>1206</ele>
        <time>2015-07-05T17:32:41Z</time>
      </trkpt>
      <trkpt lat="46.2317" lon="6.36582">
        <ele>1201</ele>
        <time>2015-07-05T17:32:45Z</time>
      </trkpt>
      <trkpt lat="46.2319" lon="6.36566">
        <ele>1203</ele>
        <time>2015-07-05T17:32:47Z</time>
      </trkpt>
      <trkpt lat="46.23237" lon="6.36556">
        <ele>1200</ele>
        <time>2015-07-05T17:32:52Z</time>
      </trkpt>
      <trkpt lat="46.23257" lon="6.3656">
        <ele>1195</ele>
        <time>2015-07-05T17:32:54Z</time>
      </trkpt>
      <trkpt lat="46.2331" lon="6.36595">
        <ele>1183</ele>
        <time>2015-07-05T17:32:59Z</time>
      </trkpt>
      <trkpt lat="46.23343" lon="6.3662">
        <ele>1183</ele>
        <time>2015-07-05T17:33:02Z</time>
      </trkpt>
      <trkpt lat="46.23353" lon="6.36628">
        <ele>1183</ele>
        <time>2015-07-05T17:33:03Z</time>
      </trkpt>
      <trkpt lat="46.23373" lon="6.36645">
        <ele>1182</ele>
        <time>2015-07-05T17:33:05Z</time>
      </trkpt>
      <trkpt lat="46.23404" lon="6.36669">
        <ele>1177</ele>
        <time>2015-07-05T17:33:08Z</time>
      </trkpt>
      <trkpt lat="46.23443" lon="6.36701">
        <ele>1176</ele>
        <time>2015-07-05T17:33:12Z</time>
      </trkpt>
      <trkpt lat="46.2346" lon="6.36714">
        <ele>1176</ele>
        <time>2015-07-05T17:33:14Z</time>
      </trkpt>
      <trkpt lat="46.23487" lon="6.36755">
        <ele>1168</ele>
        <time>2015-07-05T17:33:18Z</time>
      </trkpt>
      <trkpt lat="46.23505" lon="6.36825">
        <ele>1163</ele>
        <time>2015-07-05T17:33:23Z</time>
      </trkpt>
      <trkpt lat="46.2351" lon="6.36848">
        <ele>1158</ele>
        <time>2015-07-05T17:33:25Z</time>
      </trkpt>
      <trkpt lat="46.23541" lon="6.36893">
        <ele>1154</ele>
        <time>2015-07-05T17:33:31Z</time>
      </trkpt>
      <trkpt lat="46.23561" lon="6.36905">
        <ele>1153</ele>
        <time>2015-07-05T17:33:33Z</time>
      </trkpt>
      <trkpt lat="46.23601" lon="6.3694">
        <ele>1146</ele>
        <time>2015-07-05T17:33:37Z</time>
      </trkpt>
      <trkpt lat="46.23633" lon="6.36968">
        <ele>1145</ele>
        <time>2015-07-05T17:33:40Z</time>
      </trkpt>
      <trkpt lat="46.23674" lon="6.37008">
        <ele>1139</ele>
        <time>2015-07-05T17:33:44Z</time>
      </trkpt>
      <trkpt lat="46.23682" lon="6.37016">
        <ele>1138</ele>
        <time>2015-07-05T17:33:45Z</time>
      </trkpt>
      <trkpt lat="46.23713" lon="6.37038">
        <ele>1136</ele>
        <time>2015-07-05T17:33:49Z</time>
      </trkpt>
      <trkpt lat="46.23734" lon="6.37068">
        <ele>1134</ele>
        <time>2015-07-05T17:33:53Z</time>
      </trkpt>
      <trkpt lat="46.23736" lon="6.3708">
        <ele>1134</ele>
        <time>2015-07-05T17:33:54Z</time>
      </trkpt>
      <trkpt lat="46.23732" lon="6.37106">
        <ele>1129</ele>
        <time>2015-07-05T17:33:56Z</time>
      </trkpt>
      <trkpt lat="46.23719" lon="6.37164">
        <ele>1126</ele>
        <time>2015-07-05T17:34:00Z</time>
      </trkpt>
      <trkpt lat="46.23703" lon="6.37222">
        <ele>1121</ele>
        <time>2015-07-05T17:34:04Z</time>
      </trkpt>
      <trkpt lat="46.23683" lon="6.37274">
        <ele>1117</ele>
        <time>2015-07-05T17:34:08Z</time>
      </trkpt>
      <trkpt lat="46.23679" lon="6.3731">
        <ele>1115</ele>
        <time>2015-07-05T17:34:11Z</time>
      </trkpt>
      <trkpt lat="46.23685" lon="6.37334">
        <ele>1109</ele>
        <time>2015-07-05T17:34:13Z</time>
      </trkpt>
      <trkpt lat="46.23706" lon="6.37411">
        <ele>1109</ele>
        <time>2015-07-05T17:34:19Z</time>
      </trkpt>
      <trkpt lat="46.23718" lon="6.37469">
        <ele>1103</ele>
        <time>2015-07-05T17:34:23Z</time>
      </trkpt>
      <trkpt lat="46.23729" lon="6.37529">
        <ele>1098</ele>
        <time>2015-07-05T17:34:27Z</time>
      </trkpt>
      <trkpt lat="46.23737" lon="6.37577">
        <ele>1098</ele>
        <time>2015-07-05T17:34:30Z</time>
      </trkpt>
      <trkpt lat="46.23746" lon="6.37607">
        <ele>1088</ele>
        <time>2015-07-05T17:34:32Z</time>
      </trkpt>
      <trkpt lat="46.23777" lon="6.37664">
        <ele>1091</ele>
        <time>2015-07-05T17:34:36Z</time>
      </trkpt>
      <trkpt lat="46.23794" lon="6.37714">
        <ele>1083</ele>
        <time>2015-07-05T17:34:39Z</time>
      </trkpt>
      <trkpt lat="46.23814" lon="6.37785">
        <ele>1079</ele>
        <time>2015-07-05T17:34:43Z</time>
      </trkpt>
      <trkpt lat="46.2383" lon="6.37827">
        <ele>1080</ele>
        <time>2015-07-05T17:34:46Z</time>
      </trkpt>
      <trkpt lat="46.23835" lon="6.3784">
        <ele>1080</ele>
        <time>2015-07-05T17:34:47Z</time>
      </trkpt>
      <trkpt lat="46.23875" lon="6.3789">
        <ele>1076</ele>
        <time>2015-07-05T17:34:52Z</time>
      </trkpt>
      <trkpt lat="46.23898" lon="6.37902">
        <ele>1075</ele>
        <time>2015-07-05T17:34:54Z</time>
      </trkpt>
      <trkpt lat="46.23922" lon="6.37912">
        <ele>1073</ele>
        <time>2015-07-05T17:34:56Z</time>
      </trkpt>
      <trkpt lat="46.23967" lon="6.37946">
        <ele>1067</ele>
        <time>2015-07-05T17:35:00Z</time>
      </trkpt>
      <trkpt lat="46.24003" lon="6.37972">
        <ele>1065</ele>
        <time>2015-07-05T17:35:03Z</time>
      </trkpt>
      <trkpt lat="46.24026" lon="6.37992">
        <ele>1064</ele>
        <time>2015-07-05T17:35:05Z</time>
      </trkpt>
      <trkpt lat="46.24062" lon="6.38023">
        <ele>1056</ele>
        <time>2015-07-05T17:35:08Z</time>
      </trkpt>
      <trkpt lat="46.2409" lon="6.38062">
        <ele>1057</ele>
        <time>2015-07-05T17:35:11Z</time>
      </trkpt>
      <trkpt lat="46.24103" lon="6.38087">
        <ele>1053</ele>
        <time>2015-07-05T17:35:13Z</time>
      </trkpt>
      <trkpt lat="46.24139" lon="6.3814">
        <ele>1053</ele>
        <time>2015-07-05T17:35:19Z</time>
      </trkpt>
      <trkpt lat="46.24184" lon="6.38154">
        <ele>1048</ele>
        <time>2015-07-05T17:35:24Z</time>
      </trkpt>
      <trkpt lat="46.24212" lon="6.38155">
        <ele>1046</ele>
        <time>2015-07-05T17:35:27Z</time>
      </trkpt>
      <trkpt lat="46.24244" lon="6.38185">
        <ele>1042</ele>
        <time>2015-07-05T17:35:33Z</time>
      </trkpt>
      <trkpt lat="46.24235" lon="6.38196">
        <ele>1042</ele>
        <time>2015-07-05T17:35:34Z</time>
      </trkpt>
      <trkpt lat="46.24226" lon="6.38247">
        <ele>1041</ele>
        <time>2015-07-05T17:35:40Z</time>
      </trkpt>
      <trkpt lat="46.24231" lon="6.38254">
        <ele>1041</ele>
        <time>2015-07-05T17:35:41Z</time>
      </trkpt>
      <trkpt lat="46.24257" lon="6.38285">
        <ele>1031</ele>
        <time>2015-07-05T17:35:45Z</time>
      </trkpt>
      <trkpt lat="46.24287" lon="6.38322">
        <ele>1028</ele>
        <time>2015-07-05T17:35:49Z</time>
      </trkpt>
      <trkpt lat="46.24303" lon="6.38344">
        <ele>1023</ele>
        <time>2015-07-05T17:35:51Z</time>
      </trkpt>
      <trkpt lat="46.24322" lon="6.38399">
        <ele>1019</ele>
        <time>2015-07-05T17:35:55Z</time>
      </trkpt>
      <trkpt lat="46.24338" lon="6.38428">
        <ele>1010</ele>
        <time>2015-07-05T17:35:59Z</time>
      </trkpt>
      <trkpt lat="46.2435" lon="6.38433">
        <ele>1009</ele>
        <time>2015-07-05T17:36:01Z</time>
      </trkpt>
      <trkpt lat="46.24387" lon="6.38415">
        <ele>1007</ele>
        <time>2015-07-05T17:36:07Z</time>
      </trkpt>
      <trkpt lat="46.24389" lon="6.38412">
        <ele>1007</ele>
        <time>2015-07-05T17:36:08Z</time>
      </trkpt>
      <trkpt lat="46.24396" lon="6.38364">
        <ele>1007</ele>
        <time>2015-07-05T17:36:13Z</time>
      </trkpt>
      <trkpt lat="46.24399" lon="6.38357">
        <ele>1006</ele>
        <time>2015-07-05T17:36:16Z</time>
      </trkpt>
      <trkpt lat="46.24418" lon="6.38361">
        <ele>1000</ele>
        <time>2015-07-05T17:36:21Z</time>
      </trkpt>
      <trkpt lat="46.24445" lon="6.38397">
        <ele>1000</ele>
        <time>2015-07-05T17:36:25Z</time>
      </trkpt>
      <trkpt lat="46.2447" lon="6.38446">
        <ele>999</ele>
        <time>2015-07-05T17:36:29Z</time>
      </trkpt>
      <trkpt lat="46.24505" lon="6.38568">
        <ele>992</ele>
        <time>2015-07-05T17:36:40Z</time>
      </trkpt>
      <trkpt lat="46.24511" lon="6.38582">
        <ele>992</ele>
        <time>2015-07-05T17:36:43Z</time>
      </trkpt>
      <trkpt lat="46.24516" lon="6.38593">
        <ele>991</ele>
        <time>2015-07-05T17:36:54Z</time>
      </trkpt>
      <trkpt lat="46.24517" lon="6.38597">
        <ele>991</ele>
        <time>2015-07-05T17:37:29Z</time>
      </trkpt>
      <trkpt lat="46.24519" lon="6.38598">
        <ele>991</ele>
        <time>2015-07-05T17:37:33Z</time>
      </trkpt>
      <trkpt lat="46.24534" lon="6.38619">
        <ele>990</ele>
        <time>2015-07-05T17:37:40Z</time>
      </trkpt>
      <trkpt lat="46.2455" lon="6.38643">
        <ele>989</ele>
        <time>2015-07-05T17:37:44Z</time>
      </trkpt>
      <trkpt lat="46.246" lon="6.38712">
        <ele>982</ele>
        <time>2015-07-05T17:37:55Z</time>
      </trkpt>
      <trkpt lat="46.24623" lon="6.38769">
        <ele>982</ele>
        <time>2015-07-05T17:38:03Z</time>
      </trkpt>
      <trkpt lat="46.24634" lon="6.38815">
        <ele>984</ele>
        <time>2015-07-05T17:38:10Z</time>
      </trkpt>
      <trkpt lat="46.24658" lon="6.38848">
        <ele>989</ele>
        <time>2015-07-05T17:38:17Z</time>
      </trkpt>
      <trkpt lat="46.24726" lon="6.38908">
        <ele>990</ele>
        <time>2015-07-05T17:38:32Z</time>
      </trkpt>
      <trkpt lat="46.24743" lon="6.38926">
        <ele>989</ele>
        <time>2015-07-05T17:38:36Z</time>
      </trkpt>
      <trkpt lat="46.24758" lon="6.38948">
        <ele>982</ele>
        <time>2015-07-05T17:38:44Z</time>
      </trkpt>
      <trkpt lat="46.2476" lon="6.38946">
        <ele>982</ele>
        <time>2015-07-05T17:38:59Z</time>
      </trkpt>
      <trkpt lat="46.24759" lon="6.38973">
        <ele>982</ele>
        <time>2015-07-05T17:39:04Z</time>
      </trkpt>
      <trkpt lat="46.24767" lon="6.39015">
        <ele>982</ele>
        <time>2015-07-05T17:39:09Z</time>
      </trkpt>
      <trkpt lat="46.24815" lon="6.39088">
        <ele>977</ele>
        <time>2015-07-05T17:39:19Z</time>
      </trkpt>
      <trkpt lat="46.24831" lon="6.3912">
        <ele>976</ele>
        <time>2015-07-05T17:39:23Z</time>
      </trkpt>
      <trkpt lat="46.24832" lon="6.39185">
        <ele>976</ele>
        <time>2015-07-05T17:39:30Z</time>
      </trkpt>
      <trkpt lat="46.24808" lon="6.39247">
        <ele>974</ele>
        <time>2015-07-05T17:39:37Z</time>
      </trkpt>
      <trkpt lat="46.2481" lon="6.3929">
        <ele>967</ele>
        <time>2015-07-05T17:39:41Z</time>
      </trkpt>
      <trkpt lat="46.24828" lon="6.3934">
        <ele>965</ele>
        <time>2015-07-05T17:39:50Z</time>
      </trkpt>
      <trkpt lat="46.2483" lon="6.39338">
        <ele>966</ele>
        <time>2015-07-05T17:40:16Z</time>
      </trkpt>
      <trkpt lat="46.24837" lon="6.39355">
        <ele>971</ele>
        <time>2015-07-05T17:40:34Z</time>
      </trkpt>
      <trkpt lat="46.24876" lon="6.39435">
        <ele>963</ele>
        <time>2015-07-05T17:40:44Z</time>
      </trkpt>
      <trkpt lat="46.24879" lon="6.39445">
        <ele>963</ele>
        <time>2015-07-05T17:40:45Z</time>
      </trkpt>
      <trkpt lat="46.24899" lon="6.3953">
        <ele>958</ele>
        <time>2015-07-05T17:40:52Z</time>
      </trkpt>
      <trkpt lat="46.24903" lon="6.39555">
        <ele>958</ele>
        <time>2015-07-05T17:40:54Z</time>
      </trkpt>
      <trkpt lat="46.2488" lon="6.39623">
        <ele>955</ele>
        <time>2015-07-05T17:41:00Z</time>
      </trkpt>
      <trkpt lat="46.24859" lon="6.39641">
        <ele>953</ele>
        <time>2015-07-05T17:41:07Z</time>
      </trkpt>
      <trkpt lat="46.24859" lon="6.3964">
        <ele>953</ele>
        <time>2015-07-05T17:41:30Z</time>
      </trkpt>
      <trkpt lat="46.24857" lon="6.39643">
        <ele>953</ele>
        <time>2015-07-05T17:41:31Z</time>
      </trkpt>
      <trkpt lat="46.24818" lon="6.39696">
        <ele>948</ele>
        <time>2015-07-05T17:41:40Z</time>
      </trkpt>
      <trkpt lat="46.24789" lon="6.39736">
        <ele>947</ele>
        <time>2015-07-05T17:41:45Z</time>
      </trkpt>
      <trkpt lat="46.24779" lon="6.3975">
        <ele>947</ele>
        <time>2015-07-05T17:41:47Z</time>
      </trkpt>
      <trkpt lat="46.24771" lon="6.39764">
        <ele>947</ele>
        <time>2015-07-05T17:41:49Z</time>
      </trkpt>
      <trkpt lat="46.24747" lon="6.39771">
        <ele>947</ele>
        <time>2015-07-05T17:41:54Z</time>
      </trkpt>
      <trkpt lat="46.24622" lon="6.39736">
        <ele>944</ele>
        <time>2015-07-05T17:42:12Z</time>
      </trkpt>
      <trkpt lat="46.24569" lon="6.39718">
        <ele>941</ele>
        <time>2015-07-05T17:42:19Z</time>
      </trkpt>
      <trkpt lat="46.24522" lon="6.39703">
        <ele>939</ele>
        <time>2015-07-05T17:42:25Z</time>
      </trkpt>
      <trkpt lat="46.24463" lon="6.39683">
        <ele>937</ele>
        <time>2015-07-05T17:42:32Z</time>
      </trkpt>
      <trkpt lat="46.24402" lon="6.39673">
        <ele>934</ele>
        <time>2015-07-05T17:42:39Z</time>
      </trkpt>
      <trkpt lat="46.24393" lon="6.39672">
        <ele>934</ele>
        <time>2015-07-05T17:42:40Z</time>
      </trkpt>
      <trkpt lat="46.24357" lon="6.39663">
        <ele>926</ele>
        <time>2015-07-05T17:42:44Z</time>
      </trkpt>
      <trkpt lat="46.2432" lon="6.39655">
        <ele>922</ele>
        <time>2015-07-05T17:42:48Z</time>
      </trkpt>
      <trkpt lat="46.24311" lon="6.39654">
        <ele>920</ele>
        <time>2015-07-05T17:42:49Z</time>
      </trkpt>
      <trkpt lat="46.24284" lon="6.39659">
        <ele>917</ele>
        <time>2015-07-05T17:42:52Z</time>
      </trkpt>
      <trkpt lat="46.24254" lon="6.39689">
        <ele>923</ele>
        <time>2015-07-05T17:42:56Z</time>
      </trkpt>
      <trkpt lat="46.24208" lon="6.39692">
        <ele>921</ele>
        <time>2015-07-05T17:43:01Z</time>
      </trkpt>
      <trkpt lat="46.24146" lon="6.39656">
        <ele>911</ele>
        <time>2015-07-05T17:43:08Z</time>
      </trkpt>
      <trkpt lat="46.2409" lon="6.39637">
        <ele>910</ele>
        <time>2015-07-05T17:43:14Z</time>
      </trkpt>
      <trkpt lat="46.24022" lon="6.39617">
        <ele>910</ele>
        <time>2015-07-05T17:43:21Z</time>
      </trkpt>
      <trkpt lat="46.23984" lon="6.39605">
        <ele>914</ele>
        <time>2015-07-05T17:43:25Z</time>
      </trkpt>
      <trkpt lat="46.23948" lon="6.3956">
        <ele>905</ele>
        <time>2015-07-05T17:43:30Z</time>
      </trkpt>
      <trkpt lat="46.23945" lon="6.39546">
        <ele>904</ele>
        <time>2015-07-05T17:43:31Z</time>
      </trkpt>
      <trkpt lat="46.23904" lon="6.39473">
        <ele>897</ele>
        <time>2015-07-05T17:43:38Z</time>
      </trkpt>
      <trkpt lat="46.23862" lon="6.39442">
        <ele>895</ele>
        <time>2015-07-05T17:43:43Z</time>
      </trkpt>
      <trkpt lat="46.23819" lon="6.39433">
        <ele>893</ele>
        <time>2015-07-05T17:43:48Z</time>
      </trkpt>
      <trkpt lat="46.23755" lon="6.39454">
        <ele>891</ele>
        <time>2015-07-05T17:43:55Z</time>
      </trkpt>
      <trkpt lat="46.23692" lon="6.39473">
        <ele>886</ele>
        <time>2015-07-05T17:44:02Z</time>
      </trkpt>
      <trkpt lat="46.23656" lon="6.39482">
        <ele>884</ele>
        <time>2015-07-05T17:44:06Z</time>
      </trkpt>
      <trkpt lat="46.23646" lon="6.39482">
        <ele>884</ele>
        <time>2015-07-05T17:44:07Z</time>
      </trkpt>
      <trkpt lat="46.23584" lon="6.39462">
        <ele>882</ele>
        <time>2015-07-05T17:44:14Z</time>
      </trkpt>
      <trkpt lat="46.23576" lon="6.39458">
        <ele>879</ele>
        <time>2015-07-05T17:44:15Z</time>
      </trkpt>
      <trkpt lat="46.23567" lon="6.39456">
        <ele>879</ele>
        <time>2015-07-05T17:44:16Z</time>
      </trkpt>
      <trkpt lat="46.2352" lon="6.39481">
        <ele>878</ele>
        <time>2015-07-05T17:44:22Z</time>
      </trkpt>
      <trkpt lat="46.23508" lon="6.39504">
        <ele>881</ele>
        <time>2015-07-05T17:44:24Z</time>
      </trkpt>
      <trkpt lat="46.23473" lon="6.39526">
        <ele>877</ele>
        <time>2015-07-05T17:44:28Z</time>
      </trkpt>
      <trkpt lat="46.23414" lon="6.39529">
        <ele>869</ele>
        <time>2015-07-05T17:44:34Z</time>
      </trkpt>
      <trkpt lat="46.23384" lon="6.39525">
        <ele>869</ele>
        <time>2015-07-05T17:44:37Z</time>
      </trkpt>
      <trkpt lat="46.23355" lon="6.39517">
        <ele>869</ele>
        <time>2015-07-05T17:44:40Z</time>
      </trkpt>
      <trkpt lat="46.23327" lon="6.39499">
        <ele>864</ele>
        <time>2015-07-05T17:44:43Z</time>
      </trkpt>
      <trkpt lat="46.23312" lon="6.3948">
        <ele>862</ele>
        <time>2015-07-05T17:44:45Z</time>
      </trkpt>
      <trkpt lat="46.23281" lon="6.39444">
        <ele>859</ele>
        <time>2015-07-05T17:44:49Z</time>
      </trkpt>
      <trkpt lat="46.23262" lon="6.39436">
        <ele>858</ele>
        <time>2015-07-05T17:44:51Z</time>
      </trkpt>
      <trkpt lat="46.23222" lon="6.39426">
        <ele>855</ele>
        <time>2015-07-05T17:44:55Z</time>
      </trkpt>
      <trkpt lat="46.23175" lon="6.39441">
        <ele>855</ele>
        <time>2015-07-05T17:45:00Z</time>
      </trkpt>
      <trkpt lat="46.23119" lon="6.39496">
        <ele>855</ele>
        <time>2015-07-05T17:45:07Z</time>
      </trkpt>
      <trkpt lat="46.23095" lon="6.3952">
        <ele>863</ele>
        <time>2015-07-05T17:45:10Z</time>
      </trkpt>
      <trkpt lat="46.23077" lon="6.39528">
        <ele>862</ele>
        <time>2015-07-05T17:45:12Z</time>
      </trkpt>
      <trkpt lat="46.23057" lon="6.39522">
        <ele>862</ele>
        <time>2015-07-05T17:45:14Z</time>
      </trkpt>
      <trkpt lat="46.23012" lon="6.39498">
        <ele>855</ele>
        <time>2015-07-05T17:45:19Z</time>
      </trkpt>
      <trkpt lat="46.22964" lon="6.39494">
        <ele>853</ele>
        <time>2015-07-05T17:45:24Z</time>
      </trkpt>
      <trkpt lat="46.22954" lon="6.39492">
        <ele>853</ele>
        <time>2015-07-05T17:45:25Z</time>
      </trkpt>
      <trkpt lat="46.22892" lon="6.39462">
        <ele>848</ele>
        <time>2015-07-05T17:45:32Z</time>
      </trkpt>
      <trkpt lat="46.22883" lon="6.39458">
        <ele>847</ele>
        <time>2015-07-05T17:45:33Z</time>
      </trkpt>
      <trkpt lat="46.22817" lon="6.39447">
        <ele>841</ele>
        <time>2015-07-05T17:45:40Z</time>
      </trkpt>
      <trkpt lat="46.22683" lon="6.39449">
        <ele>830</ele>
        <time>2015-07-05T17:45:54Z</time>
      </trkpt>
      <trkpt lat="46.22637" lon="6.3945">
        <ele>825</ele>
        <time>2015-07-05T17:45:59Z</time>
      </trkpt>
      <trkpt lat="46.22619" lon="6.39456">
        <ele>825</ele>
        <time>2015-07-05T17:46:01Z</time>
      </trkpt>
      <trkpt lat="46.22611" lon="6.39462">
        <ele>826</ele>
        <time>2015-07-05T17:46:02Z</time>
      </trkpt>
      <trkpt lat="46.22603" lon="6.3947">
        <ele>827</ele>
        <time>2015-07-05T17:46:03Z</time>
      </trkpt>
      <trkpt lat="46.22589" lon="6.39488">
        <ele>830</ele>
        <time>2015-07-05T17:46:05Z</time>
      </trkpt>
      <trkpt lat="46.22572" lon="6.39499">
        <ele>828</ele>
        <time>2015-07-05T17:46:07Z</time>
      </trkpt>
      <trkpt lat="46.22521" lon="6.39496">
        <ele>821</ele>
        <time>2015-07-05T17:46:12Z</time>
      </trkpt>
      <trkpt lat="46.22501" lon="6.39499">
        <ele>821</ele>
        <time>2015-07-05T17:46:14Z</time>
      </trkpt>
      <trkpt lat="46.22463" lon="6.3951">
        <ele>819</ele>
        <time>2015-07-05T17:46:18Z</time>
      </trkpt>
      <trkpt lat="46.22454" lon="6.39513">
        <ele>819</ele>
        <time>2015-07-05T17:46:19Z</time>
      </trkpt>
      <trkpt lat="46.22342" lon="6.39546">
        <ele>812</ele>
        <time>2015-07-05T17:46:30Z</time>
      </trkpt>
      <trkpt lat="46.22285" lon="6.39543">
        <ele>809</ele>
        <time>2015-07-05T17:46:35Z</time>
      </trkpt>
      <trkpt lat="46.22274" lon="6.39542">
        <ele>809</ele>
        <time>2015-07-05T17:46:36Z</time>
      </trkpt>
      <trkpt lat="46.22219" lon="6.39535">
        <ele>804</ele>
        <time>2015-07-05T17:46:41Z</time>
      </trkpt>
      <trkpt lat="46.22186" lon="6.39532">
        <ele>802</ele>
        <time>2015-07-05T17:46:44Z</time>
      </trkpt>
      <trkpt lat="46.22153" lon="6.39529">
        <ele>797</ele>
        <time>2015-07-05T17:46:47Z</time>
      </trkpt>
      <trkpt lat="46.22122" lon="6.39534">
        <ele>797</ele>
        <time>2015-07-05T17:46:50Z</time>
      </trkpt>
      <trkpt lat="46.22071" lon="6.39556">
        <ele>798</ele>
        <time>2015-07-05T17:46:55Z</time>
      </trkpt>
      <trkpt lat="46.2202" lon="6.39543">
        <ele>797</ele>
        <time>2015-07-05T17:47:00Z</time>
      </trkpt>
      <trkpt lat="46.22" lon="6.39548">
        <ele>797</ele>
        <time>2015-07-05T17:47:02Z</time>
      </trkpt>
      <trkpt lat="46.21991" lon="6.39554">
        <ele>793</ele>
        <time>2015-07-05T17:47:03Z</time>
      </trkpt>
      <trkpt lat="46.21944" lon="6.39586">
        <ele>798</ele>
        <time>2015-07-05T17:47:08Z</time>
      </trkpt>
      <trkpt lat="46.21935" lon="6.39593">
        <ele>797</ele>
        <time>2015-07-05T17:47:09Z</time>
      </trkpt>
      <trkpt lat="46.21915" lon="6.39606">
        <ele>790</ele>
        <time>2015-07-05T17:47:11Z</time>
      </trkpt>
      <trkpt lat="46.21857" lon="6.39642">
        <ele>789</ele>
        <time>2015-07-05T17:47:17Z</time>
      </trkpt>
      <trkpt lat="46.21828" lon="6.39659">
        <ele>784</ele>
        <time>2015-07-05T17:47:20Z</time>
      </trkpt>
      <trkpt lat="46.21774" lon="6.39705">
        <ele>786</ele>
        <time>2015-07-05T17:47:26Z</time>
      </trkpt>
      <trkpt lat="46.21757" lon="6.39722">
        <ele>787</ele>
        <time>2015-07-05T17:47:28Z</time>
      </trkpt>
      <trkpt lat="46.21706" lon="6.39772">
        <ele>783</ele>
        <time>2015-07-05T17:47:34Z</time>
      </trkpt>
      <trkpt lat="46.21635" lon="6.39793">
        <ele>769</ele>
        <time>2015-07-05T17:47:41Z</time>
      </trkpt>
      <trkpt lat="46.21624" lon="6.39795">
        <ele>768</ele>
        <time>2015-07-05T17:47:42Z</time>
      </trkpt>
      <trkpt lat="46.21554" lon="6.39803">
        <ele>761</ele>
        <time>2015-07-05T17:47:49Z</time>
      </trkpt>
      <trkpt lat="46.21525" lon="6.398">
        <ele>760</ele>
        <time>2015-07-05T17:47:52Z</time>
      </trkpt>
      <trkpt lat="46.2145" lon="6.39776">
        <ele>757</ele>
        <time>2015-07-05T17:48:00Z</time>
      </trkpt>
      <trkpt lat="46.21442" lon="6.39772">
        <ele>757</ele>
        <time>2015-07-05T17:48:01Z</time>
      </trkpt>
      <trkpt lat="46.21415" lon="6.3976">
        <ele>755</ele>
        <time>2015-07-05T17:48:05Z</time>
      </trkpt>
      <trkpt lat="46.21404" lon="6.39754">
        <ele>755</ele>
        <time>2015-07-05T17:48:11Z</time>
      </trkpt>
      <trkpt lat="46.21404" lon="6.39754">
        <ele>755</ele>
        <time>2015-07-05T17:48:12Z</time>
      </trkpt>
      <trkpt lat="46.21405" lon="6.39753">
        <ele>755</ele>
        <time>2015-07-05T17:48:27Z</time>
      </trkpt>
      <trkpt lat="46.21385" lon="6.3975">
        <ele>752</ele>
        <time>2015-07-05T17:48:35Z</time>
      </trkpt>
      <trkpt lat="46.21361" lon="6.39753">
        <ele>755</ele>
        <time>2015-07-05T17:48:40Z</time>
      </trkpt>
      <trkpt lat="46.21334" lon="6.3977">
        <ele>754</ele>
        <time>2015-07-05T17:48:45Z</time>
      </trkpt>
      <trkpt lat="46.21308" lon="6.39806">
        <ele>751</ele>
        <time>2015-07-05T17:48:50Z</time>
      </trkpt>
      <trkpt lat="46.21267" lon="6.39874">
        <ele>748</ele>
        <time>2015-07-05T17:48:57Z</time>
      </trkpt>
      <trkpt lat="46.21212" lon="6.39953">
        <ele>742</ele>
        <time>2015-07-05T17:49:04Z</time>
      </trkpt>
      <trkpt lat="46.21176" lon="6.4">
        <ele>742</ele>
        <time>2015-07-05T17:49:08Z</time>
      </trkpt>
      <trkpt lat="46.21084" lon="6.4014">
        <ele>739</ele>
        <time>2015-07-05T17:49:21Z</time>
      </trkpt>
      <trkpt lat="46.21008" lon="6.40245">
        <ele>741</ele>
        <time>2015-07-05T17:49:35Z</time>
      </trkpt>
      <trkpt lat="46.20999" lon="6.40258">
        <ele>741</ele>
        <time>2015-07-05T17:49:37Z</time>
      </trkpt>
      <trkpt lat="46.20969" lon="6.40249">
        <ele>741</ele>
        <time>2015-07-05T17:49:43Z</time>
      </trkpt>
      <trkpt lat="46.20956" lon="6.40235">
        <ele>741</ele>
        <time>2015-07-05T17:49:46Z</time>
      </trkpt>
      <trkpt lat="46.20904" lon="6.40199">
        <ele>740</ele>
        <time>2015-07-05T17:49:56Z</time>
      </trkpt>
      <trkpt lat="46.20892" lon="6.40191">
        <ele>740</ele>
        <time>2015-07-05T17:49:58Z</time>
      </trkpt>
      <trkpt lat="46.20836" lon="6.4016">
        <ele>739</ele>
        <time>2015-07-05T17:50:07Z</time>
      </trkpt>
      <trkpt lat="46.20803" lon="6.40183">
        <ele>739</ele>
        <time>2015-07-05T17:50:13Z</time>
      </trkpt>
      <trkpt lat="46.20776" lon="6.40242">
        <ele>739</ele>
        <time>2015-07-05T17:50:21Z</time>
      </trkpt>
      <trkpt lat="46.20755" lon="6.40239">
        <ele>739</ele>
        <time>2015-07-05T17:50:26Z</time>
      </trkpt>
      <trkpt lat="46.20705" lon="6.40117">
        <ele>739</ele>
        <time>2015-07-05T17:50:42Z</time>
      </trkpt>
      <trkpt lat="46.20679" lon="6.40052">
        <ele>738</ele>
        <time>2015-07-05T17:50:50Z</time>
      </trkpt>
      <trkpt lat="46.20659" lon="6.39997">
        <ele>736</ele>
        <time>2015-07-05T17:50:57Z</time>
      </trkpt>
      <trkpt lat="46.20643" lon="6.39962">
        <ele>734</ele>
        <time>2015-07-05T17:51:02Z</time>
      </trkpt>
      <trkpt lat="46.20589" lon="6.39883">
        <ele>732</ele>
        <time>2015-07-05T17:51:13Z</time>
      </trkpt>
      <trkpt lat="46.20518" lon="6.39782">
        <ele>728</ele>
        <time>2015-07-05T17:51:26Z</time>
      </trkpt>
      <trkpt lat="46.20512" lon="6.39775">
        <ele>728</ele>
        <time>2015-07-05T17:51:27Z</time>
      </trkpt>
      <trkpt lat="46.20502" lon="6.39762">
        <ele>728</ele>
        <time>2015-07-05T17:51:29Z</time>
      </trkpt>
      <trkpt lat="46.20486" lon="6.39742">
        <ele>728</ele>
        <time>2015-07-05T17:51:38Z</time>
      </trkpt>
      <trkpt lat="46.20486" lon="6.39742">
        <ele>728</ele>
        <time>2015-07-05T17:52:19Z</time>
      </trkpt>
      <trkpt lat="46.20485" lon="6.39742">
        <ele>728</ele>
        <time>2015-07-05T17:52:59Z</time>
      </trkpt>
      <trkpt lat="46.20484" lon="6.39742">
        <ele>728</ele>
        <time>2015-07-05T17:53:02Z</time>
      </trkpt>
      <trkpt lat="46.20474" lon="6.39736">
        <ele>728</ele>
        <time>2015-07-05T17:53:07Z</time>
      </trkpt>
      <trkpt lat="46.20406" lon="6.39702">
        <ele>731</ele>
        <time>2015-07-05T17:53:20Z</time>
      </trkpt>
      <trkpt lat="46.20311" lon="6.39631">
        <ele>737</ele>
        <time>2015-07-05T17:53:37Z</time>
      </trkpt>
      <trkpt lat="46.20214" lon="6.39545">
        <ele>735</ele>
        <time>2015-07-05T17:53:56Z</time>
      </trkpt>
      <trkpt lat="46.20112" lon="6.39459">
        <ele>733</ele>
        <time>2015-07-05T17:54:14Z</time>
      </trkpt>
      <trkpt lat="46.20009" lon="6.39341">
        <ele>729</ele>
        <time>2015-07-05T17:54:32Z</time>
      </trkpt>
      <trkpt lat="46.19942" lon="6.392">
        <ele>735</ele>
        <time>2015-07-05T17:54:50Z</time>
      </trkpt>
      <trkpt lat="46.19872" lon="6.39103">
        <ele>738</ele>
        <time>2015-07-05T17:55:07Z</time>
      </trkpt>
      <trkpt lat="46.19756" lon="6.39029">
        <ele>743</ele>
        <time>2015-07-05T17:55:28Z</time>
      </trkpt>
      <trkpt lat="46.19651" lon="6.38983">
        <ele>740</ele>
        <time>2015-07-05T17:55:45Z</time>
      </trkpt>
      <trkpt lat="46.19512" lon="6.3888">
        <ele>742</ele>
        <time>2015-07-05T17:56:08Z</time>
      </trkpt>
      <trkpt lat="46.1941" lon="6.38848">
        <ele>740</ele>
        <time>2015-07-05T17:56:23Z</time>
      </trkpt>
      <trkpt lat="46.19338" lon="6.38777">
        <ele>741</ele>
        <time>2015-07-05T17:56:36Z</time>
      </trkpt>
      <trkpt lat="46.1928" lon="6.38679">
        <ele>744</ele>
        <time>2015-07-05T17:56:48Z</time>
      </trkpt>
      <trkpt lat="46.19215" lon="6.38606">
        <ele>745</ele>
        <time>2015-07-05T17:57:01Z</time>
      </trkpt>
      <trkpt lat="46.1918" lon="6.38519">
        <ele>745</ele>
        <time>2015-07-05T17:57:13Z</time>
      </trkpt>
      <trkpt lat="46.19174" lon="6.38429">
        <ele>745</ele>
        <time>2015-07-05T17:57:22Z</time>
      </trkpt>
      <trkpt lat="46.19162" lon="6.38373">
        <ele>739</ele>
        <time>2015-07-05T17:57:27Z</time>
      </trkpt>
      <trkpt lat="46.19128" lon="6.38275">
        <ele>741</ele>
        <time>2015-07-05T17:57:36Z</time>
      </trkpt>
      <trkpt lat="46.19113" lon="6.38232">
        <ele>744</ele>
        <time>2015-07-05T17:57:40Z</time>
      </trkpt>
      <trkpt lat="46.19052" lon="6.38099">
        <ele>740</ele>
        <time>2015-07-05T17:57:53Z</time>
      </trkpt>
      <trkpt lat="46.19046" lon="6.3809">
        <ele>739</ele>
        <time>2015-07-05T17:57:54Z</time>
      </trkpt>
      <trkpt lat="46.19038" lon="6.38074">
        <ele>744</ele>
        <time>2015-07-05T17:57:56Z</time>
      </trkpt>
      <trkpt lat="46.19029" lon="6.38064">
        <ele>743</ele>
        <time>2015-07-05T17:58:01Z</time>
      </trkpt>
      <trkpt lat="46.19019" lon="6.38061">
        <ele>742</ele>
        <time>2015-07-05T17:58:03Z</time>
      </trkpt>
      <trkpt lat="46.18932" lon="6.37963">
        <ele>729</ele>
        <time>2015-07-05T17:58:18Z</time>
      </trkpt>
      <trkpt lat="46.18912" lon="6.37943">
        <ele>723</ele>
        <time>2015-07-05T17:58:21Z</time>
      </trkpt>
      <trkpt lat="46.18844" lon="6.37869">
        <ele>725</ele>
        <time>2015-07-05T17:58:31Z</time>
      </trkpt>
      <trkpt lat="46.18798" lon="6.37819">
        <ele>722</ele>
        <time>2015-07-05T17:58:37Z</time>
      </trkpt>
      <trkpt lat="46.18727" lon="6.37743">
        <ele>719</ele>
        <time>2015-07-05T17:58:46Z</time>
      </trkpt>
      <trkpt lat="46.18674" lon="6.37688">
        <ele>718</ele>
        <time>2015-07-05T17:58:53Z</time>
      </trkpt>
      <trkpt lat="46.18666" lon="6.3768">
        <ele>715</ele>
        <time>2015-07-05T17:58:54Z</time>
      </trkpt>
      <trkpt lat="46.18612" lon="6.37661">
        <ele>717</ele>
        <time>2015-07-05T17:59:00Z</time>
      </trkpt>
      <trkpt lat="46.18575" lon="6.37669">
        <ele>710</ele>
        <time>2015-07-05T17:59:04Z</time>
      </trkpt>
      <trkpt lat="46.18487" lon="6.37689">
        <ele>701</ele>
        <time>2015-07-05T17:59:14Z</time>
      </trkpt>
      <trkpt lat="46.18445" lon="6.37686">
        <ele>699</ele>
        <time>2015-07-05T17:59:19Z</time>
      </trkpt>
      <trkpt lat="46.18421" lon="6.37674">
        <ele>700</ele>
        <time>2015-07-05T17:59:22Z</time>
      </trkpt>
      <trkpt lat="46.1835" lon="6.37595">
        <ele>694</ele>
        <time>2015-07-05T17:59:32Z</time>
      </trkpt>
      <trkpt lat="46.18344" lon="6.37586">
        <ele>694</ele>
        <time>2015-07-05T17:59:33Z</time>
      </trkpt>
      <trkpt lat="46.18312" lon="6.37537">
        <ele>690</ele>
        <time>2015-07-05T17:59:38Z</time>
      </trkpt>
      <trkpt lat="46.18298" lon="6.3752">
        <ele>690</ele>
        <time>2015-07-05T17:59:40Z</time>
      </trkpt>
      <trkpt lat="46.18265" lon="6.37498">
        <ele>690</ele>
        <time>2015-07-05T17:59:44Z</time>
      </trkpt>
      <trkpt lat="46.1825" lon="6.37483">
        <ele>683</ele>
        <time>2015-07-05T17:59:46Z</time>
      </trkpt>
      <trkpt lat="46.18233" lon="6.37451">
        <ele>684</ele>
        <time>2015-07-05T17:59:49Z</time>
      </trkpt>
      <trkpt lat="46.18221" lon="6.37414">
        <ele>692</ele>
        <time>2015-07-05T17:59:52Z</time>
      </trkpt>
      <trkpt lat="46.18189" lon="6.37366">
        <ele>692</ele>
        <time>2015-07-05T17:59:57Z</time>
      </trkpt>
      <trkpt lat="46.18138" lon="6.37328">
        <ele>690</ele>
        <time>2015-07-05T18:00:03Z</time>
      </trkpt>
      <trkpt lat="46.18088" lon="6.37288">
        <ele>687</ele>
        <time>2015-07-05T18:00:09Z</time>
      </trkpt>
      <trkpt lat="46.18062" lon="6.37216">
        <ele>677</ele>
        <time>2015-07-05T18:00:15Z</time>
      </trkpt>
      <trkpt lat="46.1806" lon="6.37159">
        <ele>679</ele>
        <time>2015-07-05T18:00:19Z</time>
      </trkpt>
      <trkpt lat="46.18023" lon="6.3709">
        <ele>674</ele>
        <time>2015-07-05T18:00:25Z</time>
      </trkpt>
      <trkpt lat="46.17993" lon="6.37081">
        <ele>671</ele>
        <time>2015-07-05T18:00:28Z</time>
      </trkpt>
      <trkpt lat="46.17941" lon="6.37075">
        <ele>671</ele>
        <time>2015-07-05T18:00:34Z</time>
      </trkpt>
      <trkpt lat="46.17918" lon="6.37063">
        <ele>671</ele>
        <time>2015-07-05T18:00:37Z</time>
      </trkpt>
      <trkpt lat="46.17896" lon="6.37043">
        <ele>669</ele>
        <time>2015-07-05T18:00:40Z</time>
      </trkpt>
      <trkpt lat="46.1789" lon="6.37035">
        <ele>669</ele>
        <time>2015-07-05T18:00:41Z</time>
      </trkpt>
      <trkpt lat="46.17876" lon="6.37018">
        <ele>669</ele>
        <time>2015-07-05T18:00:43Z</time>
      </trkpt>
      <trkpt lat="46.17851" lon="6.36982">
        <ele>674</ele>
        <time>2015-07-05T18:00:47Z</time>
      </trkpt>
      <trkpt lat="46.17801" lon="6.36952">
        <ele>671</ele>
        <time>2015-07-05T18:00:53Z</time>
      </trkpt>
      <trkpt lat="46.17783" lon="6.3695">
        <ele>671</ele>
        <time>2015-07-05T18:00:55Z</time>
      </trkpt>
      <trkpt lat="46.17747" lon="6.36957">
        <ele>670</ele>
        <time>2015-07-05T18:00:59Z</time>
      </trkpt>
      <trkpt lat="46.17668" lon="6.37007">
        <ele>664</ele>
        <time>2015-07-05T18:01:08Z</time>
      </trkpt>
      <trkpt lat="46.17565" lon="6.37102">
        <ele>655</ele>
        <time>2015-07-05T18:01:21Z</time>
      </trkpt>
      <trkpt lat="46.17524" lon="6.37131">
        <ele>654</ele>
        <time>2015-07-05T18:01:26Z</time>
      </trkpt>
      <trkpt lat="46.17464" lon="6.37136">
        <ele>653</ele>
        <time>2015-07-05T18:01:33Z</time>
      </trkpt>
      <trkpt lat="46.17414" lon="6.37116">
        <ele>652</ele>
        <time>2015-07-05T18:01:39Z</time>
      </trkpt>
      <trkpt lat="46.17378" lon="6.37112">
        <ele>651</ele>
        <time>2015-07-05T18:01:43Z</time>
      </trkpt>
      <trkpt lat="46.17351" lon="6.37111">
        <ele>651</ele>
        <time>2015-07-05T18:01:46Z</time>
      </trkpt>
      <trkpt lat="46.17312" lon="6.3711">
        <ele>648</ele>
        <time>2015-07-05T18:01:50Z</time>
      </trkpt>
      <trkpt lat="46.17291" lon="6.37109">
        <ele>647</ele>
        <time>2015-07-05T18:01:52Z</time>
      </trkpt>
      <trkpt lat="46.17232" lon="6.37105">
        <ele>643</ele>
        <time>2015-07-05T18:01:58Z</time>
      </trkpt>
      <trkpt lat="46.17143" lon="6.3707">
        <ele>639</ele>
        <time>2015-07-05T18:02:07Z</time>
      </trkpt>
      <trkpt lat="46.17123" lon="6.37066">
        <ele>639</ele>
        <time>2015-07-05T18:02:09Z</time>
      </trkpt>
      <trkpt lat="46.17083" lon="6.37067">
        <ele>637</ele>
        <time>2015-07-05T18:02:13Z</time>
      </trkpt>
      <trkpt lat="46.17024" lon="6.37073">
        <ele>636</ele>
        <time>2015-07-05T18:02:19Z</time>
      </trkpt>
      <trkpt lat="46.16974" lon="6.37079">
        <ele>633</ele>
        <time>2015-07-05T18:02:24Z</time>
      </trkpt>
      <trkpt lat="46.16915" lon="6.37092">
        <ele>623</ele>
        <time>2015-07-05T18:02:30Z</time>
      </trkpt>
      <trkpt lat="46.16885" lon="6.37098">
        <ele>618</ele>
        <time>2015-07-05T18:02:33Z</time>
      </trkpt>
      <trkpt lat="46.16826" lon="6.37086">
        <ele>619</ele>
        <time>2015-07-05T18:02:39Z</time>
      </trkpt>
      <trkpt lat="46.16755" lon="6.37083">
        <ele>618</ele>
        <time>2015-07-05T18:02:46Z</time>
      </trkpt>
      <trkpt lat="46.16676" lon="6.37089">
        <ele>608</ele>
        <time>2015-07-05T18:02:54Z</time>
      </trkpt>
      <trkpt lat="46.16637" lon="6.37071">
        <ele>608</ele>
        <time>2015-07-05T18:02:58Z</time>
      </trkpt>
      <trkpt lat="46.16578" lon="6.37005">
        <ele>604</ele>
        <time>2015-07-05T18:03:05Z</time>
      </trkpt>
      <trkpt lat="46.16553" lon="6.36977">
        <ele>601</ele>
        <time>2015-07-05T18:03:08Z</time>
      </trkpt>
      <trkpt lat="46.16531" lon="6.3694">
        <ele>599</ele>
        <time>2015-07-05T18:03:11Z</time>
      </trkpt>
      <trkpt lat="46.16527" lon="6.36926">
        <ele>599</ele>
        <time>2015-07-05T18:03:12Z</time>
      </trkpt>
      <trkpt lat="46.16522" lon="6.36878">
        <ele>602</ele>
        <time>2015-07-05T18:03:15Z</time>
      </trkpt>
      <trkpt lat="46.16519" lon="6.36829">
        <ele>603</ele>
        <time>2015-07-05T18:03:18Z</time>
      </trkpt>
      <trkpt lat="46.16482" lon="6.36731">
        <ele>594</ele>
        <time>2015-07-05T18:03:25Z</time>
      </trkpt>
      <trkpt lat="46.16445" lon="6.36662">
        <ele>592</ele>
        <time>2015-07-05T18:03:30Z</time>
      </trkpt>
      <trkpt lat="46.16417" lon="6.36555">
        <ele>591</ele>
        <time>2015-07-05T18:03:38Z</time>
      </trkpt>
      <trkpt lat="46.16404" lon="6.36496">
        <ele>580</ele>
        <time>2015-07-05T18:03:43Z</time>
      </trkpt>
      <trkpt lat="46.16404" lon="6.36445">
        <ele>579</ele>
        <time>2015-07-05T18:03:48Z</time>
      </trkpt>
      <trkpt lat="46.16401" lon="6.36363">
        <ele>578</ele>
        <time>2015-07-05T18:03:56Z</time>
      </trkpt>
      <trkpt lat="46.16404" lon="6.36315">
        <ele>576</ele>
        <time>2015-07-05T18:04:01Z</time>
      </trkpt>
      <trkpt lat="46.16414" lon="6.36279">
        <ele>574</ele>
        <time>2015-07-05T18:04:05Z</time>
      </trkpt>
      <trkpt lat="46.16446" lon="6.36163">
        <ele>583</ele>
        <time>2015-07-05T18:04:18Z</time>
      </trkpt>
      <trkpt lat="46.16455" lon="6.36078">
        <ele>582</ele>
        <time>2015-07-05T18:04:27Z</time>
      </trkpt>
      <trkpt lat="46.16465" lon="6.36046">
        <ele>583</ele>
        <time>2015-07-05T18:04:31Z</time>
      </trkpt>
      <trkpt lat="46.16488" lon="6.36011">
        <ele>586</ele>
        <time>2015-07-05T18:04:37Z</time>
      </trkpt>
      <trkpt lat="46.16498" lon="6.35979">
        <ele>584</ele>
        <time>2015-07-05T18:04:42Z</time>
      </trkpt>
      <trkpt lat="46.165" lon="6.35942">
        <ele>592</ele>
        <time>2015-07-05T18:04:46Z</time>
      </trkpt>
      <trkpt lat="46.16509" lon="6.35857">
        <ele>588</ele>
        <time>2015-07-05T18:04:54Z</time>
      </trkpt>
      <trkpt lat="46.16513" lon="6.35826">
        <ele>585</ele>
        <time>2015-07-05T18:04:57Z</time>
      </trkpt>
      <trkpt lat="46.16519" lon="6.35775">
        <ele>589</ele>
        <time>2015-07-05T18:05:02Z</time>
      </trkpt>
      <trkpt lat="46.16516" lon="6.35648">
        <ele>586</ele>
        <time>2015-07-05T18:05:14Z</time>
      </trkpt>
      <trkpt lat="46.16522" lon="6.3562">
        <ele>587</ele>
        <time>2015-07-05T18:05:17Z</time>
      </trkpt>
      <trkpt lat="46.16541" lon="6.35527">
        <ele>587</ele>
        <time>2015-07-05T18:05:29Z</time>
      </trkpt>
      <trkpt lat="46.16542" lon="6.35521">
        <ele>587</ele>
        <time>2015-07-05T18:05:30Z</time>
      </trkpt>
      <trkpt lat="46.16545" lon="6.35487">
        <ele>587</ele>
        <time>2015-07-05T18:05:35Z</time>
      </trkpt>
      <trkpt lat="46.16545" lon="6.35377">
        <ele>586</ele>
        <time>2015-07-05T18:05:47Z</time>
      </trkpt>
      <trkpt lat="46.16547" lon="6.35367">
        <ele>586</ele>
        <time>2015-07-05T18:05:48Z</time>
      </trkpt>
      <trkpt lat="46.1655" lon="6.35337">
        <ele>587</ele>
        <time>2015-07-05T18:05:51Z</time>
      </trkpt>
      <trkpt lat="46.16553" lon="6.35278">
        <ele>588</ele>
        <time>2015-07-05T18:05:58Z</time>
      </trkpt>
      <trkpt lat="46.16556" lon="6.35266">
        <ele>589</ele>
        <time>2015-07-05T18:06:00Z</time>
      </trkpt>
      <trkpt lat="46.16567" lon="6.35248">
        <ele>592</ele>
        <time>2015-07-05T18:06:04Z</time>
      </trkpt>
      <trkpt lat="46.16581" lon="6.352">
        <ele>592</ele>
        <time>2015-07-05T18:06:12Z</time>
      </trkpt>
      <trkpt lat="46.16581" lon="6.35171">
        <ele>596</ele>
        <time>2015-07-05T18:06:16Z</time>
      </trkpt>
      <trkpt lat="46.16577" lon="6.35128">
        <ele>589</ele>
        <time>2015-07-05T18:06:21Z</time>
      </trkpt>
      <trkpt lat="46.16557" lon="6.3506">
        <ele>584</ele>
        <time>2015-07-05T18:06:28Z</time>
      </trkpt>
      <trkpt lat="46.1655" lon="6.35007">
        <ele>582</ele>
        <time>2015-07-05T18:06:33Z</time>
      </trkpt>
      <trkpt lat="46.16579" lon="6.34854">
        <ele>579</ele>
        <time>2015-07-05T18:06:48Z</time>
      </trkpt>
      <trkpt lat="46.16618" lon="6.34754">
        <ele>584</ele>
        <time>2015-07-05T18:06:59Z</time>
      </trkpt>
      <trkpt lat="46.16625" lon="6.34738">
        <ele>581</ele>
        <time>2015-07-05T18:07:01Z</time>
      </trkpt>
      <trkpt lat="46.16633" lon="6.34723">
        <ele>581</ele>
        <time>2015-07-05T18:07:03Z</time>
      </trkpt>
      <trkpt lat="46.16639" lon="6.34708">
        <ele>581</ele>
        <time>2015-07-05T18:07:05Z</time>
      </trkpt>
      <trkpt lat="46.16663" lon="6.34654">
        <ele>579</ele>
        <time>2015-07-05T18:07:12Z</time>
      </trkpt>
      <trkpt lat="46.1669" lon="6.34552">
        <ele>583</ele>
        <time>2015-07-05T18:07:22Z</time>
      </trkpt>
      <trkpt lat="46.16695" lon="6.34492">
        <ele>578</ele>
        <time>2015-07-05T18:07:28Z</time>
      </trkpt>
      <trkpt lat="46.16696" lon="6.34484">
        <ele>578</ele>
        <time>2015-07-05T18:07:29Z</time>
      </trkpt>
      <trkpt lat="46.1671" lon="6.34445">
        <ele>579</ele>
        <time>2015-07-05T18:07:34Z</time>
      </trkpt>
      <trkpt lat="46.16725" lon="6.34377">
        <ele>575</ele>
        <time>2015-07-05T18:07:40Z</time>
      </trkpt>
      <trkpt lat="46.16739" lon="6.34345">
        <ele>577</ele>
        <time>2015-07-05T18:07:44Z</time>
      </trkpt>
      <trkpt lat="46.16746" lon="6.34335">
        <ele>581</ele>
        <time>2015-07-05T18:07:46Z</time>
      </trkpt>
      <trkpt lat="46.16756" lon="6.34317">
        <ele>584</ele>
        <time>2015-07-05T18:07:49Z</time>
      </trkpt>
      <trkpt lat="46.16775" lon="6.34286">
        <ele>586</ele>
        <time>2015-07-05T18:07:54Z</time>
      </trkpt>
      <trkpt lat="46.16787" lon="6.34271">
        <ele>586</ele>
        <time>2015-07-05T18:07:57Z</time>
      </trkpt>
      <trkpt lat="46.16813" lon="6.34253">
        <ele>588</ele>
        <time>2015-07-05T18:08:03Z</time>
      </trkpt>
      <trkpt lat="46.16852" lon="6.34192">
        <ele>589</ele>
        <time>2015-07-05T18:08:14Z</time>
      </trkpt>
      <trkpt lat="46.16861" lon="6.34157">
        <ele>584</ele>
        <time>2015-07-05T18:08:18Z</time>
      </trkpt>
      <trkpt lat="46.16866" lon="6.34114">
        <ele>583</ele>
        <time>2015-07-05T18:08:26Z</time>
      </trkpt>
      <trkpt lat="46.16867" lon="6.34115">
        <ele>583</ele>
        <time>2015-07-05T18:08:48Z</time>
      </trkpt>
      <trkpt lat="46.16868" lon="6.34115">
        <ele>583</ele>
        <time>2015-07-05T18:08:57Z</time>
      </trkpt>
      <trkpt lat="46.16884" lon="6.34057">
        <ele>578</ele>
        <time>2015-07-05T18:09:06Z</time>
      </trkpt>
      <trkpt lat="46.16911" lon="6.3399">
        <ele>576</ele>
        <time>2015-07-05T18:09:13Z</time>
      </trkpt>
      <trkpt lat="46.1695" lon="6.33908">
        <ele>577</ele>
        <time>2015-07-05T18:09:21Z</time>
      </trkpt>
      <trkpt lat="46.1697" lon="6.3386">
        <ele>577</ele>
        <time>2015-07-05T18:09:25Z</time>
      </trkpt>
      <trkpt lat="46.16974" lon="6.33847">
        <ele>578</ele>
        <time>2015-07-05T18:09:26Z</time>
      </trkpt>
      <trkpt lat="46.1698" lon="6.33805">
        <ele>573</ele>
        <time>2015-07-05T18:09:29Z</time>
      </trkpt>
      <trkpt lat="46.16964" lon="6.33675">
        <ele>566</ele>
        <time>2015-07-05T18:09:39Z</time>
      </trkpt>
      <trkpt lat="46.16959" lon="6.33616">
        <ele>562</ele>
        <time>2015-07-05T18:09:44Z</time>
      </trkpt>
      <trkpt lat="46.16987" lon="6.33501">
        <ele>563</ele>
        <time>2015-07-05T18:09:55Z</time>
      </trkpt>
      <trkpt lat="46.17007" lon="6.33442">
        <ele>564</ele>
        <time>2015-07-05T18:10:01Z</time>
      </trkpt>
      <trkpt lat="46.17016" lon="6.33409">
        <ele>563</ele>
        <time>2015-07-05T18:10:05Z</time>
      </trkpt>
      <trkpt lat="46.1704" lon="6.33384">
        <ele>563</ele>
        <time>2015-07-05T18:10:11Z</time>
      </trkpt>
      <trkpt lat="46.17073" lon="6.3336">
        <ele>564</ele>
        <time>2015-07-05T18:10:18Z</time>
      </trkpt>
      <trkpt lat="46.17083" lon="6.33306">
        <ele>562</ele>
        <time>2015-07-05T18:10:26Z</time>
      </trkpt>
      <trkpt lat="46.17059" lon="6.33189">
        <ele>559</ele>
        <time>2015-07-05T18:10:38Z</time>
      </trkpt>
      <trkpt lat="46.17044" lon="6.33078">
        <ele>556</ele>
        <time>2015-07-05T18:10:48Z</time>
      </trkpt>
      <trkpt lat="46.17042" lon="6.33031">
        <ele>555</ele>
        <time>2015-07-05T18:10:52Z</time>
      </trkpt>
      <trkpt lat="46.17055" lon="6.32989">
        <ele>554</ele>
        <time>2015-07-05T18:10:56Z</time>
      </trkpt>
      <trkpt lat="46.17094" lon="6.3288">
        <ele>553</ele>
        <time>2015-07-05T18:11:06Z</time>
      </trkpt>
      <trkpt lat="46.17096" lon="6.32858">
        <ele>552</ele>
        <time>2015-07-05T18:11:08Z</time>
      </trkpt>
      <trkpt lat="46.17108" lon="6.32801">
        <ele>551</ele>
        <time>2015-07-05T18:11:13Z</time>
      </trkpt>
      <trkpt lat="46.17172" lon="6.3265">
        <ele>549</ele>
        <time>2015-07-05T18:11:28Z</time>
      </trkpt>
      <trkpt lat="46.17201" lon="6.32576">
        <ele>545</ele>
        <time>2015-07-05T18:11:35Z</time>
      </trkpt>
      <trkpt lat="46.17205" lon="6.32565">
        <ele>545</ele>
        <time>2015-07-05T18:11:36Z</time>
      </trkpt>
      <trkpt lat="46.17213" lon="6.32543">
        <ele>545</ele>
        <time>2015-07-05T18:11:38Z</time>
      </trkpt>
      <trkpt lat="46.17234" lon="6.32417">
        <ele>541</ele>
        <time>2015-07-05T18:11:48Z</time>
      </trkpt>
      <trkpt lat="46.1724" lon="6.32347">
        <ele>538</ele>
        <time>2015-07-05T18:11:53Z</time>
      </trkpt>
      <trkpt lat="46.17244" lon="6.32291">
        <ele>536</ele>
        <time>2015-07-05T18:11:57Z</time>
      </trkpt>
      <trkpt lat="46.17249" lon="6.32266">
        <ele>536</ele>
        <time>2015-07-05T18:11:59Z</time>
      </trkpt>
      <trkpt lat="46.17284" lon="6.3219">
        <ele>538</ele>
        <time>2015-07-05T18:12:08Z</time>
      </trkpt>
      <trkpt lat="46.17332" lon="6.32077">
        <ele>534</ele>
        <time>2015-07-05T18:12:21Z</time>
      </trkpt>
      <trkpt lat="46.17382" lon="6.31963">
        <ele>532</ele>
        <time>2015-07-05T18:12:33Z</time>
      </trkpt>
      <trkpt lat="46.17432" lon="6.31864">
        <ele>533</ele>
        <time>2015-07-05T18:12:43Z</time>
      </trkpt>
      <trkpt lat="46.1747" lon="6.31778">
        <ele>528</ele>
        <time>2015-07-05T18:12:51Z</time>
      </trkpt>
      <trkpt lat="46.17477" lon="6.31755">
        <ele>527</ele>
        <time>2015-07-05T18:12:53Z</time>
      </trkpt>
      <trkpt lat="46.17489" lon="6.31726">
        <ele>523</ele>
        <time>2015-07-05T18:12:56Z</time>
      </trkpt>
      <trkpt lat="46.17556" lon="6.31646">
        <ele>520</ele>
        <time>2015-07-05T18:13:06Z</time>
      </trkpt>
      <trkpt lat="46.17628" lon="6.31581">
        <ele>520</ele>
        <time>2015-07-05T18:13:18Z</time>
      </trkpt>
      <trkpt lat="46.17696" lon="6.31536">
        <ele>526</ele>
        <time>2015-07-05T18:13:31Z</time>
      </trkpt>
      <trkpt lat="46.17733" lon="6.31496">
        <ele>525</ele>
        <time>2015-07-05T18:13:38Z</time>
      </trkpt>
      <trkpt lat="46.178" lon="6.31409">
        <ele>521</ele>
        <time>2015-07-05T18:13:51Z</time>
      </trkpt>
      <trkpt lat="46.17871" lon="6.31264">
        <ele>520</ele>
        <time>2015-07-05T18:14:06Z</time>
      </trkpt>
      <trkpt lat="46.1795" lon="6.31129">
        <ele>521</ele>
        <time>2015-07-05T18:14:21Z</time>
      </trkpt>
      <trkpt lat="46.17976" lon="6.31115">
        <ele>523</ele>
        <time>2015-07-05T18:14:25Z</time>
      </trkpt>
      <trkpt lat="46.17993" lon="6.31108">
        <ele>524</ele>
        <time>2015-07-05T18:14:28Z</time>
      </trkpt>
      <trkpt lat="46.18003" lon="6.31102">
        <ele>530</ele>
        <time>2015-07-05T18:14:30Z</time>
      </trkpt>
      <trkpt lat="46.18023" lon="6.31097">
        <ele>532</ele>
        <time>2015-07-05T18:14:34Z</time>
      </trkpt>
      <trkpt lat="46.18033" lon="6.311">
        <ele>533</ele>
        <time>2015-07-05T18:14:36Z</time>
      </trkpt>
      <trkpt lat="46.18041" lon="6.31098">
        <ele>534</ele>
        <time>2015-07-05T18:14:38Z</time>
      </trkpt>
      <trkpt lat="46.18043" lon="6.31057">
        <ele>530</ele>
        <time>2015-07-05T18:14:44Z</time>
      </trkpt>
      <trkpt lat="46.18031" lon="6.30994">
        <ele>526</ele>
        <time>2015-07-05T18:14:50Z</time>
      </trkpt>
      <trkpt lat="46.18041" lon="6.30909">
        <ele>521</ele>
        <time>2015-07-05T18:14:57Z</time>
      </trkpt>
      <trkpt lat="46.1808" lon="6.30844">
        <ele>519</ele>
        <time>2015-07-05T18:15:04Z</time>
      </trkpt>
      <trkpt lat="46.18141" lon="6.30805">
        <ele>523</ele>
        <time>2015-07-05T18:15:14Z</time>
      </trkpt>
      <trkpt lat="46.18167" lon="6.30788">
        <ele>528</ele>
        <time>2015-07-05T18:15:19Z</time>
      </trkpt>
      <trkpt lat="46.18223" lon="6.30751">
        <ele>530</ele>
        <time>2015-07-05T18:15:30Z</time>
      </trkpt>
      <trkpt lat="46.18277" lon="6.30713">
        <ele>534</ele>
        <time>2015-07-05T18:15:43Z</time>
      </trkpt>
      <trkpt lat="46.1827" lon="6.30682">
        <ele>533</ele>
        <time>2015-07-05T18:15:49Z</time>
      </trkpt>
      <trkpt lat="46.18256" lon="6.30662">
        <ele>530</ele>
        <time>2015-07-05T18:15:52Z</time>
      </trkpt>
      <trkpt lat="46.18247" lon="6.30647">
        <ele>528</ele>
        <time>2015-07-05T18:15:54Z</time>
      </trkpt>
      <trkpt lat="46.18236" lon="6.30629">
        <ele>527</ele>
        <time>2015-07-05T18:15:56Z</time>
      </trkpt>
      <trkpt lat="46.18218" lon="6.30573">
        <ele>524</ele>
        <time>2015-07-05T18:16:02Z</time>
      </trkpt>
      <trkpt lat="46.18196" lon="6.30526">
        <ele>522</ele>
        <time>2015-07-05T18:16:08Z</time>
      </trkpt>
      <trkpt lat="46.18188" lon="6.30492">
        <ele>521</ele>
        <time>2015-07-05T18:16:15Z</time>
      </trkpt>
      <trkpt lat="46.18188" lon="6.30493">
        <ele>521</ele>
        <time>2015-07-05T18:16:18Z</time>
      </trkpt>
      <trkpt lat="46.1818" lon="6.30474">
        <ele>521</ele>
        <time>2015-07-05T18:16:23Z</time>
      </trkpt>
      <trkpt lat="46.18128" lon="6.30397">
        <ele>519</ele>
        <time>2015-07-05T18:16:33Z</time>
      </trkpt>
      <trkpt lat="46.18084" lon="6.30338">
        <ele>517</ele>
        <time>2015-07-05T18:16:41Z</time>
      </trkpt>
      <trkpt lat="46.18035" lon="6.30257">
        <ele>515</ele>
        <time>2015-07-05T18:16:50Z</time>
      </trkpt>
      <trkpt lat="46.18028" lon="6.30248">
        <ele>513</ele>
        <time>2015-07-05T18:16:51Z</time>
      </trkpt>
      <trkpt lat="46.18005" lon="6.30226">
        <ele>512</ele>
        <time>2015-07-05T18:16:54Z</time>
      </trkpt>
      <trkpt lat="46.1798" lon="6.30209">
        <ele>511</ele>
        <time>2015-07-05T18:16:57Z</time>
      </trkpt>
      <trkpt lat="46.17966" lon="6.3018">
        <ele>511</ele>
        <time>2015-07-05T18:17:00Z</time>
      </trkpt>
      <trkpt lat="46.17962" lon="6.30159">
        <ele>510</ele>
        <time>2015-07-05T18:17:02Z</time>
      </trkpt>
      <trkpt lat="46.17959" lon="6.30137">
        <ele>510</ele>
        <time>2015-07-05T18:17:04Z</time>
      </trkpt>
      <trkpt lat="46.17967" lon="6.30072">
        <ele>508</ele>
        <time>2015-07-05T18:17:10Z</time>
      </trkpt>
      <trkpt lat="46.17998" lon="6.29933">
        <ele>503</ele>
        <time>2015-07-05T18:17:22Z</time>
      </trkpt>
      <trkpt lat="46.18032" lon="6.29808">
        <ele>500</ele>
        <time>2015-07-05T18:17:32Z</time>
      </trkpt>
      <trkpt lat="46.18044" lon="6.29755">
        <ele>499</ele>
        <time>2015-07-05T18:17:36Z</time>
      </trkpt>
      <trkpt lat="46.18055" lon="6.29704">
        <ele>497</ele>
        <time>2015-07-05T18:17:40Z</time>
      </trkpt>
      <trkpt lat="46.18056" lon="6.29664">
        <ele>495</ele>
        <time>2015-07-05T18:17:43Z</time>
      </trkpt>
      <trkpt lat="46.18042" lon="6.29532">
        <ele>495</ele>
        <time>2015-07-05T18:17:53Z</time>
      </trkpt>
      <trkpt lat="46.18046" lon="6.29405">
        <ele>493</ele>
        <time>2015-07-05T18:18:03Z</time>
      </trkpt>
      <trkpt lat="46.18048" lon="6.29392">
        <ele>493</ele>
        <time>2015-07-05T18:18:04Z</time>
      </trkpt>
      <trkpt lat="46.18108" lon="6.29262">
        <ele>490</ele>
        <time>2015-07-05T18:18:16Z</time>
      </trkpt>
      <trkpt lat="46.18113" lon="6.29251">
        <ele>490</ele>
        <time>2015-07-05T18:18:17Z</time>
      </trkpt>
      <trkpt lat="46.18127" lon="6.29164">
        <ele>496</ele>
        <time>2015-07-05T18:18:25Z</time>
      </trkpt>
      <trkpt lat="46.18109" lon="6.29103">
        <ele>497</ele>
        <time>2015-07-05T18:18:32Z</time>
      </trkpt>
      <trkpt lat="46.18047" lon="6.29015">
        <ele>498</ele>
        <time>2015-07-05T18:18:45Z</time>
      </trkpt>
      <trkpt lat="46.18017" lon="6.28912">
        <ele>501</ele>
        <time>2015-07-05T18:18:58Z</time>
      </trkpt>
      <trkpt lat="46.18018" lon="6.28878">
        <ele>502</ele>
        <time>2015-07-05T18:19:02Z</time>
      </trkpt>
      <trkpt lat="46.18022" lon="6.28863">
        <ele>502</ele>
        <time>2015-07-05T18:19:04Z</time>
      </trkpt>
      <trkpt lat="46.18032" lon="6.28839">
        <ele>502</ele>
        <time>2015-07-05T18:19:08Z</time>
      </trkpt>
      <trkpt lat="46.18054" lon="6.2879">
        <ele>502</ele>
        <time>2015-07-05T18:19:16Z</time>
      </trkpt>
      <trkpt lat="46.18065" lon="6.28765">
        <ele>502</ele>
        <time>2015-07-05T18:19:20Z</time>
      </trkpt>
      <trkpt lat="46.18074" lon="6.28735">
        <ele>501</ele>
        <time>2015-07-05T18:19:26Z</time>
      </trkpt>
      <trkpt lat="46.18092" lon="6.28708">
        <ele>500</ele>
        <time>2015-07-05T18:19:35Z</time>
      </trkpt>
      <trkpt lat="46.18133" lon="6.28614">
        <ele>499</ele>
        <time>2015-07-05T18:19:49Z</time>
      </trkpt>
      <trkpt lat="46.18171" lon="6.28527">
        <ele>499</ele>
        <time>2015-07-05T18:19:59Z</time>
      </trkpt>
      <trkpt lat="46.18243" lon="6.28352">
        <ele>494</ele>
        <time>2015-07-05T18:20:15Z</time>
      </trkpt>
      <trkpt lat="46.18311" lon="6.28184">
        <ele>493</ele>
        <time>2015-07-05T18:20:30Z</time>
      </trkpt>
      <trkpt lat="46.18324" lon="6.28154">
        <ele>492</ele>
        <time>2015-07-05T18:20:33Z</time>
      </trkpt>
      <trkpt lat="46.18353" lon="6.28112">
        <ele>491</ele>
        <time>2015-07-05T18:20:39Z</time>
      </trkpt>
      <trkpt lat="46.1836" lon="6.28069">
        <ele>490</ele>
        <time>2015-07-05T18:20:43Z</time>
      </trkpt>
      <trkpt lat="46.18445" lon="6.27873">
        <ele>491</ele>
        <time>2015-07-05T18:21:02Z</time>
      </trkpt>
      <trkpt lat="46.18529" lon="6.27684">
        <ele>491</ele>
        <time>2015-07-05T18:21:21Z</time>
      </trkpt>
      <trkpt lat="46.18604" lon="6.27511">
        <ele>489</ele>
        <time>2015-07-05T18:21:39Z</time>
      </trkpt>
      <trkpt lat="46.18645" lon="6.27394">
        <ele>489</ele>
        <time>2015-07-05T18:21:50Z</time>
      </trkpt>
      <trkpt lat="46.18711" lon="6.27224">
        <ele>489</ele>
        <time>2015-07-05T18:22:07Z</time>
      </trkpt>
      <trkpt lat="46.18722" lon="6.27196">
        <ele>488</ele>
        <time>2015-07-05T18:22:10Z</time>
      </trkpt>
      <trkpt lat="46.18734" lon="6.2717">
        <ele>488</ele>
        <time>2015-07-05T18:22:13Z</time>
      </trkpt>
      <trkpt lat="46.18763" lon="6.27099">
        <ele>486</ele>
        <time>2015-07-05T18:22:21Z</time>
      </trkpt>
      <trkpt lat="46.18772" lon="6.2708">
        <ele>486</ele>
        <time>2015-07-05T18:22:23Z</time>
      </trkpt>
      <trkpt lat="46.18808" lon="6.26953">
        <ele>484</ele>
        <time>2015-07-05T18:22:34Z</time>
      </trkpt>
      <trkpt lat="46.18837" lon="6.26758">
        <ele>485</ele>
        <time>2015-07-05T18:22:50Z</time>
      </trkpt>
      <trkpt lat="46.18878" lon="6.26543">
        <ele>485</ele>
        <time>2015-07-05T18:23:07Z</time>
      </trkpt>
      <trkpt lat="46.18923" lon="6.26362">
        <ele>483</ele>
        <time>2015-07-05T18:23:23Z</time>
      </trkpt>
      <trkpt lat="46.18974" lon="6.26223">
        <ele>483</ele>
        <time>2015-07-05T18:23:36Z</time>
      </trkpt>
      <trkpt lat="46.19057" lon="6.26022">
        <ele>481</ele>
        <time>2015-07-05T18:23:55Z</time>
      </trkpt>
      <trkpt lat="46.19102" lon="6.25829">
        <ele>475</ele>
        <time>2015-07-05T18:24:11Z</time>
      </trkpt>
      <trkpt lat="46.19107" lon="6.25653">
        <ele>474</ele>
        <time>2015-07-05T18:24:24Z</time>
      </trkpt>
      <trkpt lat="46.19128" lon="6.25491">
        <ele>471</ele>
        <time>2015-07-05T18:24:36Z</time>
      </trkpt>
      <trkpt lat="46.19131" lon="6.25478">
        <ele>470</ele>
        <time>2015-07-05T18:24:37Z</time>
      </trkpt>
      <trkpt lat="46.19132" lon="6.25333">
        <ele>462</ele>
        <time>2015-07-05T18:24:48Z</time>
      </trkpt>
      <trkpt lat="46.19131" lon="6.25252">
        <ele>461</ele>
        <time>2015-07-05T18:24:54Z</time>
      </trkpt>
      <trkpt lat="46.19133" lon="6.25171">
        <ele>460</ele>
        <time>2015-07-05T18:25:00Z</time>
      </trkpt>
      <trkpt lat="46.19139" lon="6.25129">
        <ele>459</ele>
        <time>2015-07-05T18:25:04Z</time>
      </trkpt>
      <trkpt lat="46.19151" lon="6.25104">
        <ele>459</ele>
        <time>2015-07-05T18:25:08Z</time>
      </trkpt>
      <trkpt lat="46.19157" lon="6.25045">
        <ele>456</ele>
        <time>2015-07-05T18:25:15Z</time>
      </trkpt>
      <trkpt lat="46.19156" lon="6.25034">
        <ele>456</ele>
        <time>2015-07-05T18:25:16Z</time>
      </trkpt>
      <trkpt lat="46.19166" lon="6.24907">
        <ele>453</ele>
        <time>2015-07-05T18:25:26Z</time>
      </trkpt>
      <trkpt lat="46.1918" lon="6.24814">
        <ele>450</ele>
        <time>2015-07-05T18:25:33Z</time>
      </trkpt>
      <trkpt lat="46.19182" lon="6.248">
        <ele>449</ele>
        <time>2015-07-05T18:25:34Z</time>
      </trkpt>
      <trkpt lat="46.19201" lon="6.24725">
        <ele>447</ele>
        <time>2015-07-05T18:25:40Z</time>
      </trkpt>
      <trkpt lat="46.19223" lon="6.24649">
        <ele>445</ele>
        <time>2015-07-05T18:25:46Z</time>
      </trkpt>
      <trkpt lat="46.19258" lon="6.24534">
        <ele>442</ele>
        <time>2015-07-05T18:25:55Z</time>
      </trkpt>
      <trkpt lat="46.19289" lon="6.24422">
        <ele>441</ele>
        <time>2015-07-05T18:26:03Z</time>
      </trkpt>
      <trkpt lat="46.19327" lon="6.24288">
        <ele>440</ele>
        <time>2015-07-05T18:26:13Z</time>
      </trkpt>
      <trkpt lat="46.19379" lon="6.24167">
        <ele>439</ele>
        <time>2015-07-05T18:26:24Z</time>
      </trkpt>
      <trkpt lat="46.19411" lon="6.24093">
        <ele>439</ele>
        <time>2015-07-05T18:26:32Z</time>
      </trkpt>
      <trkpt lat="46.19427" lon="6.24036">
        <ele>439</ele>
        <time>2015-07-05T18:26:39Z</time>
      </trkpt>
      <trkpt lat="46.1942" lon="6.23966">
        <ele>439</ele>
        <time>2015-07-05T18:26:46Z</time>
      </trkpt>
      <trkpt lat="46.1942" lon="6.23955">
        <ele>439</ele>
        <time>2015-07-05T18:26:47Z</time>
      </trkpt>
      <trkpt lat="46.19414" lon="6.23838">
        <ele>439</ele>
        <time>2015-07-05T18:26:57Z</time>
      </trkpt>
      <trkpt lat="46.19415" lon="6.23803">
        <ele>439</ele>
        <time>2015-07-05T18:27:00Z</time>
      </trkpt>
      <trkpt lat="46.19449" lon="6.23672">
        <ele>440</ele>
        <time>2015-07-05T18:27:12Z</time>
      </trkpt>
      <trkpt lat="46.19458" lon="6.2363">
        <ele>440</ele>
        <time>2015-07-05T18:27:16Z</time>
      </trkpt>
      <trkpt lat="46.19477" lon="6.236">
        <ele>439</ele>
        <time>2015-07-05T18:27:20Z</time>
      </trkpt>
      <trkpt lat="46.19497" lon="6.23575">
        <ele>439</ele>
        <time>2015-07-05T18:27:27Z</time>
      </trkpt>
      <trkpt lat="46.19472" lon="6.23546">
        <ele>439</ele>
        <time>2015-07-05T18:27:34Z</time>
      </trkpt>
      <trkpt lat="46.1947" lon="6.235">
        <ele>438</ele>
        <time>2015-07-05T18:27:40Z</time>
      </trkpt>
      <trkpt lat="46.19478" lon="6.2342">
        <ele>437</ele>
        <time>2015-07-05T18:27:49Z</time>
      </trkpt>
      <trkpt lat="46.19479" lon="6.23333">
        <ele>436</ele>
        <time>2015-07-05T18:28:00Z</time>
      </trkpt>
      <trkpt lat="46.19478" lon="6.23303">
        <ele>436</ele>
        <time>2015-07-05T18:28:03Z</time>
      </trkpt>
      <trkpt lat="46.19447" lon="6.23186">
        <ele>434</ele>
        <time>2015-07-05T18:28:15Z</time>
      </trkpt>
      <trkpt lat="46.19391" lon="6.22989">
        <ele>433</ele>
        <time>2015-07-05T18:28:35Z</time>
      </trkpt>
      <trkpt lat="46.19365" lon="6.22877">
        <ele>431</ele>
        <time>2015-07-05T18:28:48Z</time>
      </trkpt>
      <trkpt lat="46.19365" lon="6.22868">
        <ele>431</ele>
        <time>2015-07-05T18:28:50Z</time>
      </trkpt>
      <trkpt lat="46.19371" lon="6.22856">
        <ele>431</ele>
        <time>2015-07-05T18:28:53Z</time>
      </trkpt>
      <trkpt lat="46.19363" lon="6.22847">
        <ele>431</ele>
        <time>2015-07-05T18:28:57Z</time>
      </trkpt>
      <trkpt lat="46.19316" lon="6.22859">
        <ele>431</ele>
        <time>2015-07-05T18:29:07Z</time>
      </trkpt>
      <trkpt lat="46.19301" lon="6.22858">
        <ele>431</ele>
        <time>2015-07-05T18:29:10Z</time>
      </trkpt>
      <trkpt lat="46.19292" lon="6.22818">
        <ele>431</ele>
        <time>2015-07-05T18:29:16Z</time>
      </trkpt>
      <trkpt lat="46.19303" lon="6.22677">
        <ele>431</ele>
        <time>2015-07-05T18:29:29Z</time>
      </trkpt>
      <trkpt lat="46.19305" lon="6.22655">
        <ele>430</ele>
        <time>2015-07-05T18:29:31Z</time>
      </trkpt>
      <trkpt lat="46.19298" lon="6.22515">
        <ele>428</ele>
        <time>2015-07-05T18:29:45Z</time>
      </trkpt>
      <trkpt lat="46.1927" lon="6.22398">
        <ele>428</ele>
        <time>2015-07-05T18:29:58Z</time>
      </trkpt>
      <trkpt lat="46.19237" lon="6.22259">
        <ele>425</ele>
        <time>2015-07-05T18:30:11Z</time>
      </trkpt>
      <trkpt lat="46.19212" lon="6.2218">
        <ele>424</ele>
        <time>2015-07-05T18:30:19Z</time>
      </trkpt>
      <trkpt lat="46.19194" lon="6.22118">
        <ele>424</ele>
        <time>2015-07-05T18:30:25Z</time>
      </trkpt>
      <trkpt lat="46.19181" lon="6.22035">
        <ele>424</ele>
        <time>2015-07-05T18:30:32Z</time>
      </trkpt>
      <trkpt lat="46.19171" lon="6.21958">
        <ele>424</ele>
        <time>2015-07-05T18:30:40Z</time>
      </trkpt>
      <trkpt lat="46.19161" lon="6.21919">
        <ele>424</ele>
        <time>2015-07-05T18:30:48Z</time>
      </trkpt>
      <trkpt lat="46.1915" lon="6.21907">
        <ele>424</ele>
        <time>2015-07-05T18:30:52Z</time>
      </trkpt>
      <trkpt lat="46.19101" lon="6.21877">
        <ele>424</ele>
        <time>2015-07-05T18:31:00Z</time>
      </trkpt>
      <trkpt lat="46.19073" lon="6.21847">
        <ele>423</ele>
        <time>2015-07-05T18:31:05Z</time>
      </trkpt>
      <trkpt lat="46.19003" lon="6.21727">
        <ele>421</ele>
        <time>2015-07-05T18:31:20Z</time>
      </trkpt>
      <trkpt lat="46.1893" lon="6.21641">
        <ele>420</ele>
        <time>2015-07-05T18:31:35Z</time>
      </trkpt>
      <trkpt lat="46.18877" lon="6.21581">
        <ele>419</ele>
        <time>2015-07-05T18:31:50Z</time>
      </trkpt>
      <trkpt lat="46.18855" lon="6.21552">
        <ele>419</ele>
        <time>2015-07-05T18:31:59Z</time>
      </trkpt>
      <trkpt lat="46.18844" lon="6.2152">
        <ele>419</ele>
        <time>2015-07-05T18:32:04Z</time>
      </trkpt>
      <trkpt lat="46.18801" lon="6.214">
        <ele>417</ele>
        <time>2015-07-05T18:32:20Z</time>
      </trkpt>
      <trkpt lat="46.18729" lon="6.21311">
        <ele>419</ele>
        <time>2015-07-05T18:32:34Z</time>
      </trkpt>
      <trkpt lat="46.18632" lon="6.2126">
        <ele>417</ele>
        <time>2015-07-05T18:32:48Z</time>
      </trkpt>
      <trkpt lat="46.18513" lon="6.21185">
        <ele>417</ele>
        <time>2015-07-05T18:33:06Z</time>
      </trkpt>
      <trkpt lat="46.18407" lon="6.21124">
        <ele>422</ele>
        <time>2015-07-05T18:33:23Z</time>
      </trkpt>
      <trkpt lat="46.18388" lon="6.21118">
        <ele>422</ele>
        <time>2015-07-05T18:33:26Z</time>
      </trkpt>
      <trkpt lat="46.18358" lon="6.21115">
        <ele>423</ele>
        <time>2015-07-05T18:33:31Z</time>
      </trkpt>
      <trkpt lat="46.18327" lon="6.21104">
        <ele>422</ele>
        <time>2015-07-05T18:33:36Z</time>
      </trkpt>
      <trkpt lat="46.18302" lon="6.21063">
        <ele>419</ele>
        <time>2015-07-05T18:33:42Z</time>
      </trkpt>
      <trkpt lat="46.18291" lon="6.21">
        <ele>418</ele>
        <time>2015-07-05T18:33:49Z</time>
      </trkpt>
      <trkpt lat="46.1829" lon="6.20821">
        <ele>418</ele>
        <time>2015-07-05T18:34:07Z</time>
      </trkpt>
      <trkpt lat="46.18271" lon="6.20724">
        <ele>417</ele>
        <time>2015-07-05T18:34:19Z</time>
      </trkpt>
      <trkpt lat="46.18267" lon="6.2071">
        <ele>417</ele>
        <time>2015-07-05T18:34:21Z</time>
      </trkpt>
      <trkpt lat="46.18259" lon="6.20689">
        <ele>417</ele>
        <time>2015-07-05T18:34:30Z</time>
      </trkpt>
      <trkpt lat="46.18259" lon="6.2069">
        <ele>417</ele>
        <time>2015-07-05T18:34:32Z</time>
      </trkpt>
    </trkseg>
  </trk>
</gpx>